<?xml version="1.0" encoding="UTF-8" standalone="no" ?>
<gpx xmlns="http://www.topografix.com/GPX/1/1" xmlns:xsi="http://www.w3.org/2001/XMLSchema-instance" xsi:schemaLocation="http://www.topografix.com/GPX/1/1 http://www.topografix.com/GPX/1/1/gpx.xsd" version="1.1" creator="VisuGPX - https://www.visugpx.com">
  <metadata>
    <name>Les hauts de Volonne</name>
  </metadata>
  <trk>
    <name><![CDATA[30/01/2020 08:51:04 les hauts de Volonne]]></name>
    <extensions>
      <line xmlns="http://www.topografix.com/GPX/gpx_style/0/2">
        <color>0000FF</color>
        <width>4</width>
      </line>
    </extensions>
    <trkseg>
      <trkpt lat="44.11201" lon="6.0133">
        <ele>447.39999389648</ele>
        <time>2020-01-30T07:51:04Z</time>
      </trkpt>
      <trkpt lat="44.11202" lon="6.01331">
        <ele>447.39999389648</ele>
        <time>2020-01-30T07:51:05Z</time>
      </trkpt>
      <trkpt lat="44.11212" lon="6.01349">
        <ele>447.79998779297</ele>
        <time>2020-01-30T07:51:18Z</time>
      </trkpt>
      <trkpt lat="44.11223" lon="6.01368">
        <ele>447.79998779297</ele>
        <time>2020-01-30T07:51:32Z</time>
      </trkpt>
      <trkpt lat="44.11235" lon="6.01383">
        <ele>447.79998779297</ele>
        <time>2020-01-30T07:51:45Z</time>
      </trkpt>
      <trkpt lat="44.11237" lon="6.01389">
        <ele>448</ele>
        <time>2020-01-30T07:51:49Z</time>
      </trkpt>
      <trkpt lat="44.11241" lon="6.01397">
        <ele>448.20001220703</ele>
        <time>2020-01-30T07:51:57Z</time>
      </trkpt>
      <trkpt lat="44.11245" lon="6.01399">
        <ele>449.60000610352</ele>
        <time>2020-01-30T07:52:15Z</time>
      </trkpt>
      <trkpt lat="44.11247" lon="6.01398">
        <ele>449.39999389648</ele>
        <time>2020-01-30T07:52:39Z</time>
      </trkpt>
      <trkpt lat="44.11244" lon="6.01394">
        <ele>449.39999389648</ele>
        <time>2020-01-30T07:52:43Z</time>
      </trkpt>
      <trkpt lat="44.11235" lon="6.01378">
        <ele>448.60000610352</ele>
        <time>2020-01-30T07:52:57Z</time>
      </trkpt>
      <trkpt lat="44.11224" lon="6.01358">
        <ele>447.60000610352</ele>
        <time>2020-01-30T07:53:14Z</time>
      </trkpt>
      <trkpt lat="44.1121" lon="6.01333">
        <ele>447.20001220703</ele>
        <time>2020-01-30T07:53:34Z</time>
      </trkpt>
      <trkpt lat="44.11209" lon="6.01334">
        <ele>447</ele>
        <time>2020-01-30T07:53:43Z</time>
      </trkpt>
      <trkpt lat="44.11218" lon="6.01355">
        <ele>447.79998779297</ele>
        <time>2020-01-30T07:54:00Z</time>
      </trkpt>
      <trkpt lat="44.11227" lon="6.0137">
        <ele>449.39999389648</ele>
        <time>2020-01-30T07:54:14Z</time>
      </trkpt>
      <trkpt lat="44.11227" lon="6.01373">
        <ele>449.60000610352</ele>
        <time>2020-01-30T07:54:16Z</time>
      </trkpt>
      <trkpt lat="44.11235" lon="6.01387">
        <ele>450.60000610352</ele>
        <time>2020-01-30T07:54:31Z</time>
      </trkpt>
      <trkpt lat="44.11246" lon="6.01403">
        <ele>452.20001220703</ele>
        <time>2020-01-30T07:54:48Z</time>
      </trkpt>
      <trkpt lat="44.11255" lon="6.01419">
        <ele>453.20001220703</ele>
        <time>2020-01-30T07:55:01Z</time>
      </trkpt>
      <trkpt lat="44.11264" lon="6.01437">
        <ele>454.60000610352</ele>
        <time>2020-01-30T07:55:15Z</time>
      </trkpt>
      <trkpt lat="44.11272" lon="6.0145">
        <ele>455.79998779297</ele>
        <time>2020-01-30T07:55:28Z</time>
      </trkpt>
      <trkpt lat="44.11278" lon="6.01463">
        <ele>457</ele>
        <time>2020-01-30T07:55:38Z</time>
      </trkpt>
      <trkpt lat="44.11278" lon="6.01473">
        <ele>457.79998779297</ele>
        <time>2020-01-30T07:55:45Z</time>
      </trkpt>
      <trkpt lat="44.11272" lon="6.01484">
        <ele>458.60000610352</ele>
        <time>2020-01-30T07:55:52Z</time>
      </trkpt>
      <trkpt lat="44.11263" lon="6.01502">
        <ele>458.79998779297</ele>
        <time>2020-01-30T07:56:05Z</time>
      </trkpt>
      <trkpt lat="44.11265" lon="6.01511">
        <ele>459</ele>
        <time>2020-01-30T07:56:14Z</time>
      </trkpt>
      <trkpt lat="44.11285" lon="6.01515">
        <ele>460.60000610352</ele>
        <time>2020-01-30T07:56:31Z</time>
      </trkpt>
      <trkpt lat="44.11301" lon="6.01522">
        <ele>462.20001220703</ele>
        <time>2020-01-30T07:56:47Z</time>
      </trkpt>
      <trkpt lat="44.11316" lon="6.01529">
        <ele>463.39999389648</ele>
        <time>2020-01-30T07:57:00Z</time>
      </trkpt>
      <trkpt lat="44.11335" lon="6.01531">
        <ele>464.79998779297</ele>
        <time>2020-01-30T07:57:19Z</time>
      </trkpt>
      <trkpt lat="44.11353" lon="6.0153">
        <ele>466.20001220703</ele>
        <time>2020-01-30T07:57:35Z</time>
      </trkpt>
      <trkpt lat="44.11354" lon="6.0153">
        <ele>466.39999389648</ele>
        <time>2020-01-30T07:57:36Z</time>
      </trkpt>
      <trkpt lat="44.11369" lon="6.01526">
        <ele>468.20001220703</ele>
        <time>2020-01-30T07:57:52Z</time>
      </trkpt>
      <trkpt lat="44.11385" lon="6.0152">
        <ele>469.39999389648</ele>
        <time>2020-01-30T07:58:08Z</time>
      </trkpt>
      <trkpt lat="44.11402" lon="6.01513">
        <ele>470.79998779297</ele>
        <time>2020-01-30T07:58:24Z</time>
      </trkpt>
      <trkpt lat="44.11419" lon="6.01506">
        <ele>472.60000610352</ele>
        <time>2020-01-30T07:58:42Z</time>
      </trkpt>
      <trkpt lat="44.11438" lon="6.01498">
        <ele>473.20001220703</ele>
        <time>2020-01-30T07:59:02Z</time>
      </trkpt>
      <trkpt lat="44.11447" lon="6.01494">
        <ele>474</ele>
        <time>2020-01-30T07:59:21Z</time>
      </trkpt>
      <trkpt lat="44.11466" lon="6.01489">
        <ele>474.79998779297</ele>
        <time>2020-01-30T07:59:43Z</time>
      </trkpt>
      <trkpt lat="44.11478" lon="6.01486">
        <ele>475.79998779297</ele>
        <time>2020-01-30T08:00:00Z</time>
      </trkpt>
      <trkpt lat="44.11492" lon="6.01481">
        <ele>476.60000610352</ele>
        <time>2020-01-30T08:00:21Z</time>
      </trkpt>
      <trkpt lat="44.11504" lon="6.01477">
        <ele>478.39999389648</ele>
        <time>2020-01-30T08:00:40Z</time>
      </trkpt>
      <trkpt lat="44.115" lon="6.01481">
        <ele>478.20001220703</ele>
        <time>2020-01-30T08:01:24Z</time>
      </trkpt>
      <trkpt lat="44.115" lon="6.01484">
        <ele>478.20001220703</ele>
        <time>2020-01-30T08:01:54Z</time>
      </trkpt>
      <trkpt lat="44.11508" lon="6.01479">
        <ele>478.39999389648</ele>
        <time>2020-01-30T08:02:45Z</time>
      </trkpt>
      <trkpt lat="44.11502" lon="6.01484">
        <ele>478.20001220703</ele>
        <time>2020-01-30T08:02:52Z</time>
      </trkpt>
      <trkpt lat="44.115" lon="6.01485">
        <ele>478.20001220703</ele>
        <time>2020-01-30T08:02:54Z</time>
      </trkpt>
      <trkpt lat="44.11499" lon="6.01488">
        <ele>478.20001220703</ele>
        <time>2020-01-30T08:02:57Z</time>
      </trkpt>
      <trkpt lat="44.11502" lon="6.01487">
        <ele>478.20001220703</ele>
        <time>2020-01-30T08:03:23Z</time>
      </trkpt>
      <trkpt lat="44.11498" lon="6.01489">
        <ele>478.20001220703</ele>
        <time>2020-01-30T08:03:41Z</time>
      </trkpt>
      <trkpt lat="44.11492" lon="6.01485">
        <ele>477.79998779297</ele>
        <time>2020-01-30T08:04:00Z</time>
      </trkpt>
      <trkpt lat="44.11489" lon="6.01484">
        <ele>477.39999389648</ele>
        <time>2020-01-30T08:04:22Z</time>
      </trkpt>
      <trkpt lat="44.11486" lon="6.0148">
        <ele>477</ele>
        <time>2020-01-30T08:04:42Z</time>
      </trkpt>
      <trkpt lat="44.11481" lon="6.01483">
        <ele>476.79998779297</ele>
        <time>2020-01-30T08:04:56Z</time>
      </trkpt>
      <trkpt lat="44.11473" lon="6.01487">
        <ele>476.20001220703</ele>
        <time>2020-01-30T08:05:11Z</time>
      </trkpt>
      <trkpt lat="44.11472" lon="6.01486">
        <ele>475.79998779297</ele>
        <time>2020-01-30T08:05:29Z</time>
      </trkpt>
      <trkpt lat="44.1147" lon="6.01487">
        <ele>475.79998779297</ele>
        <time>2020-01-30T08:05:53Z</time>
      </trkpt>
      <trkpt lat="44.11462" lon="6.01489">
        <ele>475.60000610352</ele>
        <time>2020-01-30T08:06:09Z</time>
      </trkpt>
      <trkpt lat="44.11445" lon="6.01496">
        <ele>474.20001220703</ele>
        <time>2020-01-30T08:06:23Z</time>
      </trkpt>
      <trkpt lat="44.11438" lon="6.01498">
        <ele>473.60000610352</ele>
        <time>2020-01-30T08:06:38Z</time>
      </trkpt>
      <trkpt lat="44.11434" lon="6.01499">
        <ele>473.60000610352</ele>
        <time>2020-01-30T08:06:44Z</time>
      </trkpt>
      <trkpt lat="44.11432" lon="6.015">
        <ele>473.60000610352</ele>
        <time>2020-01-30T08:06:46Z</time>
      </trkpt>
      <trkpt lat="44.11414" lon="6.01509">
        <ele>472.79998779297</ele>
        <time>2020-01-30T08:07:01Z</time>
      </trkpt>
      <trkpt lat="44.11401" lon="6.01513">
        <ele>472.20001220703</ele>
        <time>2020-01-30T08:07:13Z</time>
      </trkpt>
      <trkpt lat="44.11384" lon="6.01521">
        <ele>470.79998779297</ele>
        <time>2020-01-30T08:07:29Z</time>
      </trkpt>
      <trkpt lat="44.11374" lon="6.01523">
        <ele>469.60000610352</ele>
        <time>2020-01-30T08:07:39Z</time>
      </trkpt>
      <trkpt lat="44.11348" lon="6.01527">
        <ele>468</ele>
        <time>2020-01-30T08:08:00Z</time>
      </trkpt>
      <trkpt lat="44.1133" lon="6.01527">
        <ele>466.60000610352</ele>
        <time>2020-01-30T08:08:15Z</time>
      </trkpt>
      <trkpt lat="44.11328" lon="6.01526">
        <ele>466.60000610352</ele>
        <time>2020-01-30T08:08:16Z</time>
      </trkpt>
      <trkpt lat="44.11309" lon="6.0152">
        <ele>465.39999389648</ele>
        <time>2020-01-30T08:08:32Z</time>
      </trkpt>
      <trkpt lat="44.11296" lon="6.01513">
        <ele>464.60000610352</ele>
        <time>2020-01-30T08:08:44Z</time>
      </trkpt>
      <trkpt lat="44.11291" lon="6.0151">
        <ele>464.20001220703</ele>
        <time>2020-01-30T08:08:48Z</time>
      </trkpt>
      <trkpt lat="44.11273" lon="6.01509">
        <ele>462.60000610352</ele>
        <time>2020-01-30T08:09:01Z</time>
      </trkpt>
      <trkpt lat="44.11269" lon="6.01508">
        <ele>462.39999389648</ele>
        <time>2020-01-30T08:09:05Z</time>
      </trkpt>
      <trkpt lat="44.11266" lon="6.01508">
        <ele>462</ele>
        <time>2020-01-30T08:09:08Z</time>
      </trkpt>
      <trkpt lat="44.11244" lon="6.01513">
        <ele>460.20001220703</ele>
        <time>2020-01-30T08:09:27Z</time>
      </trkpt>
      <trkpt lat="44.11225" lon="6.01514">
        <ele>460.39999389648</ele>
        <time>2020-01-30T08:09:42Z</time>
      </trkpt>
      <trkpt lat="44.1121" lon="6.01514">
        <ele>460.79998779297</ele>
        <time>2020-01-30T08:09:56Z</time>
      </trkpt>
      <trkpt lat="44.1119" lon="6.01512">
        <ele>461.20001220703</ele>
        <time>2020-01-30T08:10:11Z</time>
      </trkpt>
      <trkpt lat="44.11172" lon="6.01514">
        <ele>461.79998779297</ele>
        <time>2020-01-30T08:10:27Z</time>
      </trkpt>
      <trkpt lat="44.11158" lon="6.01516">
        <ele>462.20001220703</ele>
        <time>2020-01-30T08:10:41Z</time>
      </trkpt>
      <trkpt lat="44.11145" lon="6.01522">
        <ele>463.79998779297</ele>
        <time>2020-01-30T08:10:57Z</time>
      </trkpt>
      <trkpt lat="44.1113" lon="6.01526">
        <ele>466.39999389648</ele>
        <time>2020-01-30T08:11:13Z</time>
      </trkpt>
      <trkpt lat="44.11122" lon="6.01533">
        <ele>469.39999389648</ele>
        <time>2020-01-30T08:11:29Z</time>
      </trkpt>
      <trkpt lat="44.11112" lon="6.01534">
        <ele>472.60000610352</ele>
        <time>2020-01-30T08:11:49Z</time>
      </trkpt>
      <trkpt lat="44.11105" lon="6.0154">
        <ele>475.60000610352</ele>
        <time>2020-01-30T08:12:08Z</time>
      </trkpt>
      <trkpt lat="44.11095" lon="6.01547">
        <ele>477.39999389648</ele>
        <time>2020-01-30T08:12:31Z</time>
      </trkpt>
      <trkpt lat="44.11092" lon="6.01548">
        <ele>478.20001220703</ele>
        <time>2020-01-30T08:12:35Z</time>
      </trkpt>
      <trkpt lat="44.11082" lon="6.01551">
        <ele>481.39999389648</ele>
        <time>2020-01-30T08:12:49Z</time>
      </trkpt>
      <trkpt lat="44.11081" lon="6.01555">
        <ele>482</ele>
        <time>2020-01-30T08:13:09Z</time>
      </trkpt>
      <trkpt lat="44.11087" lon="6.01556">
        <ele>481.79998779297</ele>
        <time>2020-01-30T08:13:25Z</time>
      </trkpt>
      <trkpt lat="44.1109" lon="6.01563">
        <ele>484.39999389648</ele>
        <time>2020-01-30T08:13:42Z</time>
      </trkpt>
      <trkpt lat="44.11091" lon="6.01568">
        <ele>487.60000610352</ele>
        <time>2020-01-30T08:14:00Z</time>
      </trkpt>
      <trkpt lat="44.11089" lon="6.01576">
        <ele>489.20001220703</ele>
        <time>2020-01-30T08:14:21Z</time>
      </trkpt>
      <trkpt lat="44.11085" lon="6.01587">
        <ele>487.79998779297</ele>
        <time>2020-01-30T08:14:44Z</time>
      </trkpt>
      <trkpt lat="44.11091" lon="6.01595">
        <ele>488</ele>
        <time>2020-01-30T08:15:02Z</time>
      </trkpt>
      <trkpt lat="44.11095" lon="6.01603">
        <ele>491</ele>
        <time>2020-01-30T08:15:15Z</time>
      </trkpt>
      <trkpt lat="44.11101" lon="6.01602">
        <ele>494.20001220703</ele>
        <time>2020-01-30T08:15:33Z</time>
      </trkpt>
      <trkpt lat="44.11106" lon="6.01607">
        <ele>497.39999389648</ele>
        <time>2020-01-30T08:15:47Z</time>
      </trkpt>
      <trkpt lat="44.11108" lon="6.01597">
        <ele>499.60000610352</ele>
        <time>2020-01-30T08:16:07Z</time>
      </trkpt>
      <trkpt lat="44.11112" lon="6.01601">
        <ele>502.20001220703</ele>
        <time>2020-01-30T08:16:29Z</time>
      </trkpt>
      <trkpt lat="44.11115" lon="6.0161">
        <ele>505.20001220703</ele>
        <time>2020-01-30T08:16:48Z</time>
      </trkpt>
      <trkpt lat="44.11119" lon="6.01607">
        <ele>506.60000610352</ele>
        <time>2020-01-30T08:16:54Z</time>
      </trkpt>
      <trkpt lat="44.11118" lon="6.016">
        <ele>507.20001220703</ele>
        <time>2020-01-30T08:17:30Z</time>
      </trkpt>
      <trkpt lat="44.11113" lon="6.01595">
        <ele>508</ele>
        <time>2020-01-30T08:17:46Z</time>
      </trkpt>
      <trkpt lat="44.11114" lon="6.01593">
        <ele>507.60000610352</ele>
        <time>2020-01-30T08:18:45Z</time>
      </trkpt>
      <trkpt lat="44.11114" lon="6.01596">
        <ele>507.60000610352</ele>
        <time>2020-01-30T08:19:45Z</time>
      </trkpt>
      <trkpt lat="44.11115" lon="6.01595">
        <ele>508.79998779297</ele>
        <time>2020-01-30T08:20:06Z</time>
      </trkpt>
      <trkpt lat="44.11117" lon="6.01597">
        <ele>508.39999389648</ele>
        <time>2020-01-30T08:20:57Z</time>
      </trkpt>
      <trkpt lat="44.11123" lon="6.01603">
        <ele>510.79998779297</ele>
        <time>2020-01-30T08:21:15Z</time>
      </trkpt>
      <trkpt lat="44.11126" lon="6.01609">
        <ele>514</ele>
        <time>2020-01-30T08:21:31Z</time>
      </trkpt>
      <trkpt lat="44.11129" lon="6.01617">
        <ele>516.59997558594</ele>
        <time>2020-01-30T08:21:50Z</time>
      </trkpt>
      <trkpt lat="44.11132" lon="6.01622">
        <ele>519.79998779297</ele>
        <time>2020-01-30T08:22:07Z</time>
      </trkpt>
      <trkpt lat="44.11135" lon="6.01625">
        <ele>523</ele>
        <time>2020-01-30T08:22:24Z</time>
      </trkpt>
      <trkpt lat="44.11138" lon="6.0163">
        <ele>526</ele>
        <time>2020-01-30T08:22:41Z</time>
      </trkpt>
      <trkpt lat="44.11138" lon="6.01634">
        <ele>529</ele>
        <time>2020-01-30T08:22:58Z</time>
      </trkpt>
      <trkpt lat="44.11141" lon="6.01632">
        <ele>529</ele>
        <time>2020-01-30T08:23:53Z</time>
      </trkpt>
      <trkpt lat="44.11148" lon="6.01638">
        <ele>531.59997558594</ele>
        <time>2020-01-30T08:24:09Z</time>
      </trkpt>
      <trkpt lat="44.11159" lon="6.01652">
        <ele>534.59997558594</ele>
        <time>2020-01-30T08:24:26Z</time>
      </trkpt>
      <trkpt lat="44.11158" lon="6.01658">
        <ele>537</ele>
        <time>2020-01-30T08:24:42Z</time>
      </trkpt>
      <trkpt lat="44.11154" lon="6.01652">
        <ele>538.40002441406</ele>
        <time>2020-01-30T08:24:59Z</time>
      </trkpt>
      <trkpt lat="44.11151" lon="6.0165">
        <ele>539.59997558594</ele>
        <time>2020-01-30T08:25:27Z</time>
      </trkpt>
      <trkpt lat="44.11148" lon="6.01649">
        <ele>539.20001220703</ele>
        <time>2020-01-30T08:25:55Z</time>
      </trkpt>
      <trkpt lat="44.11145" lon="6.01645">
        <ele>538.79998779297</ele>
        <time>2020-01-30T08:26:09Z</time>
      </trkpt>
      <trkpt lat="44.11143" lon="6.01646">
        <ele>538.59997558594</ele>
        <time>2020-01-30T08:26:43Z</time>
      </trkpt>
      <trkpt lat="44.11144" lon="6.01645">
        <ele>538.79998779297</ele>
        <time>2020-01-30T08:27:27Z</time>
      </trkpt>
      <trkpt lat="44.11145" lon="6.01646">
        <ele>538.59997558594</ele>
        <time>2020-01-30T08:28:25Z</time>
      </trkpt>
      <trkpt lat="44.11145" lon="6.01647">
        <ele>538.79998779297</ele>
        <time>2020-01-30T08:29:03Z</time>
      </trkpt>
      <trkpt lat="44.11154" lon="6.01654">
        <ele>540.20001220703</ele>
        <time>2020-01-30T08:29:28Z</time>
      </trkpt>
      <trkpt lat="44.11158" lon="6.01657">
        <ele>539</ele>
        <time>2020-01-30T08:29:44Z</time>
      </trkpt>
      <trkpt lat="44.1116" lon="6.01657">
        <ele>539</ele>
        <time>2020-01-30T08:30:55Z</time>
      </trkpt>
      <trkpt lat="44.11162" lon="6.01658">
        <ele>538.40002441406</ele>
        <time>2020-01-30T08:31:17Z</time>
      </trkpt>
      <trkpt lat="44.11162" lon="6.01659">
        <ele>538</ele>
        <time>2020-01-30T08:31:36Z</time>
      </trkpt>
      <trkpt lat="44.11164" lon="6.01658">
        <ele>538.20001220703</ele>
        <time>2020-01-30T08:31:58Z</time>
      </trkpt>
      <trkpt lat="44.11164" lon="6.01658">
        <ele>538</ele>
        <time>2020-01-30T08:32:37Z</time>
      </trkpt>
      <trkpt lat="44.11162" lon="6.0166">
        <ele>538.20001220703</ele>
        <time>2020-01-30T08:32:52Z</time>
      </trkpt>
      <trkpt lat="44.11165" lon="6.01664">
        <ele>535.20001220703</ele>
        <time>2020-01-30T08:33:19Z</time>
      </trkpt>
      <trkpt lat="44.11169" lon="6.01665">
        <ele>533.40002441406</ele>
        <time>2020-01-30T08:33:40Z</time>
      </trkpt>
      <trkpt lat="44.11172" lon="6.01666">
        <ele>532.20001220703</ele>
        <time>2020-01-30T08:34:02Z</time>
      </trkpt>
      <trkpt lat="44.11168" lon="6.01668">
        <ele>531.20001220703</ele>
        <time>2020-01-30T08:34:28Z</time>
      </trkpt>
      <trkpt lat="44.11172" lon="6.01671">
        <ele>531.20001220703</ele>
        <time>2020-01-30T08:35:04Z</time>
      </trkpt>
      <trkpt lat="44.11178" lon="6.01667">
        <ele>528.79998779297</ele>
        <time>2020-01-30T08:35:24Z</time>
      </trkpt>
      <trkpt lat="44.11188" lon="6.01674">
        <ele>527.20001220703</ele>
        <time>2020-01-30T08:35:44Z</time>
      </trkpt>
      <trkpt lat="44.11196" lon="6.01671">
        <ele>527.79998779297</ele>
        <time>2020-01-30T08:36:01Z</time>
      </trkpt>
      <trkpt lat="44.11198" lon="6.01673">
        <ele>527.79998779297</ele>
        <time>2020-01-30T08:36:07Z</time>
      </trkpt>
      <trkpt lat="44.11206" lon="6.01681">
        <ele>527.79998779297</ele>
        <time>2020-01-30T08:36:25Z</time>
      </trkpt>
      <trkpt lat="44.11214" lon="6.0169">
        <ele>530.79998779297</ele>
        <time>2020-01-30T08:36:40Z</time>
      </trkpt>
      <trkpt lat="44.11221" lon="6.01694">
        <ele>533.79998779297</ele>
        <time>2020-01-30T08:36:56Z</time>
      </trkpt>
      <trkpt lat="44.11227" lon="6.01699">
        <ele>537.20001220703</ele>
        <time>2020-01-30T08:37:12Z</time>
      </trkpt>
      <trkpt lat="44.11231" lon="6.01708">
        <ele>540.40002441406</ele>
        <time>2020-01-30T08:37:30Z</time>
      </trkpt>
      <trkpt lat="44.11237" lon="6.0172">
        <ele>543.20001220703</ele>
        <time>2020-01-30T08:37:49Z</time>
      </trkpt>
      <trkpt lat="44.11238" lon="6.01725">
        <ele>546.40002441406</ele>
        <time>2020-01-30T08:38:05Z</time>
      </trkpt>
      <trkpt lat="44.11237" lon="6.01725">
        <ele>546.79998779297</ele>
        <time>2020-01-30T08:38:57Z</time>
      </trkpt>
      <trkpt lat="44.1124" lon="6.01726">
        <ele>546.79998779297</ele>
        <time>2020-01-30T08:39:54Z</time>
      </trkpt>
      <trkpt lat="44.11244" lon="6.01729">
        <ele>547.40002441406</ele>
        <time>2020-01-30T08:40:41Z</time>
      </trkpt>
      <trkpt lat="44.11249" lon="6.01738">
        <ele>550.59997558594</ele>
        <time>2020-01-30T08:40:56Z</time>
      </trkpt>
      <trkpt lat="44.11254" lon="6.01747">
        <ele>553.59997558594</ele>
        <time>2020-01-30T08:41:09Z</time>
      </trkpt>
      <trkpt lat="44.11258" lon="6.01759">
        <ele>556.79998779297</ele>
        <time>2020-01-30T08:41:24Z</time>
      </trkpt>
      <trkpt lat="44.11266" lon="6.01762">
        <ele>560.20001220703</ele>
        <time>2020-01-30T08:41:40Z</time>
      </trkpt>
      <trkpt lat="44.1127" lon="6.0177">
        <ele>563.20001220703</ele>
        <time>2020-01-30T08:41:54Z</time>
      </trkpt>
      <trkpt lat="44.11273" lon="6.01779">
        <ele>566.40002441406</ele>
        <time>2020-01-30T08:42:07Z</time>
      </trkpt>
      <trkpt lat="44.1128" lon="6.0179">
        <ele>569.40002441406</ele>
        <time>2020-01-30T08:42:24Z</time>
      </trkpt>
      <trkpt lat="44.11288" lon="6.01797">
        <ele>572.59997558594</ele>
        <time>2020-01-30T08:42:39Z</time>
      </trkpt>
      <trkpt lat="44.113" lon="6.01808">
        <ele>575.59997558594</ele>
        <time>2020-01-30T08:42:59Z</time>
      </trkpt>
      <trkpt lat="44.1131" lon="6.01822">
        <ele>578.79998779297</ele>
        <time>2020-01-30T08:43:21Z</time>
      </trkpt>
      <trkpt lat="44.11315" lon="6.01827">
        <ele>581.59997558594</ele>
        <time>2020-01-30T08:43:40Z</time>
      </trkpt>
      <trkpt lat="44.11316" lon="6.01828">
        <ele>581.40002441406</ele>
        <time>2020-01-30T08:45:19Z</time>
      </trkpt>
      <trkpt lat="44.11319" lon="6.01837">
        <ele>581.79998779297</ele>
        <time>2020-01-30T08:45:49Z</time>
      </trkpt>
      <trkpt lat="44.11328" lon="6.01851">
        <ele>583.79998779297</ele>
        <time>2020-01-30T08:46:09Z</time>
      </trkpt>
      <trkpt lat="44.11339" lon="6.01863">
        <ele>586.59997558594</ele>
        <time>2020-01-30T08:46:27Z</time>
      </trkpt>
      <trkpt lat="44.11347" lon="6.01872">
        <ele>587.59997558594</ele>
        <time>2020-01-30T08:46:48Z</time>
      </trkpt>
      <trkpt lat="44.11354" lon="6.01882">
        <ele>588.59997558594</ele>
        <time>2020-01-30T08:47:09Z</time>
      </trkpt>
      <trkpt lat="44.11362" lon="6.01889">
        <ele>589</ele>
        <time>2020-01-30T08:47:22Z</time>
      </trkpt>
      <trkpt lat="44.11375" lon="6.01894">
        <ele>590.20001220703</ele>
        <time>2020-01-30T08:47:39Z</time>
      </trkpt>
      <trkpt lat="44.11386" lon="6.01905">
        <ele>592.59997558594</ele>
        <time>2020-01-30T08:47:57Z</time>
      </trkpt>
      <trkpt lat="44.11398" lon="6.01914">
        <ele>595</ele>
        <time>2020-01-30T08:48:12Z</time>
      </trkpt>
      <trkpt lat="44.11403" lon="6.01918">
        <ele>595.79998779297</ele>
        <time>2020-01-30T08:48:30Z</time>
      </trkpt>
      <trkpt lat="44.11412" lon="6.01918">
        <ele>596.40002441406</ele>
        <time>2020-01-30T08:48:46Z</time>
      </trkpt>
      <trkpt lat="44.11424" lon="6.01929">
        <ele>599</ele>
        <time>2020-01-30T08:49:09Z</time>
      </trkpt>
      <trkpt lat="44.11435" lon="6.01938">
        <ele>601.20001220703</ele>
        <time>2020-01-30T08:49:29Z</time>
      </trkpt>
      <trkpt lat="44.11433" lon="6.01952">
        <ele>604.20001220703</ele>
        <time>2020-01-30T08:49:46Z</time>
      </trkpt>
      <trkpt lat="44.11443" lon="6.01966">
        <ele>606.79998779297</ele>
        <time>2020-01-30T08:50:06Z</time>
      </trkpt>
      <trkpt lat="44.11445" lon="6.01967">
        <ele>607.59997558594</ele>
        <time>2020-01-30T08:50:09Z</time>
      </trkpt>
      <trkpt lat="44.11462" lon="6.01971">
        <ele>608.59997558594</ele>
        <time>2020-01-30T08:50:29Z</time>
      </trkpt>
      <trkpt lat="44.11473" lon="6.01975">
        <ele>610</ele>
        <time>2020-01-30T08:50:45Z</time>
      </trkpt>
      <trkpt lat="44.11485" lon="6.01984">
        <ele>611.79998779297</ele>
        <time>2020-01-30T08:51:02Z</time>
      </trkpt>
      <trkpt lat="44.11492" lon="6.01992">
        <ele>613.79998779297</ele>
        <time>2020-01-30T08:51:19Z</time>
      </trkpt>
      <trkpt lat="44.11501" lon="6.02003">
        <ele>615.79998779297</ele>
        <time>2020-01-30T08:51:34Z</time>
      </trkpt>
      <trkpt lat="44.11512" lon="6.02007">
        <ele>617.20001220703</ele>
        <time>2020-01-30T08:51:49Z</time>
      </trkpt>
      <trkpt lat="44.11519" lon="6.02008">
        <ele>617.40002441406</ele>
        <time>2020-01-30T08:52:05Z</time>
      </trkpt>
      <trkpt lat="44.11531" lon="6.02018">
        <ele>619</ele>
        <time>2020-01-30T08:52:26Z</time>
      </trkpt>
      <trkpt lat="44.11536" lon="6.0202">
        <ele>620.79998779297</ele>
        <time>2020-01-30T08:52:43Z</time>
      </trkpt>
      <trkpt lat="44.11536" lon="6.02022">
        <ele>621</ele>
        <time>2020-01-30T08:53:34Z</time>
      </trkpt>
      <trkpt lat="44.11537" lon="6.02023">
        <ele>621</ele>
        <time>2020-01-30T08:54:38Z</time>
      </trkpt>
      <trkpt lat="44.11541" lon="6.02024">
        <ele>620.79998779297</ele>
        <time>2020-01-30T08:55:44Z</time>
      </trkpt>
      <trkpt lat="44.11555" lon="6.02031">
        <ele>622</ele>
        <time>2020-01-30T08:56:00Z</time>
      </trkpt>
      <trkpt lat="44.11559" lon="6.02032">
        <ele>622.20001220703</ele>
        <time>2020-01-30T08:56:05Z</time>
      </trkpt>
      <trkpt lat="44.11563" lon="6.02034">
        <ele>623</ele>
        <time>2020-01-30T08:56:10Z</time>
      </trkpt>
      <trkpt lat="44.11578" lon="6.02039">
        <ele>625</ele>
        <time>2020-01-30T08:56:27Z</time>
      </trkpt>
      <trkpt lat="44.11587" lon="6.02044">
        <ele>626</ele>
        <time>2020-01-30T08:56:39Z</time>
      </trkpt>
      <trkpt lat="44.11597" lon="6.02049">
        <ele>627.40002441406</ele>
        <time>2020-01-30T08:56:52Z</time>
      </trkpt>
      <trkpt lat="44.11599" lon="6.0205">
        <ele>627.79998779297</ele>
        <time>2020-01-30T08:56:54Z</time>
      </trkpt>
      <trkpt lat="44.11606" lon="6.02053">
        <ele>629.40002441406</ele>
        <time>2020-01-30T08:57:10Z</time>
      </trkpt>
      <trkpt lat="44.11608" lon="6.02054">
        <ele>630.40002441406</ele>
        <time>2020-01-30T08:57:31Z</time>
      </trkpt>
      <trkpt lat="44.11607" lon="6.02055">
        <ele>628.79998779297</ele>
        <time>2020-01-30T09:00:33Z</time>
      </trkpt>
      <trkpt lat="44.11607" lon="6.02053">
        <ele>628.79998779297</ele>
        <time>2020-01-30T09:03:59Z</time>
      </trkpt>
      <trkpt lat="44.11607" lon="6.02053">
        <ele>630</ele>
        <time>2020-01-30T09:07:45Z</time>
      </trkpt>
      <trkpt lat="44.1161" lon="6.02051">
        <ele>630.59997558594</ele>
        <time>2020-01-30T09:08:48Z</time>
      </trkpt>
      <trkpt lat="44.11621" lon="6.02052">
        <ele>631.20001220703</ele>
        <time>2020-01-30T09:09:04Z</time>
      </trkpt>
      <trkpt lat="44.11632" lon="6.02049">
        <ele>632</ele>
        <time>2020-01-30T09:09:20Z</time>
      </trkpt>
      <trkpt lat="44.11636" lon="6.02042">
        <ele>631</ele>
        <time>2020-01-30T09:09:37Z</time>
      </trkpt>
      <trkpt lat="44.11646" lon="6.02036">
        <ele>629.40002441406</ele>
        <time>2020-01-30T09:09:55Z</time>
      </trkpt>
      <trkpt lat="44.11666" lon="6.0204">
        <ele>631</ele>
        <time>2020-01-30T09:10:14Z</time>
      </trkpt>
      <trkpt lat="44.11677" lon="6.02045">
        <ele>633.79998779297</ele>
        <time>2020-01-30T09:10:29Z</time>
      </trkpt>
      <trkpt lat="44.11689" lon="6.02048">
        <ele>636.79998779297</ele>
        <time>2020-01-30T09:10:44Z</time>
      </trkpt>
      <trkpt lat="44.11699" lon="6.02055">
        <ele>640</ele>
        <time>2020-01-30T09:10:59Z</time>
      </trkpt>
      <trkpt lat="44.11709" lon="6.02057">
        <ele>642.40002441406</ele>
        <time>2020-01-30T09:11:18Z</time>
      </trkpt>
      <trkpt lat="44.11733" lon="6.02063">
        <ele>645.20001220703</ele>
        <time>2020-01-30T09:11:44Z</time>
      </trkpt>
      <trkpt lat="44.11744" lon="6.0207">
        <ele>648.40002441406</ele>
        <time>2020-01-30T09:12:01Z</time>
      </trkpt>
      <trkpt lat="44.11759" lon="6.02074">
        <ele>651.59997558594</ele>
        <time>2020-01-30T09:12:19Z</time>
      </trkpt>
      <trkpt lat="44.11773" lon="6.02081">
        <ele>654.79998779297</ele>
        <time>2020-01-30T09:12:36Z</time>
      </trkpt>
      <trkpt lat="44.11794" lon="6.02088">
        <ele>658</ele>
        <time>2020-01-30T09:12:58Z</time>
      </trkpt>
      <trkpt lat="44.11812" lon="6.02092">
        <ele>660.79998779297</ele>
        <time>2020-01-30T09:13:21Z</time>
      </trkpt>
      <trkpt lat="44.11826" lon="6.02099">
        <ele>663.79998779297</ele>
        <time>2020-01-30T09:13:40Z</time>
      </trkpt>
      <trkpt lat="44.11845" lon="6.02102">
        <ele>667</ele>
        <time>2020-01-30T09:14:01Z</time>
      </trkpt>
      <trkpt lat="44.11849" lon="6.02104">
        <ele>669.59997558594</ele>
        <time>2020-01-30T09:14:23Z</time>
      </trkpt>
      <trkpt lat="44.11856" lon="6.02104">
        <ele>669.20001220703</ele>
        <time>2020-01-30T09:15:06Z</time>
      </trkpt>
      <trkpt lat="44.11871" lon="6.02114">
        <ele>671.40002441406</ele>
        <time>2020-01-30T09:15:27Z</time>
      </trkpt>
      <trkpt lat="44.11889" lon="6.02121">
        <ele>674.20001220703</ele>
        <time>2020-01-30T09:15:49Z</time>
      </trkpt>
      <trkpt lat="44.11904" lon="6.02127">
        <ele>677.20001220703</ele>
        <time>2020-01-30T09:16:06Z</time>
      </trkpt>
      <trkpt lat="44.11912" lon="6.02132">
        <ele>680.20001220703</ele>
        <time>2020-01-30T09:16:22Z</time>
      </trkpt>
      <trkpt lat="44.11926" lon="6.02135">
        <ele>683</ele>
        <time>2020-01-30T09:16:44Z</time>
      </trkpt>
      <trkpt lat="44.11936" lon="6.0214">
        <ele>686</ele>
        <time>2020-01-30T09:17:02Z</time>
      </trkpt>
      <trkpt lat="44.11938" lon="6.02151">
        <ele>689</ele>
        <time>2020-01-30T09:17:17Z</time>
      </trkpt>
      <trkpt lat="44.11937" lon="6.02159">
        <ele>691.59997558594</ele>
        <time>2020-01-30T09:17:37Z</time>
      </trkpt>
      <trkpt lat="44.11937" lon="6.02158">
        <ele>691.59997558594</ele>
        <time>2020-01-30T09:18:19Z</time>
      </trkpt>
      <trkpt lat="44.11945" lon="6.02158">
        <ele>692.20001220703</ele>
        <time>2020-01-30T09:18:48Z</time>
      </trkpt>
      <trkpt lat="44.1195" lon="6.02156">
        <ele>692.59997558594</ele>
        <time>2020-01-30T09:18:54Z</time>
      </trkpt>
      <trkpt lat="44.11963" lon="6.02157">
        <ele>694.40002441406</ele>
        <time>2020-01-30T09:19:12Z</time>
      </trkpt>
      <trkpt lat="44.1197" lon="6.02165">
        <ele>697.20001220703</ele>
        <time>2020-01-30T09:19:29Z</time>
      </trkpt>
      <trkpt lat="44.11971" lon="6.02167">
        <ele>699.40002441406</ele>
        <time>2020-01-30T09:19:58Z</time>
      </trkpt>
      <trkpt lat="44.11977" lon="6.02175">
        <ele>699</ele>
        <time>2020-01-30T09:20:20Z</time>
      </trkpt>
      <trkpt lat="44.11987" lon="6.02183">
        <ele>699.40002441406</ele>
        <time>2020-01-30T09:20:35Z</time>
      </trkpt>
      <trkpt lat="44.11993" lon="6.02199">
        <ele>696.79998779297</ele>
        <time>2020-01-30T09:20:54Z</time>
      </trkpt>
      <trkpt lat="44.12003" lon="6.02211">
        <ele>694.40002441406</ele>
        <time>2020-01-30T09:21:13Z</time>
      </trkpt>
      <trkpt lat="44.12006" lon="6.02215">
        <ele>694</ele>
        <time>2020-01-30T09:21:17Z</time>
      </trkpt>
      <trkpt lat="44.12019" lon="6.02228">
        <ele>691.79998779297</ele>
        <time>2020-01-30T09:21:34Z</time>
      </trkpt>
      <trkpt lat="44.12029" lon="6.02243">
        <ele>689.40002441406</ele>
        <time>2020-01-30T09:21:54Z</time>
      </trkpt>
      <trkpt lat="44.12048" lon="6.02261">
        <ele>688.20001220703</ele>
        <time>2020-01-30T09:22:15Z</time>
      </trkpt>
      <trkpt lat="44.12064" lon="6.02277">
        <ele>688.20001220703</ele>
        <time>2020-01-30T09:22:34Z</time>
      </trkpt>
      <trkpt lat="44.12077" lon="6.02292">
        <ele>690.59997558594</ele>
        <time>2020-01-30T09:22:53Z</time>
      </trkpt>
      <trkpt lat="44.12089" lon="6.02309">
        <ele>691.59997558594</ele>
        <time>2020-01-30T09:23:13Z</time>
      </trkpt>
      <trkpt lat="44.12107" lon="6.02324">
        <ele>692.59997558594</ele>
        <time>2020-01-30T09:23:35Z</time>
      </trkpt>
      <trkpt lat="44.12119" lon="6.02336">
        <ele>693</ele>
        <time>2020-01-30T09:23:51Z</time>
      </trkpt>
      <trkpt lat="44.12115" lon="6.02358">
        <ele>693.40002441406</ele>
        <time>2020-01-30T09:24:13Z</time>
      </trkpt>
      <trkpt lat="44.12109" lon="6.02379">
        <ele>696.59997558594</ele>
        <time>2020-01-30T09:24:36Z</time>
      </trkpt>
      <trkpt lat="44.12107" lon="6.02395">
        <ele>699.79998779297</ele>
        <time>2020-01-30T09:24:56Z</time>
      </trkpt>
      <trkpt lat="44.12111" lon="6.02418">
        <ele>701.20001220703</ele>
        <time>2020-01-30T09:25:21Z</time>
      </trkpt>
      <trkpt lat="44.12124" lon="6.02433">
        <ele>698</ele>
        <time>2020-01-30T09:25:42Z</time>
      </trkpt>
      <trkpt lat="44.12134" lon="6.02442">
        <ele>695.79998779297</ele>
        <time>2020-01-30T09:25:55Z</time>
      </trkpt>
      <trkpt lat="44.12142" lon="6.02448">
        <ele>694</ele>
        <time>2020-01-30T09:26:12Z</time>
      </trkpt>
      <trkpt lat="44.12147" lon="6.02453">
        <ele>693.59997558594</ele>
        <time>2020-01-30T09:26:55Z</time>
      </trkpt>
      <trkpt lat="44.12161" lon="6.02463">
        <ele>691.59997558594</ele>
        <time>2020-01-30T09:27:13Z</time>
      </trkpt>
      <trkpt lat="44.12179" lon="6.0247">
        <ele>688.79998779297</ele>
        <time>2020-01-30T09:27:32Z</time>
      </trkpt>
      <trkpt lat="44.122" lon="6.02474">
        <ele>686.79998779297</ele>
        <time>2020-01-30T09:27:53Z</time>
      </trkpt>
      <trkpt lat="44.12208" lon="6.02486">
        <ele>685.20001220703</ele>
        <time>2020-01-30T09:28:05Z</time>
      </trkpt>
      <trkpt lat="44.12213" lon="6.02493">
        <ele>686</ele>
        <time>2020-01-30T09:28:25Z</time>
      </trkpt>
      <trkpt lat="44.12225" lon="6.02501">
        <ele>685.79998779297</ele>
        <time>2020-01-30T09:28:49Z</time>
      </trkpt>
      <trkpt lat="44.12239" lon="6.02513">
        <ele>686</ele>
        <time>2020-01-30T09:29:07Z</time>
      </trkpt>
      <trkpt lat="44.12258" lon="6.0252">
        <ele>686</ele>
        <time>2020-01-30T09:29:26Z</time>
      </trkpt>
      <trkpt lat="44.12272" lon="6.02522">
        <ele>685.59997558594</ele>
        <time>2020-01-30T09:29:43Z</time>
      </trkpt>
      <trkpt lat="44.12291" lon="6.02517">
        <ele>684.79998779297</ele>
        <time>2020-01-30T09:30:05Z</time>
      </trkpt>
      <trkpt lat="44.12312" lon="6.02522">
        <ele>683.59997558594</ele>
        <time>2020-01-30T09:30:28Z</time>
      </trkpt>
      <trkpt lat="44.12331" lon="6.02524">
        <ele>683.79998779297</ele>
        <time>2020-01-30T09:30:46Z</time>
      </trkpt>
      <trkpt lat="44.12353" lon="6.02523">
        <ele>682.79998779297</ele>
        <time>2020-01-30T09:31:08Z</time>
      </trkpt>
      <trkpt lat="44.12377" lon="6.02526">
        <ele>679.79998779297</ele>
        <time>2020-01-30T09:31:29Z</time>
      </trkpt>
      <trkpt lat="44.124" lon="6.02528">
        <ele>677.59997558594</ele>
        <time>2020-01-30T09:31:49Z</time>
      </trkpt>
      <trkpt lat="44.1242" lon="6.0253">
        <ele>674.40002441406</ele>
        <time>2020-01-30T09:32:10Z</time>
      </trkpt>
      <trkpt lat="44.12437" lon="6.02534">
        <ele>673.20001220703</ele>
        <time>2020-01-30T09:32:26Z</time>
      </trkpt>
      <trkpt lat="44.12454" lon="6.02536">
        <ele>670.20001220703</ele>
        <time>2020-01-30T09:32:44Z</time>
      </trkpt>
      <trkpt lat="44.12467" lon="6.02545">
        <ele>669.20001220703</ele>
        <time>2020-01-30T09:32:56Z</time>
      </trkpt>
      <trkpt lat="44.12472" lon="6.02558">
        <ele>668.20001220703</ele>
        <time>2020-01-30T09:33:07Z</time>
      </trkpt>
      <trkpt lat="44.1248" lon="6.02573">
        <ele>667.59997558594</ele>
        <time>2020-01-30T09:33:22Z</time>
      </trkpt>
      <trkpt lat="44.12494" lon="6.02593">
        <ele>666.59997558594</ele>
        <time>2020-01-30T09:33:41Z</time>
      </trkpt>
      <trkpt lat="44.12509" lon="6.02609">
        <ele>666.59997558594</ele>
        <time>2020-01-30T09:34:01Z</time>
      </trkpt>
      <trkpt lat="44.12514" lon="6.02626">
        <ele>667.40002441406</ele>
        <time>2020-01-30T09:34:22Z</time>
      </trkpt>
      <trkpt lat="44.12524" lon="6.02653">
        <ele>669.59997558594</ele>
        <time>2020-01-30T09:34:47Z</time>
      </trkpt>
      <trkpt lat="44.12525" lon="6.02657">
        <ele>670</ele>
        <time>2020-01-30T09:34:50Z</time>
      </trkpt>
      <trkpt lat="44.12522" lon="6.02678">
        <ele>673</ele>
        <time>2020-01-30T09:35:09Z</time>
      </trkpt>
      <trkpt lat="44.12519" lon="6.02691">
        <ele>675.59997558594</ele>
        <time>2020-01-30T09:35:31Z</time>
      </trkpt>
      <trkpt lat="44.12512" lon="6.02706">
        <ele>678.79998779297</ele>
        <time>2020-01-30T09:35:56Z</time>
      </trkpt>
      <trkpt lat="44.12509" lon="6.02717">
        <ele>680.59997558594</ele>
        <time>2020-01-30T09:36:18Z</time>
      </trkpt>
      <trkpt lat="44.12507" lon="6.02733">
        <ele>682</ele>
        <time>2020-01-30T09:36:40Z</time>
      </trkpt>
      <trkpt lat="44.12512" lon="6.02746">
        <ele>683.40002441406</ele>
        <time>2020-01-30T09:37:06Z</time>
      </trkpt>
      <trkpt lat="44.12527" lon="6.02751">
        <ele>686</ele>
        <time>2020-01-30T09:37:23Z</time>
      </trkpt>
      <trkpt lat="44.12545" lon="6.0276">
        <ele>687.40002441406</ele>
        <time>2020-01-30T09:37:41Z</time>
      </trkpt>
      <trkpt lat="44.12555" lon="6.02767">
        <ele>687.79998779297</ele>
        <time>2020-01-30T09:37:55Z</time>
      </trkpt>
      <trkpt lat="44.1257" lon="6.02773">
        <ele>688.20001220703</ele>
        <time>2020-01-30T09:38:13Z</time>
      </trkpt>
      <trkpt lat="44.12587" lon="6.02783">
        <ele>688.40002441406</ele>
        <time>2020-01-30T09:38:33Z</time>
      </trkpt>
      <trkpt lat="44.12611" lon="6.02801">
        <ele>688</ele>
        <time>2020-01-30T09:38:59Z</time>
      </trkpt>
      <trkpt lat="44.12625" lon="6.02811">
        <ele>688</ele>
        <time>2020-01-30T09:39:23Z</time>
      </trkpt>
      <trkpt lat="44.1264" lon="6.02824">
        <ele>686.40002441406</ele>
        <time>2020-01-30T09:39:43Z</time>
      </trkpt>
      <trkpt lat="44.12657" lon="6.02839">
        <ele>684.79998779297</ele>
        <time>2020-01-30T09:40:01Z</time>
      </trkpt>
      <trkpt lat="44.12662" lon="6.02849">
        <ele>684.20001220703</ele>
        <time>2020-01-30T09:40:15Z</time>
      </trkpt>
      <trkpt lat="44.12665" lon="6.02855">
        <ele>684.40002441406</ele>
        <time>2020-01-30T09:40:33Z</time>
      </trkpt>
      <trkpt lat="44.12667" lon="6.02863">
        <ele>684</ele>
        <time>2020-01-30T09:41:01Z</time>
      </trkpt>
      <trkpt lat="44.12669" lon="6.02874">
        <ele>680.79998779297</ele>
        <time>2020-01-30T09:41:16Z</time>
      </trkpt>
      <trkpt lat="44.12671" lon="6.02882">
        <ele>677.59997558594</ele>
        <time>2020-01-30T09:41:29Z</time>
      </trkpt>
      <trkpt lat="44.12673" lon="6.02899">
        <ele>674.59997558594</ele>
        <time>2020-01-30T09:41:44Z</time>
      </trkpt>
      <trkpt lat="44.12678" lon="6.02912">
        <ele>671.59997558594</ele>
        <time>2020-01-30T09:41:57Z</time>
      </trkpt>
      <trkpt lat="44.12685" lon="6.0292">
        <ele>668.40002441406</ele>
        <time>2020-01-30T09:42:10Z</time>
      </trkpt>
      <trkpt lat="44.1269" lon="6.02923">
        <ele>665.40002441406</ele>
        <time>2020-01-30T09:42:20Z</time>
      </trkpt>
      <trkpt lat="44.12697" lon="6.0293">
        <ele>663</ele>
        <time>2020-01-30T09:42:42Z</time>
      </trkpt>
      <trkpt lat="44.12701" lon="6.02943">
        <ele>661.59997558594</ele>
        <time>2020-01-30T09:43:03Z</time>
      </trkpt>
      <trkpt lat="44.12701" lon="6.0295">
        <ele>659</ele>
        <time>2020-01-30T09:43:25Z</time>
      </trkpt>
      <trkpt lat="44.12703" lon="6.0296">
        <ele>658.40002441406</ele>
        <time>2020-01-30T09:43:43Z</time>
      </trkpt>
      <trkpt lat="44.12706" lon="6.02969">
        <ele>656.59997558594</ele>
        <time>2020-01-30T09:43:56Z</time>
      </trkpt>
      <trkpt lat="44.12711" lon="6.02978">
        <ele>656</ele>
        <time>2020-01-30T09:44:06Z</time>
      </trkpt>
      <trkpt lat="44.12719" lon="6.02995">
        <ele>654.40002441406</ele>
        <time>2020-01-30T09:44:22Z</time>
      </trkpt>
      <trkpt lat="44.12724" lon="6.0301">
        <ele>653.79998779297</ele>
        <time>2020-01-30T09:44:36Z</time>
      </trkpt>
      <trkpt lat="44.12724" lon="6.0302">
        <ele>653.79998779297</ele>
        <time>2020-01-30T09:44:50Z</time>
      </trkpt>
      <trkpt lat="44.12725" lon="6.03024">
        <ele>653.79998779297</ele>
        <time>2020-01-30T09:44:53Z</time>
      </trkpt>
      <trkpt lat="44.12726" lon="6.03031">
        <ele>653.79998779297</ele>
        <time>2020-01-30T09:44:58Z</time>
      </trkpt>
      <trkpt lat="44.12726" lon="6.03037">
        <ele>653.79998779297</ele>
        <time>2020-01-30T09:45:03Z</time>
      </trkpt>
      <trkpt lat="44.12726" lon="6.03045">
        <ele>653.79998779297</ele>
        <time>2020-01-30T09:45:08Z</time>
      </trkpt>
      <trkpt lat="44.1273" lon="6.03058">
        <ele>654</ele>
        <time>2020-01-30T09:45:20Z</time>
      </trkpt>
      <trkpt lat="44.12731" lon="6.0306">
        <ele>654</ele>
        <time>2020-01-30T09:45:22Z</time>
      </trkpt>
      <trkpt lat="44.12743" lon="6.03071">
        <ele>654</ele>
        <time>2020-01-30T09:45:37Z</time>
      </trkpt>
      <trkpt lat="44.12745" lon="6.03073">
        <ele>654</ele>
        <time>2020-01-30T09:45:39Z</time>
      </trkpt>
      <trkpt lat="44.12747" lon="6.03076">
        <ele>654</ele>
        <time>2020-01-30T09:45:41Z</time>
      </trkpt>
      <trkpt lat="44.12758" lon="6.03091">
        <ele>653.20001220703</ele>
        <time>2020-01-30T09:45:55Z</time>
      </trkpt>
      <trkpt lat="44.1276" lon="6.03096">
        <ele>653</ele>
        <time>2020-01-30T09:45:59Z</time>
      </trkpt>
      <trkpt lat="44.12767" lon="6.03115">
        <ele>652.79998779297</ele>
        <time>2020-01-30T09:46:14Z</time>
      </trkpt>
      <trkpt lat="44.12768" lon="6.03139">
        <ele>653</ele>
        <time>2020-01-30T09:46:30Z</time>
      </trkpt>
      <trkpt lat="44.12767" lon="6.03164">
        <ele>653.79998779297</ele>
        <time>2020-01-30T09:46:46Z</time>
      </trkpt>
      <trkpt lat="44.12765" lon="6.03191">
        <ele>655</ele>
        <time>2020-01-30T09:47:02Z</time>
      </trkpt>
      <trkpt lat="44.12766" lon="6.03204">
        <ele>657.20001220703</ele>
        <time>2020-01-30T09:47:25Z</time>
      </trkpt>
      <trkpt lat="44.1276" lon="6.03204">
        <ele>657.59997558594</ele>
        <time>2020-01-30T09:47:49Z</time>
      </trkpt>
      <trkpt lat="44.12754" lon="6.03202">
        <ele>657.20001220703</ele>
        <time>2020-01-30T09:48:08Z</time>
      </trkpt>
      <trkpt lat="44.12745" lon="6.03201">
        <ele>656.20001220703</ele>
        <time>2020-01-30T09:48:21Z</time>
      </trkpt>
      <trkpt lat="44.12734" lon="6.03199">
        <ele>654.59997558594</ele>
        <time>2020-01-30T09:48:33Z</time>
      </trkpt>
      <trkpt lat="44.12732" lon="6.03199">
        <ele>654.59997558594</ele>
        <time>2020-01-30T09:48:35Z</time>
      </trkpt>
      <trkpt lat="44.12718" lon="6.03194">
        <ele>652.79998779297</ele>
        <time>2020-01-30T09:48:50Z</time>
      </trkpt>
      <trkpt lat="44.12703" lon="6.03191">
        <ele>651.40002441406</ele>
        <time>2020-01-30T09:49:05Z</time>
      </trkpt>
      <trkpt lat="44.12687" lon="6.03186">
        <ele>649.79998779297</ele>
        <time>2020-01-30T09:49:21Z</time>
      </trkpt>
      <trkpt lat="44.12672" lon="6.03181">
        <ele>648.59997558594</ele>
        <time>2020-01-30T09:49:38Z</time>
      </trkpt>
      <trkpt lat="44.12668" lon="6.03179">
        <ele>648.20001220703</ele>
        <time>2020-01-30T09:49:42Z</time>
      </trkpt>
      <trkpt lat="44.12655" lon="6.03177">
        <ele>647.40002441406</ele>
        <time>2020-01-30T09:49:56Z</time>
      </trkpt>
      <trkpt lat="44.12645" lon="6.03172">
        <ele>647.20001220703</ele>
        <time>2020-01-30T09:50:12Z</time>
      </trkpt>
      <trkpt lat="44.12632" lon="6.03174">
        <ele>647</ele>
        <time>2020-01-30T09:50:29Z</time>
      </trkpt>
      <trkpt lat="44.12616" lon="6.03174">
        <ele>646.79998779297</ele>
        <time>2020-01-30T09:50:46Z</time>
      </trkpt>
      <trkpt lat="44.12596" lon="6.03174">
        <ele>645</ele>
        <time>2020-01-30T09:51:07Z</time>
      </trkpt>
      <trkpt lat="44.12577" lon="6.03175">
        <ele>643.40002441406</ele>
        <time>2020-01-30T09:51:24Z</time>
      </trkpt>
      <trkpt lat="44.12561" lon="6.03176">
        <ele>642.79998779297</ele>
        <time>2020-01-30T09:51:40Z</time>
      </trkpt>
      <trkpt lat="44.12542" lon="6.03176">
        <ele>641.59997558594</ele>
        <time>2020-01-30T09:51:58Z</time>
      </trkpt>
      <trkpt lat="44.12535" lon="6.03175">
        <ele>640.79998779297</ele>
        <time>2020-01-30T09:52:10Z</time>
      </trkpt>
      <trkpt lat="44.12522" lon="6.03166">
        <ele>639.59997558594</ele>
        <time>2020-01-30T09:52:27Z</time>
      </trkpt>
      <trkpt lat="44.12513" lon="6.03159">
        <ele>638.20001220703</ele>
        <time>2020-01-30T09:52:39Z</time>
      </trkpt>
      <trkpt lat="44.1251" lon="6.03156">
        <ele>637.59997558594</ele>
        <time>2020-01-30T09:52:42Z</time>
      </trkpt>
      <trkpt lat="44.12495" lon="6.03142">
        <ele>635.79998779297</ele>
        <time>2020-01-30T09:52:58Z</time>
      </trkpt>
      <trkpt lat="44.1248" lon="6.03139">
        <ele>635.59997558594</ele>
        <time>2020-01-30T09:53:15Z</time>
      </trkpt>
      <trkpt lat="44.12479" lon="6.0314">
        <ele>635.59997558594</ele>
        <time>2020-01-30T09:53:16Z</time>
      </trkpt>
      <trkpt lat="44.12469" lon="6.03142">
        <ele>635.79998779297</ele>
        <time>2020-01-30T09:53:27Z</time>
      </trkpt>
      <trkpt lat="44.12454" lon="6.03143">
        <ele>634.20001220703</ele>
        <time>2020-01-30T09:53:43Z</time>
      </trkpt>
      <trkpt lat="44.1244" lon="6.03146">
        <ele>632.20001220703</ele>
        <time>2020-01-30T09:53:59Z</time>
      </trkpt>
      <trkpt lat="44.12432" lon="6.03148">
        <ele>631.20001220703</ele>
        <time>2020-01-30T09:54:06Z</time>
      </trkpt>
      <trkpt lat="44.1242" lon="6.03152">
        <ele>629.59997558594</ele>
        <time>2020-01-30T09:54:22Z</time>
      </trkpt>
      <trkpt lat="44.12419" lon="6.03152">
        <ele>629.40002441406</ele>
        <time>2020-01-30T09:54:23Z</time>
      </trkpt>
      <trkpt lat="44.12417" lon="6.03152">
        <ele>629.40002441406</ele>
        <time>2020-01-30T09:54:25Z</time>
      </trkpt>
      <trkpt lat="44.12401" lon="6.03151">
        <ele>627.79998779297</ele>
        <time>2020-01-30T09:54:41Z</time>
      </trkpt>
      <trkpt lat="44.12386" lon="6.03147">
        <ele>626</ele>
        <time>2020-01-30T09:54:56Z</time>
      </trkpt>
      <trkpt lat="44.12379" lon="6.03147">
        <ele>625.59997558594</ele>
        <time>2020-01-30T09:55:03Z</time>
      </trkpt>
      <trkpt lat="44.12363" lon="6.03139">
        <ele>623</ele>
        <time>2020-01-30T09:55:21Z</time>
      </trkpt>
      <trkpt lat="44.12349" lon="6.03135">
        <ele>620</ele>
        <time>2020-01-30T09:55:38Z</time>
      </trkpt>
      <trkpt lat="44.12339" lon="6.03132">
        <ele>618.20001220703</ele>
        <time>2020-01-30T09:55:54Z</time>
      </trkpt>
      <trkpt lat="44.1233" lon="6.03122">
        <ele>616.59997558594</ele>
        <time>2020-01-30T09:56:11Z</time>
      </trkpt>
      <trkpt lat="44.12315" lon="6.03118">
        <ele>614.20001220703</ele>
        <time>2020-01-30T09:56:27Z</time>
      </trkpt>
      <trkpt lat="44.12301" lon="6.03112">
        <ele>612.20001220703</ele>
        <time>2020-01-30T09:56:42Z</time>
      </trkpt>
      <trkpt lat="44.12288" lon="6.03107">
        <ele>610.40002441406</ele>
        <time>2020-01-30T09:56:57Z</time>
      </trkpt>
      <trkpt lat="44.12273" lon="6.03099">
        <ele>607.59997558594</ele>
        <time>2020-01-30T09:57:15Z</time>
      </trkpt>
      <trkpt lat="44.12261" lon="6.03084">
        <ele>604.59997558594</ele>
        <time>2020-01-30T09:57:34Z</time>
      </trkpt>
      <trkpt lat="44.12249" lon="6.03081">
        <ele>602</ele>
        <time>2020-01-30T09:57:55Z</time>
      </trkpt>
      <trkpt lat="44.12234" lon="6.03076">
        <ele>600</ele>
        <time>2020-01-30T09:58:15Z</time>
      </trkpt>
      <trkpt lat="44.12232" lon="6.03086">
        <ele>597.59997558594</ele>
        <time>2020-01-30T09:58:32Z</time>
      </trkpt>
      <trkpt lat="44.12245" lon="6.03103">
        <ele>596.20001220703</ele>
        <time>2020-01-30T09:58:52Z</time>
      </trkpt>
      <trkpt lat="44.12239" lon="6.03115">
        <ele>593.59997558594</ele>
        <time>2020-01-30T09:59:14Z</time>
      </trkpt>
      <trkpt lat="44.12222" lon="6.0311">
        <ele>590.59997558594</ele>
        <time>2020-01-30T09:59:33Z</time>
      </trkpt>
      <trkpt lat="44.12205" lon="6.03098">
        <ele>588.59997558594</ele>
        <time>2020-01-30T09:59:53Z</time>
      </trkpt>
      <trkpt lat="44.12186" lon="6.03094">
        <ele>585.79998779297</ele>
        <time>2020-01-30T10:00:14Z</time>
      </trkpt>
      <trkpt lat="44.12166" lon="6.03092">
        <ele>582.79998779297</ele>
        <time>2020-01-30T10:00:37Z</time>
      </trkpt>
      <trkpt lat="44.12155" lon="6.03098">
        <ele>581.59997558594</ele>
        <time>2020-01-30T10:01:02Z</time>
      </trkpt>
      <trkpt lat="44.12129" lon="6.03092">
        <ele>581.79998779297</ele>
        <time>2020-01-30T10:01:28Z</time>
      </trkpt>
      <trkpt lat="44.12107" lon="6.03089">
        <ele>581.59997558594</ele>
        <time>2020-01-30T10:01:52Z</time>
      </trkpt>
      <trkpt lat="44.12085" lon="6.03064">
        <ele>580.59997558594</ele>
        <time>2020-01-30T10:02:19Z</time>
      </trkpt>
      <trkpt lat="44.12082" lon="6.03062">
        <ele>580.40002441406</ele>
        <time>2020-01-30T10:02:22Z</time>
      </trkpt>
      <trkpt lat="44.12056" lon="6.03045">
        <ele>581</ele>
        <time>2020-01-30T10:02:49Z</time>
      </trkpt>
      <trkpt lat="44.12046" lon="6.03027">
        <ele>582</ele>
        <time>2020-01-30T10:03:06Z</time>
      </trkpt>
      <trkpt lat="44.12034" lon="6.0301">
        <ele>581.79998779297</ele>
        <time>2020-01-30T10:03:24Z</time>
      </trkpt>
      <trkpt lat="44.1202" lon="6.02981">
        <ele>581.40002441406</ele>
        <time>2020-01-30T10:03:47Z</time>
      </trkpt>
      <trkpt lat="44.12007" lon="6.02964">
        <ele>580.59997558594</ele>
        <time>2020-01-30T10:04:05Z</time>
      </trkpt>
      <trkpt lat="44.11986" lon="6.02948">
        <ele>580.40002441406</ele>
        <time>2020-01-30T10:04:29Z</time>
      </trkpt>
      <trkpt lat="44.11973" lon="6.02938">
        <ele>580.40002441406</ele>
        <time>2020-01-30T10:04:44Z</time>
      </trkpt>
      <trkpt lat="44.11968" lon="6.02933">
        <ele>580.20001220703</ele>
        <time>2020-01-30T10:04:49Z</time>
      </trkpt>
      <trkpt lat="44.11958" lon="6.02921">
        <ele>578.59997558594</ele>
        <time>2020-01-30T10:05:04Z</time>
      </trkpt>
      <trkpt lat="44.11944" lon="6.02911">
        <ele>576.79998779297</ele>
        <time>2020-01-30T10:05:20Z</time>
      </trkpt>
      <trkpt lat="44.11929" lon="6.02904">
        <ele>575.40002441406</ele>
        <time>2020-01-30T10:05:36Z</time>
      </trkpt>
      <trkpt lat="44.11909" lon="6.02895">
        <ele>574.40002441406</ele>
        <time>2020-01-30T10:05:58Z</time>
      </trkpt>
      <trkpt lat="44.11899" lon="6.02891">
        <ele>573.79998779297</ele>
        <time>2020-01-30T10:06:07Z</time>
      </trkpt>
      <trkpt lat="44.11885" lon="6.02881">
        <ele>572.59997558594</ele>
        <time>2020-01-30T10:06:23Z</time>
      </trkpt>
      <trkpt lat="44.11871" lon="6.02871">
        <ele>571</ele>
        <time>2020-01-30T10:06:37Z</time>
      </trkpt>
      <trkpt lat="44.11864" lon="6.02865">
        <ele>569.79998779297</ele>
        <time>2020-01-30T10:06:45Z</time>
      </trkpt>
      <trkpt lat="44.11851" lon="6.02854">
        <ele>568</ele>
        <time>2020-01-30T10:07:01Z</time>
      </trkpt>
      <trkpt lat="44.11838" lon="6.02839">
        <ele>564.79998779297</ele>
        <time>2020-01-30T10:07:20Z</time>
      </trkpt>
      <trkpt lat="44.11824" lon="6.02824">
        <ele>562.59997558594</ele>
        <time>2020-01-30T10:07:39Z</time>
      </trkpt>
      <trkpt lat="44.11806" lon="6.02818">
        <ele>560.79998779297</ele>
        <time>2020-01-30T10:07:57Z</time>
      </trkpt>
      <trkpt lat="44.11796" lon="6.02814">
        <ele>560.20001220703</ele>
        <time>2020-01-30T10:08:08Z</time>
      </trkpt>
      <trkpt lat="44.11787" lon="6.02809">
        <ele>559.59997558594</ele>
        <time>2020-01-30T10:08:22Z</time>
      </trkpt>
      <trkpt lat="44.11772" lon="6.02797">
        <ele>558.20001220703</ele>
        <time>2020-01-30T10:08:41Z</time>
      </trkpt>
      <trkpt lat="44.11757" lon="6.02788">
        <ele>556.40002441406</ele>
        <time>2020-01-30T10:08:59Z</time>
      </trkpt>
      <trkpt lat="44.11745" lon="6.0278">
        <ele>554.40002441406</ele>
        <time>2020-01-30T10:09:13Z</time>
      </trkpt>
      <trkpt lat="44.11733" lon="6.02771">
        <ele>552.59997558594</ele>
        <time>2020-01-30T10:09:32Z</time>
      </trkpt>
      <trkpt lat="44.1172" lon="6.02764">
        <ele>550.79998779297</ele>
        <time>2020-01-30T10:09:44Z</time>
      </trkpt>
      <trkpt lat="44.11716" lon="6.02764">
        <ele>550</ele>
        <time>2020-01-30T10:09:56Z</time>
      </trkpt>
      <trkpt lat="44.11717" lon="6.02765">
        <ele>550</ele>
        <time>2020-01-30T10:10:30Z</time>
      </trkpt>
      <trkpt lat="44.11718" lon="6.0276">
        <ele>549.79998779297</ele>
        <time>2020-01-30T10:11:09Z</time>
      </trkpt>
      <trkpt lat="44.11715" lon="6.0276">
        <ele>549.59997558594</ele>
        <time>2020-01-30T10:11:25Z</time>
      </trkpt>
      <trkpt lat="44.11715" lon="6.02759">
        <ele>549.40002441406</ele>
        <time>2020-01-30T10:12:12Z</time>
      </trkpt>
      <trkpt lat="44.11713" lon="6.02758">
        <ele>549.20001220703</ele>
        <time>2020-01-30T10:13:05Z</time>
      </trkpt>
      <trkpt lat="44.11702" lon="6.02741">
        <ele>548.40002441406</ele>
        <time>2020-01-30T10:13:27Z</time>
      </trkpt>
      <trkpt lat="44.11687" lon="6.02733">
        <ele>547.59997558594</ele>
        <time>2020-01-30T10:13:45Z</time>
      </trkpt>
      <trkpt lat="44.11671" lon="6.02743">
        <ele>545.79998779297</ele>
        <time>2020-01-30T10:14:09Z</time>
      </trkpt>
      <trkpt lat="44.11655" lon="6.0274">
        <ele>542.79998779297</ele>
        <time>2020-01-30T10:14:27Z</time>
      </trkpt>
      <trkpt lat="44.11643" lon="6.02732">
        <ele>541.20001220703</ele>
        <time>2020-01-30T10:14:44Z</time>
      </trkpt>
      <trkpt lat="44.11624" lon="6.02726">
        <ele>538.20001220703</ele>
        <time>2020-01-30T10:15:04Z</time>
      </trkpt>
      <trkpt lat="44.11611" lon="6.02722">
        <ele>535.20001220703</ele>
        <time>2020-01-30T10:15:24Z</time>
      </trkpt>
      <trkpt lat="44.11615" lon="6.02736">
        <ele>533.40002441406</ele>
        <time>2020-01-30T10:15:40Z</time>
      </trkpt>
      <trkpt lat="44.11626" lon="6.02762">
        <ele>532</ele>
        <time>2020-01-30T10:16:07Z</time>
      </trkpt>
      <trkpt lat="44.11623" lon="6.02788">
        <ele>530.59997558594</ele>
        <time>2020-01-30T10:16:26Z</time>
      </trkpt>
      <trkpt lat="44.11622" lon="6.02795">
        <ele>530.20001220703</ele>
        <time>2020-01-30T10:16:30Z</time>
      </trkpt>
      <trkpt lat="44.11612" lon="6.02818">
        <ele>528.79998779297</ele>
        <time>2020-01-30T10:16:50Z</time>
      </trkpt>
      <trkpt lat="44.11605" lon="6.02819">
        <ele>528</ele>
        <time>2020-01-30T10:16:57Z</time>
      </trkpt>
      <trkpt lat="44.11592" lon="6.02812">
        <ele>526.20001220703</ele>
        <time>2020-01-30T10:17:10Z</time>
      </trkpt>
      <trkpt lat="44.11591" lon="6.02811">
        <ele>526.20001220703</ele>
        <time>2020-01-30T10:17:11Z</time>
      </trkpt>
      <trkpt lat="44.11577" lon="6.02814">
        <ele>524</ele>
        <time>2020-01-30T10:17:22Z</time>
      </trkpt>
      <trkpt lat="44.11564" lon="6.02822">
        <ele>522.40002441406</ele>
        <time>2020-01-30T10:17:37Z</time>
      </trkpt>
      <trkpt lat="44.1156" lon="6.02827">
        <ele>521.79998779297</ele>
        <time>2020-01-30T10:17:41Z</time>
      </trkpt>
      <trkpt lat="44.11545" lon="6.02834">
        <ele>519.59997558594</ele>
        <time>2020-01-30T10:17:55Z</time>
      </trkpt>
      <trkpt lat="44.11543" lon="6.02833">
        <ele>519.40002441406</ele>
        <time>2020-01-30T10:17:57Z</time>
      </trkpt>
      <trkpt lat="44.11536" lon="6.02831">
        <ele>518.40002441406</ele>
        <time>2020-01-30T10:18:03Z</time>
      </trkpt>
      <trkpt lat="44.11533" lon="6.02828">
        <ele>517.79998779297</ele>
        <time>2020-01-30T10:18:07Z</time>
      </trkpt>
      <trkpt lat="44.11522" lon="6.02819">
        <ele>514.40002441406</ele>
        <time>2020-01-30T10:18:22Z</time>
      </trkpt>
      <trkpt lat="44.11511" lon="6.02816">
        <ele>511.39999389648</ele>
        <time>2020-01-30T10:18:37Z</time>
      </trkpt>
      <trkpt lat="44.11513" lon="6.02821">
        <ele>511.20001220703</ele>
        <time>2020-01-30T10:18:50Z</time>
      </trkpt>
      <trkpt lat="44.11515" lon="6.02823">
        <ele>511.20001220703</ele>
        <time>2020-01-30T10:18:52Z</time>
      </trkpt>
      <trkpt lat="44.11516" lon="6.02825">
        <ele>511.20001220703</ele>
        <time>2020-01-30T10:18:54Z</time>
      </trkpt>
      <trkpt lat="44.11519" lon="6.02828">
        <ele>511.20001220703</ele>
        <time>2020-01-30T10:18:57Z</time>
      </trkpt>
      <trkpt lat="44.11531" lon="6.02846">
        <ele>512.59997558594</ele>
        <time>2020-01-30T10:19:13Z</time>
      </trkpt>
      <trkpt lat="44.11544" lon="6.02862">
        <ele>514.59997558594</ele>
        <time>2020-01-30T10:19:27Z</time>
      </trkpt>
      <trkpt lat="44.11554" lon="6.02878">
        <ele>516.79998779297</ele>
        <time>2020-01-30T10:19:44Z</time>
      </trkpt>
      <trkpt lat="44.11556" lon="6.02882">
        <ele>517.40002441406</ele>
        <time>2020-01-30T10:19:48Z</time>
      </trkpt>
      <trkpt lat="44.11566" lon="6.02899">
        <ele>519.40002441406</ele>
        <time>2020-01-30T10:20:04Z</time>
      </trkpt>
      <trkpt lat="44.11574" lon="6.02916">
        <ele>521.59997558594</ele>
        <time>2020-01-30T10:20:19Z</time>
      </trkpt>
      <trkpt lat="44.11583" lon="6.02926">
        <ele>524</ele>
        <time>2020-01-30T10:20:35Z</time>
      </trkpt>
      <trkpt lat="44.11593" lon="6.02935">
        <ele>525</ele>
        <time>2020-01-30T10:20:49Z</time>
      </trkpt>
      <trkpt lat="44.11602" lon="6.02949">
        <ele>526</ele>
        <time>2020-01-30T10:21:04Z</time>
      </trkpt>
      <trkpt lat="44.11616" lon="6.02971">
        <ele>527.59997558594</ele>
        <time>2020-01-30T10:21:23Z</time>
      </trkpt>
      <trkpt lat="44.11626" lon="6.02987">
        <ele>528.40002441406</ele>
        <time>2020-01-30T10:21:37Z</time>
      </trkpt>
      <trkpt lat="44.11629" lon="6.02989">
        <ele>528.59997558594</ele>
        <time>2020-01-30T10:21:40Z</time>
      </trkpt>
      <trkpt lat="44.1164" lon="6.02998">
        <ele>529.40002441406</ele>
        <time>2020-01-30T10:21:56Z</time>
      </trkpt>
      <trkpt lat="44.11647" lon="6.03007">
        <ele>530</ele>
        <time>2020-01-30T10:22:06Z</time>
      </trkpt>
      <trkpt lat="44.1166" lon="6.03022">
        <ele>530.79998779297</ele>
        <time>2020-01-30T10:22:24Z</time>
      </trkpt>
      <trkpt lat="44.11679" lon="6.03042">
        <ele>532.59997558594</ele>
        <time>2020-01-30T10:22:46Z</time>
      </trkpt>
      <trkpt lat="44.11682" lon="6.03045">
        <ele>532.79998779297</ele>
        <time>2020-01-30T10:22:50Z</time>
      </trkpt>
      <trkpt lat="44.11684" lon="6.03048">
        <ele>533</ele>
        <time>2020-01-30T10:22:52Z</time>
      </trkpt>
      <trkpt lat="44.11686" lon="6.0305">
        <ele>533.20001220703</ele>
        <time>2020-01-30T10:22:55Z</time>
      </trkpt>
      <trkpt lat="44.11696" lon="6.03064">
        <ele>534</ele>
        <time>2020-01-30T10:23:09Z</time>
      </trkpt>
      <trkpt lat="44.11704" lon="6.03077">
        <ele>534</ele>
        <time>2020-01-30T10:23:27Z</time>
      </trkpt>
      <trkpt lat="44.11713" lon="6.03096">
        <ele>534.40002441406</ele>
        <time>2020-01-30T10:23:47Z</time>
      </trkpt>
      <trkpt lat="44.11714" lon="6.03099">
        <ele>534.40002441406</ele>
        <time>2020-01-30T10:23:49Z</time>
      </trkpt>
      <trkpt lat="44.11718" lon="6.03104">
        <ele>534.59997558594</ele>
        <time>2020-01-30T10:23:54Z</time>
      </trkpt>
      <trkpt lat="44.11729" lon="6.03123">
        <ele>535.59997558594</ele>
        <time>2020-01-30T10:24:10Z</time>
      </trkpt>
      <trkpt lat="44.11736" lon="6.0313">
        <ele>535.79998779297</ele>
        <time>2020-01-30T10:24:20Z</time>
      </trkpt>
      <trkpt lat="44.11741" lon="6.03134">
        <ele>536</ele>
        <time>2020-01-30T10:24:25Z</time>
      </trkpt>
      <trkpt lat="44.11753" lon="6.03146">
        <ele>536.59997558594</ele>
        <time>2020-01-30T10:24:39Z</time>
      </trkpt>
      <trkpt lat="44.11765" lon="6.03159">
        <ele>537.79998779297</ele>
        <time>2020-01-30T10:24:54Z</time>
      </trkpt>
      <trkpt lat="44.11769" lon="6.0316">
        <ele>538.59997558594</ele>
        <time>2020-01-30T10:25:08Z</time>
      </trkpt>
      <trkpt lat="44.11779" lon="6.03166">
        <ele>538.79998779297</ele>
        <time>2020-01-30T10:25:22Z</time>
      </trkpt>
      <trkpt lat="44.11794" lon="6.03175">
        <ele>539.79998779297</ele>
        <time>2020-01-30T10:25:37Z</time>
      </trkpt>
      <trkpt lat="44.11799" lon="6.03179">
        <ele>540</ele>
        <time>2020-01-30T10:25:42Z</time>
      </trkpt>
      <trkpt lat="44.11815" lon="6.03188">
        <ele>541.40002441406</ele>
        <time>2020-01-30T10:26:00Z</time>
      </trkpt>
      <trkpt lat="44.11817" lon="6.0319">
        <ele>542.20001220703</ele>
        <time>2020-01-30T10:26:19Z</time>
      </trkpt>
      <trkpt lat="44.11817" lon="6.03182">
        <ele>542.40002441406</ele>
        <time>2020-01-30T10:27:15Z</time>
      </trkpt>
      <trkpt lat="44.1182" lon="6.03188">
        <ele>542.40002441406</ele>
        <time>2020-01-30T10:27:46Z</time>
      </trkpt>
      <trkpt lat="44.11821" lon="6.0319">
        <ele>542.20001220703</ele>
        <time>2020-01-30T10:28:32Z</time>
      </trkpt>
      <trkpt lat="44.11829" lon="6.03194">
        <ele>542.20001220703</ele>
        <time>2020-01-30T10:28:59Z</time>
      </trkpt>
      <trkpt lat="44.11842" lon="6.032">
        <ele>542.59997558594</ele>
        <time>2020-01-30T10:29:15Z</time>
      </trkpt>
      <trkpt lat="44.11848" lon="6.03204">
        <ele>542.79998779297</ele>
        <time>2020-01-30T10:29:23Z</time>
      </trkpt>
      <trkpt lat="44.11852" lon="6.03205">
        <ele>543</ele>
        <time>2020-01-30T10:29:26Z</time>
      </trkpt>
      <trkpt lat="44.11866" lon="6.03208">
        <ele>544.59997558594</ele>
        <time>2020-01-30T10:29:42Z</time>
      </trkpt>
      <trkpt lat="44.1188" lon="6.03212">
        <ele>545</ele>
        <time>2020-01-30T10:29:56Z</time>
      </trkpt>
      <trkpt lat="44.11894" lon="6.03221">
        <ele>545.20001220703</ele>
        <time>2020-01-30T10:30:11Z</time>
      </trkpt>
      <trkpt lat="44.11896" lon="6.03222">
        <ele>545.40002441406</ele>
        <time>2020-01-30T10:30:13Z</time>
      </trkpt>
      <trkpt lat="44.11912" lon="6.03234">
        <ele>545.40002441406</ele>
        <time>2020-01-30T10:30:30Z</time>
      </trkpt>
      <trkpt lat="44.11928" lon="6.03246">
        <ele>545.79998779297</ele>
        <time>2020-01-30T10:30:46Z</time>
      </trkpt>
      <trkpt lat="44.11943" lon="6.03257">
        <ele>546</ele>
        <time>2020-01-30T10:31:01Z</time>
      </trkpt>
      <trkpt lat="44.1196" lon="6.03271">
        <ele>546</ele>
        <time>2020-01-30T10:31:17Z</time>
      </trkpt>
      <trkpt lat="44.11976" lon="6.03288">
        <ele>546.40002441406</ele>
        <time>2020-01-30T10:31:33Z</time>
      </trkpt>
      <trkpt lat="44.11983" lon="6.03295">
        <ele>546.59997558594</ele>
        <time>2020-01-30T10:31:47Z</time>
      </trkpt>
      <trkpt lat="44.1199" lon="6.03302">
        <ele>546.40002441406</ele>
        <time>2020-01-30T10:32:13Z</time>
      </trkpt>
      <trkpt lat="44.12001" lon="6.03317">
        <ele>546.40002441406</ele>
        <time>2020-01-30T10:32:28Z</time>
      </trkpt>
      <trkpt lat="44.1201" lon="6.03333">
        <ele>546.40002441406</ele>
        <time>2020-01-30T10:32:42Z</time>
      </trkpt>
      <trkpt lat="44.12016" lon="6.03353">
        <ele>546.40002441406</ele>
        <time>2020-01-30T10:32:57Z</time>
      </trkpt>
      <trkpt lat="44.12018" lon="6.03359">
        <ele>546.59997558594</ele>
        <time>2020-01-30T10:33:03Z</time>
      </trkpt>
      <trkpt lat="44.1202" lon="6.03363">
        <ele>546.59997558594</ele>
        <time>2020-01-30T10:33:06Z</time>
      </trkpt>
      <trkpt lat="44.12027" lon="6.03383">
        <ele>547</ele>
        <time>2020-01-30T10:33:21Z</time>
      </trkpt>
      <trkpt lat="44.12028" lon="6.03387">
        <ele>547</ele>
        <time>2020-01-30T10:33:23Z</time>
      </trkpt>
      <trkpt lat="44.12036" lon="6.03401">
        <ele>547.20001220703</ele>
        <time>2020-01-30T10:33:34Z</time>
      </trkpt>
      <trkpt lat="44.12043" lon="6.03409">
        <ele>547.59997558594</ele>
        <time>2020-01-30T10:33:41Z</time>
      </trkpt>
      <trkpt lat="44.12046" lon="6.03414">
        <ele>547.59997558594</ele>
        <time>2020-01-30T10:33:45Z</time>
      </trkpt>
      <trkpt lat="44.12059" lon="6.03429">
        <ele>548</ele>
        <time>2020-01-30T10:34:00Z</time>
      </trkpt>
      <trkpt lat="44.12064" lon="6.0345">
        <ele>548.20001220703</ele>
        <time>2020-01-30T10:34:16Z</time>
      </trkpt>
      <trkpt lat="44.1207" lon="6.0348">
        <ele>548.40002441406</ele>
        <time>2020-01-30T10:34:35Z</time>
      </trkpt>
      <trkpt lat="44.12076" lon="6.03506">
        <ele>547.79998779297</ele>
        <time>2020-01-30T10:34:51Z</time>
      </trkpt>
      <trkpt lat="44.12075" lon="6.0351">
        <ele>547.79998779297</ele>
        <time>2020-01-30T10:34:54Z</time>
      </trkpt>
      <trkpt lat="44.12063" lon="6.03522">
        <ele>547.79998779297</ele>
        <time>2020-01-30T10:35:08Z</time>
      </trkpt>
      <trkpt lat="44.12062" lon="6.03523">
        <ele>547.79998779297</ele>
        <time>2020-01-30T10:35:09Z</time>
      </trkpt>
      <trkpt lat="44.12059" lon="6.03526">
        <ele>547.79998779297</ele>
        <time>2020-01-30T10:35:12Z</time>
      </trkpt>
      <trkpt lat="44.12051" lon="6.03531">
        <ele>548</ele>
        <time>2020-01-30T10:35:19Z</time>
      </trkpt>
      <trkpt lat="44.12033" lon="6.03546">
        <ele>549.40002441406</ele>
        <time>2020-01-30T10:35:38Z</time>
      </trkpt>
      <trkpt lat="44.12028" lon="6.03549">
        <ele>550</ele>
        <time>2020-01-30T10:35:43Z</time>
      </trkpt>
      <trkpt lat="44.12025" lon="6.0356">
        <ele>551</ele>
        <time>2020-01-30T10:35:52Z</time>
      </trkpt>
      <trkpt lat="44.12032" lon="6.03578">
        <ele>552.40002441406</ele>
        <time>2020-01-30T10:36:07Z</time>
      </trkpt>
      <trkpt lat="44.12044" lon="6.03598">
        <ele>553.40002441406</ele>
        <time>2020-01-30T10:36:24Z</time>
      </trkpt>
      <trkpt lat="44.12057" lon="6.0362">
        <ele>554.20001220703</ele>
        <time>2020-01-30T10:36:43Z</time>
      </trkpt>
      <trkpt lat="44.12066" lon="6.03641">
        <ele>555</ele>
        <time>2020-01-30T10:36:59Z</time>
      </trkpt>
      <trkpt lat="44.12073" lon="6.0366">
        <ele>555.79998779297</ele>
        <time>2020-01-30T10:37:14Z</time>
      </trkpt>
      <trkpt lat="44.12079" lon="6.03677">
        <ele>556.59997558594</ele>
        <time>2020-01-30T10:37:30Z</time>
      </trkpt>
      <trkpt lat="44.12086" lon="6.03687">
        <ele>557.40002441406</ele>
        <time>2020-01-30T10:37:41Z</time>
      </trkpt>
      <trkpt lat="44.12096" lon="6.03699">
        <ele>558.20001220703</ele>
        <time>2020-01-30T10:37:55Z</time>
      </trkpt>
      <trkpt lat="44.12107" lon="6.03713">
        <ele>560</ele>
        <time>2020-01-30T10:38:11Z</time>
      </trkpt>
      <trkpt lat="44.12115" lon="6.0373">
        <ele>561.20001220703</ele>
        <time>2020-01-30T10:38:25Z</time>
      </trkpt>
      <trkpt lat="44.1212" lon="6.03742">
        <ele>562.20001220703</ele>
        <time>2020-01-30T10:38:36Z</time>
      </trkpt>
      <trkpt lat="44.12127" lon="6.0376">
        <ele>563.59997558594</ele>
        <time>2020-01-30T10:38:51Z</time>
      </trkpt>
      <trkpt lat="44.12133" lon="6.03775">
        <ele>564.79998779297</ele>
        <time>2020-01-30T10:39:05Z</time>
      </trkpt>
      <trkpt lat="44.12139" lon="6.0379">
        <ele>566</ele>
        <time>2020-01-30T10:39:19Z</time>
      </trkpt>
      <trkpt lat="44.1214" lon="6.03791">
        <ele>566</ele>
        <time>2020-01-30T10:39:20Z</time>
      </trkpt>
      <trkpt lat="44.1214" lon="6.03794">
        <ele>566.20001220703</ele>
        <time>2020-01-30T10:39:22Z</time>
      </trkpt>
      <trkpt lat="44.12145" lon="6.03806">
        <ele>567.40002441406</ele>
        <time>2020-01-30T10:39:34Z</time>
      </trkpt>
      <trkpt lat="44.12146" lon="6.03809">
        <ele>567.59997558594</ele>
        <time>2020-01-30T10:39:36Z</time>
      </trkpt>
      <trkpt lat="44.12153" lon="6.03822">
        <ele>568.79998779297</ele>
        <time>2020-01-30T10:39:48Z</time>
      </trkpt>
      <trkpt lat="44.12156" lon="6.0383">
        <ele>569.40002441406</ele>
        <time>2020-01-30T10:39:55Z</time>
      </trkpt>
      <trkpt lat="44.12164" lon="6.03848">
        <ele>570.79998779297</ele>
        <time>2020-01-30T10:40:10Z</time>
      </trkpt>
      <trkpt lat="44.12171" lon="6.03869">
        <ele>571.79998779297</ele>
        <time>2020-01-30T10:40:26Z</time>
      </trkpt>
      <trkpt lat="44.12172" lon="6.0388">
        <ele>572.59997558594</ele>
        <time>2020-01-30T10:40:34Z</time>
      </trkpt>
      <trkpt lat="44.12175" lon="6.03898">
        <ele>573</ele>
        <time>2020-01-30T10:40:46Z</time>
      </trkpt>
      <trkpt lat="44.12174" lon="6.03922">
        <ele>573.59997558594</ele>
        <time>2020-01-30T10:41:01Z</time>
      </trkpt>
      <trkpt lat="44.12172" lon="6.03935">
        <ele>574</ele>
        <time>2020-01-30T10:41:10Z</time>
      </trkpt>
      <trkpt lat="44.12172" lon="6.03958">
        <ele>575.20001220703</ele>
        <time>2020-01-30T10:41:27Z</time>
      </trkpt>
      <trkpt lat="44.12173" lon="6.03968">
        <ele>575.59997558594</ele>
        <time>2020-01-30T10:41:34Z</time>
      </trkpt>
      <trkpt lat="44.12173" lon="6.03974">
        <ele>575.79998779297</ele>
        <time>2020-01-30T10:41:38Z</time>
      </trkpt>
      <trkpt lat="44.1218" lon="6.03999">
        <ele>576</ele>
        <time>2020-01-30T10:41:54Z</time>
      </trkpt>
      <trkpt lat="44.12185" lon="6.04022">
        <ele>576.40002441406</ele>
        <time>2020-01-30T10:42:09Z</time>
      </trkpt>
      <trkpt lat="44.12187" lon="6.04031">
        <ele>577</ele>
        <time>2020-01-30T10:42:15Z</time>
      </trkpt>
      <trkpt lat="44.12187" lon="6.04045">
        <ele>577.40002441406</ele>
        <time>2020-01-30T10:42:24Z</time>
      </trkpt>
      <trkpt lat="44.12187" lon="6.04068">
        <ele>578.20001220703</ele>
        <time>2020-01-30T10:42:38Z</time>
      </trkpt>
      <trkpt lat="44.12187" lon="6.04072">
        <ele>578.40002441406</ele>
        <time>2020-01-30T10:42:41Z</time>
      </trkpt>
      <trkpt lat="44.12189" lon="6.04081">
        <ele>579</ele>
        <time>2020-01-30T10:42:47Z</time>
      </trkpt>
      <trkpt lat="44.12189" lon="6.04088">
        <ele>579.20001220703</ele>
        <time>2020-01-30T10:42:52Z</time>
      </trkpt>
      <trkpt lat="44.12191" lon="6.04098">
        <ele>579.79998779297</ele>
        <time>2020-01-30T10:43:00Z</time>
      </trkpt>
      <trkpt lat="44.12193" lon="6.04105">
        <ele>580</ele>
        <time>2020-01-30T10:43:05Z</time>
      </trkpt>
      <trkpt lat="44.12196" lon="6.04128">
        <ele>580.79998779297</ele>
        <time>2020-01-30T10:43:21Z</time>
      </trkpt>
      <trkpt lat="44.12198" lon="6.04136">
        <ele>581.20001220703</ele>
        <time>2020-01-30T10:43:27Z</time>
      </trkpt>
      <trkpt lat="44.12201" lon="6.04156">
        <ele>582</ele>
        <time>2020-01-30T10:43:42Z</time>
      </trkpt>
      <trkpt lat="44.12204" lon="6.04167">
        <ele>582.79998779297</ele>
        <time>2020-01-30T10:44:08Z</time>
      </trkpt>
      <trkpt lat="44.12211" lon="6.04191">
        <ele>584</ele>
        <time>2020-01-30T10:44:26Z</time>
      </trkpt>
      <trkpt lat="44.12217" lon="6.04211">
        <ele>585</ele>
        <time>2020-01-30T10:44:42Z</time>
      </trkpt>
      <trkpt lat="44.12226" lon="6.0423">
        <ele>585.79998779297</ele>
        <time>2020-01-30T10:44:57Z</time>
      </trkpt>
      <trkpt lat="44.12235" lon="6.04247">
        <ele>587</ele>
        <time>2020-01-30T10:45:12Z</time>
      </trkpt>
      <trkpt lat="44.12246" lon="6.04263">
        <ele>588</ele>
        <time>2020-01-30T10:45:27Z</time>
      </trkpt>
      <trkpt lat="44.12256" lon="6.04271">
        <ele>589</ele>
        <time>2020-01-30T10:45:40Z</time>
      </trkpt>
      <trkpt lat="44.12259" lon="6.04273">
        <ele>589.20001220703</ele>
        <time>2020-01-30T10:45:44Z</time>
      </trkpt>
      <trkpt lat="44.12274" lon="6.04278">
        <ele>590.59997558594</ele>
        <time>2020-01-30T10:46:00Z</time>
      </trkpt>
      <trkpt lat="44.12284" lon="6.04284">
        <ele>591.59997558594</ele>
        <time>2020-01-30T10:46:12Z</time>
      </trkpt>
      <trkpt lat="44.12299" lon="6.04297">
        <ele>592.59997558594</ele>
        <time>2020-01-30T10:46:29Z</time>
      </trkpt>
      <trkpt lat="44.12313" lon="6.04308">
        <ele>593.20001220703</ele>
        <time>2020-01-30T10:46:42Z</time>
      </trkpt>
      <trkpt lat="44.12324" lon="6.04318">
        <ele>593.40002441406</ele>
        <time>2020-01-30T10:46:55Z</time>
      </trkpt>
      <trkpt lat="44.12337" lon="6.04332">
        <ele>594</ele>
        <time>2020-01-30T10:47:10Z</time>
      </trkpt>
      <trkpt lat="44.12342" lon="6.04336">
        <ele>594.20001220703</ele>
        <time>2020-01-30T10:47:16Z</time>
      </trkpt>
      <trkpt lat="44.12351" lon="6.04347">
        <ele>594.40002441406</ele>
        <time>2020-01-30T10:47:27Z</time>
      </trkpt>
      <trkpt lat="44.12356" lon="6.04352">
        <ele>594.79998779297</ele>
        <time>2020-01-30T10:47:35Z</time>
      </trkpt>
      <trkpt lat="44.12361" lon="6.04356">
        <ele>595</ele>
        <time>2020-01-30T10:47:40Z</time>
      </trkpt>
      <trkpt lat="44.1237" lon="6.04364">
        <ele>596</ele>
        <time>2020-01-30T10:47:52Z</time>
      </trkpt>
      <trkpt lat="44.12372" lon="6.04366">
        <ele>596.20001220703</ele>
        <time>2020-01-30T10:47:54Z</time>
      </trkpt>
      <trkpt lat="44.12382" lon="6.04379">
        <ele>597.59997558594</ele>
        <time>2020-01-30T10:48:08Z</time>
      </trkpt>
      <trkpt lat="44.12392" lon="6.04393">
        <ele>598.79998779297</ele>
        <time>2020-01-30T10:48:22Z</time>
      </trkpt>
      <trkpt lat="44.12393" lon="6.04394">
        <ele>598.79998779297</ele>
        <time>2020-01-30T10:48:23Z</time>
      </trkpt>
      <trkpt lat="44.12398" lon="6.04402">
        <ele>599.59997558594</ele>
        <time>2020-01-30T10:48:32Z</time>
      </trkpt>
      <trkpt lat="44.12407" lon="6.04417">
        <ele>601.20001220703</ele>
        <time>2020-01-30T10:48:47Z</time>
      </trkpt>
      <trkpt lat="44.12416" lon="6.04429">
        <ele>602.40002441406</ele>
        <time>2020-01-30T10:49:00Z</time>
      </trkpt>
      <trkpt lat="44.1242" lon="6.04437">
        <ele>603.79998779297</ele>
        <time>2020-01-30T10:49:17Z</time>
      </trkpt>
      <trkpt lat="44.12418" lon="6.04442">
        <ele>604</ele>
        <time>2020-01-30T10:49:48Z</time>
      </trkpt>
      <trkpt lat="44.12424" lon="6.04454">
        <ele>604.40002441406</ele>
        <time>2020-01-30T10:50:25Z</time>
      </trkpt>
      <trkpt lat="44.12428" lon="6.04458">
        <ele>605</ele>
        <time>2020-01-30T10:50:31Z</time>
      </trkpt>
      <trkpt lat="44.12433" lon="6.04462">
        <ele>606.59997558594</ele>
        <time>2020-01-30T10:50:46Z</time>
      </trkpt>
      <trkpt lat="44.12436" lon="6.04466">
        <ele>606.79998779297</ele>
        <time>2020-01-30T10:50:52Z</time>
      </trkpt>
      <trkpt lat="44.12442" lon="6.04472">
        <ele>607</ele>
        <time>2020-01-30T10:51:00Z</time>
      </trkpt>
      <trkpt lat="44.12451" lon="6.04486">
        <ele>608.59997558594</ele>
        <time>2020-01-30T10:51:15Z</time>
      </trkpt>
      <trkpt lat="44.12457" lon="6.04497">
        <ele>610.59997558594</ele>
        <time>2020-01-30T10:51:28Z</time>
      </trkpt>
      <trkpt lat="44.1247" lon="6.04514">
        <ele>612.40002441406</ele>
        <time>2020-01-30T10:51:48Z</time>
      </trkpt>
      <trkpt lat="44.12477" lon="6.04527">
        <ele>614.40002441406</ele>
        <time>2020-01-30T10:52:03Z</time>
      </trkpt>
      <trkpt lat="44.12476" lon="6.04542">
        <ele>615.40002441406</ele>
        <time>2020-01-30T10:52:31Z</time>
      </trkpt>
      <trkpt lat="44.12479" lon="6.04559">
        <ele>617</ele>
        <time>2020-01-30T10:52:47Z</time>
      </trkpt>
      <trkpt lat="44.12484" lon="6.04576">
        <ele>618</ele>
        <time>2020-01-30T10:53:01Z</time>
      </trkpt>
      <trkpt lat="44.12488" lon="6.04587">
        <ele>618.40002441406</ele>
        <time>2020-01-30T10:53:10Z</time>
      </trkpt>
      <trkpt lat="44.12493" lon="6.046">
        <ele>619.20001220703</ele>
        <time>2020-01-30T10:53:20Z</time>
      </trkpt>
      <trkpt lat="44.12495" lon="6.04607">
        <ele>619.59997558594</ele>
        <time>2020-01-30T10:53:26Z</time>
      </trkpt>
      <trkpt lat="44.125" lon="6.04622">
        <ele>620.20001220703</ele>
        <time>2020-01-30T10:53:38Z</time>
      </trkpt>
      <trkpt lat="44.12507" lon="6.04637">
        <ele>620.59997558594</ele>
        <time>2020-01-30T10:53:52Z</time>
      </trkpt>
      <trkpt lat="44.12514" lon="6.04653">
        <ele>621</ele>
        <time>2020-01-30T10:54:05Z</time>
      </trkpt>
      <trkpt lat="44.12515" lon="6.04661">
        <ele>621.20001220703</ele>
        <time>2020-01-30T10:54:11Z</time>
      </trkpt>
      <trkpt lat="44.12517" lon="6.04664">
        <ele>621.40002441406</ele>
        <time>2020-01-30T10:54:14Z</time>
      </trkpt>
      <trkpt lat="44.12517" lon="6.04673">
        <ele>621.79998779297</ele>
        <time>2020-01-30T10:54:21Z</time>
      </trkpt>
      <trkpt lat="44.12517" lon="6.04689">
        <ele>622.59997558594</ele>
        <time>2020-01-30T10:54:32Z</time>
      </trkpt>
      <trkpt lat="44.12518" lon="6.04692">
        <ele>622.79998779297</ele>
        <time>2020-01-30T10:54:34Z</time>
      </trkpt>
      <trkpt lat="44.12526" lon="6.04711">
        <ele>624.40002441406</ele>
        <time>2020-01-30T10:54:50Z</time>
      </trkpt>
      <trkpt lat="44.12527" lon="6.04714">
        <ele>624.79998779297</ele>
        <time>2020-01-30T10:54:52Z</time>
      </trkpt>
      <trkpt lat="44.12534" lon="6.04721">
        <ele>625.79998779297</ele>
        <time>2020-01-30T10:55:01Z</time>
      </trkpt>
      <trkpt lat="44.12537" lon="6.04734">
        <ele>626</ele>
        <time>2020-01-30T10:55:12Z</time>
      </trkpt>
      <trkpt lat="44.12541" lon="6.04751">
        <ele>627.20001220703</ele>
        <time>2020-01-30T10:55:26Z</time>
      </trkpt>
      <trkpt lat="44.12542" lon="6.04755">
        <ele>627.59997558594</ele>
        <time>2020-01-30T10:55:30Z</time>
      </trkpt>
      <trkpt lat="44.12554" lon="6.04774">
        <ele>629</ele>
        <time>2020-01-30T10:55:48Z</time>
      </trkpt>
      <trkpt lat="44.12559" lon="6.04784">
        <ele>630</ele>
        <time>2020-01-30T10:56:05Z</time>
      </trkpt>
      <trkpt lat="44.12559" lon="6.04793">
        <ele>630</ele>
        <time>2020-01-30T10:56:30Z</time>
      </trkpt>
      <trkpt lat="44.12559" lon="6.04796">
        <ele>630</ele>
        <time>2020-01-30T10:56:32Z</time>
      </trkpt>
      <trkpt lat="44.12558" lon="6.04812">
        <ele>630.40002441406</ele>
        <time>2020-01-30T10:56:45Z</time>
      </trkpt>
      <trkpt lat="44.12559" lon="6.04833">
        <ele>631.20001220703</ele>
        <time>2020-01-30T10:57:00Z</time>
      </trkpt>
      <trkpt lat="44.12559" lon="6.04838">
        <ele>631.59997558594</ele>
        <time>2020-01-30T10:57:04Z</time>
      </trkpt>
      <trkpt lat="44.12562" lon="6.04861">
        <ele>632.79998779297</ele>
        <time>2020-01-30T10:57:21Z</time>
      </trkpt>
      <trkpt lat="44.12561" lon="6.0488">
        <ele>633.79998779297</ele>
        <time>2020-01-30T10:57:36Z</time>
      </trkpt>
      <trkpt lat="44.12557" lon="6.04892">
        <ele>634.40002441406</ele>
        <time>2020-01-30T10:57:46Z</time>
      </trkpt>
      <trkpt lat="44.12555" lon="6.04902">
        <ele>635</ele>
        <time>2020-01-30T10:57:52Z</time>
      </trkpt>
      <trkpt lat="44.12549" lon="6.04922">
        <ele>635.59997558594</ele>
        <time>2020-01-30T10:58:08Z</time>
      </trkpt>
      <trkpt lat="44.12548" lon="6.04924">
        <ele>635.59997558594</ele>
        <time>2020-01-30T10:58:09Z</time>
      </trkpt>
      <trkpt lat="44.12544" lon="6.04936">
        <ele>636.20001220703</ele>
        <time>2020-01-30T10:58:18Z</time>
      </trkpt>
      <trkpt lat="44.12541" lon="6.04943">
        <ele>636.40002441406</ele>
        <time>2020-01-30T10:58:23Z</time>
      </trkpt>
      <trkpt lat="44.12536" lon="6.04953">
        <ele>636.59997558594</ele>
        <time>2020-01-30T10:58:32Z</time>
      </trkpt>
      <trkpt lat="44.12529" lon="6.04969">
        <ele>637.79998779297</ele>
        <time>2020-01-30T10:58:45Z</time>
      </trkpt>
      <trkpt lat="44.12521" lon="6.04986">
        <ele>639</ele>
        <time>2020-01-30T10:58:59Z</time>
      </trkpt>
      <trkpt lat="44.12517" lon="6.04991">
        <ele>639.40002441406</ele>
        <time>2020-01-30T10:59:04Z</time>
      </trkpt>
      <trkpt lat="44.12511" lon="6.05005">
        <ele>640.79998779297</ele>
        <time>2020-01-30T10:59:17Z</time>
      </trkpt>
      <trkpt lat="44.12508" lon="6.05008">
        <ele>641.20001220703</ele>
        <time>2020-01-30T10:59:21Z</time>
      </trkpt>
      <trkpt lat="44.12505" lon="6.05016">
        <ele>641.79998779297</ele>
        <time>2020-01-30T10:59:26Z</time>
      </trkpt>
      <trkpt lat="44.12498" lon="6.05032">
        <ele>642.59997558594</ele>
        <time>2020-01-30T10:59:39Z</time>
      </trkpt>
      <trkpt lat="44.12489" lon="6.05048">
        <ele>643.20001220703</ele>
        <time>2020-01-30T10:59:54Z</time>
      </trkpt>
      <trkpt lat="44.12471" lon="6.05065">
        <ele>644.59997558594</ele>
        <time>2020-01-30T11:00:15Z</time>
      </trkpt>
      <trkpt lat="44.12466" lon="6.05068">
        <ele>645.20001220703</ele>
        <time>2020-01-30T11:00:20Z</time>
      </trkpt>
      <trkpt lat="44.12455" lon="6.05069">
        <ele>646.79998779297</ele>
        <time>2020-01-30T11:00:33Z</time>
      </trkpt>
      <trkpt lat="44.12446" lon="6.0507">
        <ele>647.59997558594</ele>
        <time>2020-01-30T11:00:42Z</time>
      </trkpt>
      <trkpt lat="44.12432" lon="6.05081">
        <ele>649.59997558594</ele>
        <time>2020-01-30T11:01:00Z</time>
      </trkpt>
      <trkpt lat="44.12425" lon="6.05093">
        <ele>650.79998779297</ele>
        <time>2020-01-30T11:01:12Z</time>
      </trkpt>
      <trkpt lat="44.12415" lon="6.05108">
        <ele>652.20001220703</ele>
        <time>2020-01-30T11:01:27Z</time>
      </trkpt>
      <trkpt lat="44.12403" lon="6.05124">
        <ele>653.59997558594</ele>
        <time>2020-01-30T11:01:42Z</time>
      </trkpt>
      <trkpt lat="44.12395" lon="6.05135">
        <ele>655.20001220703</ele>
        <time>2020-01-30T11:01:54Z</time>
      </trkpt>
      <trkpt lat="44.12394" lon="6.05137">
        <ele>655.40002441406</ele>
        <time>2020-01-30T11:01:56Z</time>
      </trkpt>
      <trkpt lat="44.1239" lon="6.05142">
        <ele>655.79998779297</ele>
        <time>2020-01-30T11:02:01Z</time>
      </trkpt>
      <trkpt lat="44.1238" lon="6.05155">
        <ele>657.40002441406</ele>
        <time>2020-01-30T11:02:16Z</time>
      </trkpt>
      <trkpt lat="44.12367" lon="6.05169">
        <ele>659.20001220703</ele>
        <time>2020-01-30T11:02:34Z</time>
      </trkpt>
      <trkpt lat="44.12365" lon="6.05172">
        <ele>659.59997558594</ele>
        <time>2020-01-30T11:02:37Z</time>
      </trkpt>
      <trkpt lat="44.12363" lon="6.05175">
        <ele>660</ele>
        <time>2020-01-30T11:02:40Z</time>
      </trkpt>
      <trkpt lat="44.12351" lon="6.0519">
        <ele>661.79998779297</ele>
        <time>2020-01-30T11:02:58Z</time>
      </trkpt>
      <trkpt lat="44.1234" lon="6.05203">
        <ele>663.79998779297</ele>
        <time>2020-01-30T11:03:14Z</time>
      </trkpt>
      <trkpt lat="44.12324" lon="6.0522">
        <ele>666</ele>
        <time>2020-01-30T11:03:36Z</time>
      </trkpt>
      <trkpt lat="44.12314" lon="6.05234">
        <ele>667.59997558594</ele>
        <time>2020-01-30T11:03:51Z</time>
      </trkpt>
      <trkpt lat="44.12306" lon="6.05247">
        <ele>668.79998779297</ele>
        <time>2020-01-30T11:04:04Z</time>
      </trkpt>
      <trkpt lat="44.12305" lon="6.05248">
        <ele>669</ele>
        <time>2020-01-30T11:04:05Z</time>
      </trkpt>
      <trkpt lat="44.12291" lon="6.05261">
        <ele>671</ele>
        <time>2020-01-30T11:04:23Z</time>
      </trkpt>
      <trkpt lat="44.12278" lon="6.05275">
        <ele>673.20001220703</ele>
        <time>2020-01-30T11:04:42Z</time>
      </trkpt>
      <trkpt lat="44.1227" lon="6.05283">
        <ele>674.40002441406</ele>
        <time>2020-01-30T11:04:56Z</time>
      </trkpt>
      <trkpt lat="44.1226" lon="6.05295">
        <ele>675.59997558594</ele>
        <time>2020-01-30T11:05:09Z</time>
      </trkpt>
      <trkpt lat="44.12251" lon="6.05306">
        <ele>676.40002441406</ele>
        <time>2020-01-30T11:05:20Z</time>
      </trkpt>
      <trkpt lat="44.12241" lon="6.05318">
        <ele>677.59997558594</ele>
        <time>2020-01-30T11:05:33Z</time>
      </trkpt>
      <trkpt lat="44.12233" lon="6.05327">
        <ele>678.79998779297</ele>
        <time>2020-01-30T11:05:43Z</time>
      </trkpt>
      <trkpt lat="44.1223" lon="6.05336">
        <ele>680.40002441406</ele>
        <time>2020-01-30T11:05:57Z</time>
      </trkpt>
      <trkpt lat="44.12229" lon="6.05336">
        <ele>681</ele>
        <time>2020-01-30T11:06:45Z</time>
      </trkpt>
      <trkpt lat="44.1222" lon="6.05334">
        <ele>681.59997558594</ele>
        <time>2020-01-30T11:07:13Z</time>
      </trkpt>
      <trkpt lat="44.12208" lon="6.0534">
        <ele>684.59997558594</ele>
        <time>2020-01-30T11:07:32Z</time>
      </trkpt>
      <trkpt lat="44.12192" lon="6.05345">
        <ele>688</ele>
        <time>2020-01-30T11:07:52Z</time>
      </trkpt>
      <trkpt lat="44.12179" lon="6.05346">
        <ele>690.40002441406</ele>
        <time>2020-01-30T11:08:12Z</time>
      </trkpt>
      <trkpt lat="44.12168" lon="6.05344">
        <ele>693.40002441406</ele>
        <time>2020-01-30T11:08:28Z</time>
      </trkpt>
      <trkpt lat="44.12158" lon="6.0534">
        <ele>696.59997558594</ele>
        <time>2020-01-30T11:08:51Z</time>
      </trkpt>
      <trkpt lat="44.12165" lon="6.0532">
        <ele>698.79998779297</ele>
        <time>2020-01-30T11:09:10Z</time>
      </trkpt>
      <trkpt lat="44.12171" lon="6.05303">
        <ele>701</ele>
        <time>2020-01-30T11:09:26Z</time>
      </trkpt>
      <trkpt lat="44.12177" lon="6.05284">
        <ele>704</ele>
        <time>2020-01-30T11:09:47Z</time>
      </trkpt>
      <trkpt lat="44.12182" lon="6.05263">
        <ele>707</ele>
        <time>2020-01-30T11:10:10Z</time>
      </trkpt>
      <trkpt lat="44.12186" lon="6.05248">
        <ele>709.59997558594</ele>
        <time>2020-01-30T11:10:27Z</time>
      </trkpt>
      <trkpt lat="44.12188" lon="6.0523">
        <ele>711.40002441406</ele>
        <time>2020-01-30T11:10:43Z</time>
      </trkpt>
      <trkpt lat="44.12184" lon="6.05211">
        <ele>712.79998779297</ele>
        <time>2020-01-30T11:11:02Z</time>
      </trkpt>
      <trkpt lat="44.12191" lon="6.05198">
        <ele>712.79998779297</ele>
        <time>2020-01-30T11:11:19Z</time>
      </trkpt>
      <trkpt lat="44.12198" lon="6.05191">
        <ele>713.40002441406</ele>
        <time>2020-01-30T11:11:27Z</time>
      </trkpt>
      <trkpt lat="44.12208" lon="6.05178">
        <ele>715.59997558594</ele>
        <time>2020-01-30T11:11:45Z</time>
      </trkpt>
      <trkpt lat="44.12216" lon="6.05161">
        <ele>718.20001220703</ele>
        <time>2020-01-30T11:12:04Z</time>
      </trkpt>
      <trkpt lat="44.12218" lon="6.05157">
        <ele>719.20001220703</ele>
        <time>2020-01-30T11:12:09Z</time>
      </trkpt>
      <trkpt lat="44.12219" lon="6.05153">
        <ele>719.59997558594</ele>
        <time>2020-01-30T11:12:12Z</time>
      </trkpt>
      <trkpt lat="44.12231" lon="6.05139">
        <ele>722.20001220703</ele>
        <time>2020-01-30T11:12:32Z</time>
      </trkpt>
      <trkpt lat="44.12237" lon="6.05124">
        <ele>725</ele>
        <time>2020-01-30T11:12:50Z</time>
      </trkpt>
      <trkpt lat="44.12238" lon="6.05124">
        <ele>727</ele>
        <time>2020-01-30T11:13:14Z</time>
      </trkpt>
      <trkpt lat="44.12234" lon="6.05127">
        <ele>726.79998779297</ele>
        <time>2020-01-30T11:14:16Z</time>
      </trkpt>
      <trkpt lat="44.12235" lon="6.05124">
        <ele>726.79998779297</ele>
        <time>2020-01-30T11:15:05Z</time>
      </trkpt>
      <trkpt lat="44.12223" lon="6.05122">
        <ele>727.40002441406</ele>
        <time>2020-01-30T11:15:28Z</time>
      </trkpt>
      <trkpt lat="44.12219" lon="6.05124">
        <ele>728</ele>
        <time>2020-01-30T11:15:34Z</time>
      </trkpt>
      <trkpt lat="44.12217" lon="6.05126">
        <ele>728.20001220703</ele>
        <time>2020-01-30T11:15:36Z</time>
      </trkpt>
      <trkpt lat="44.12202" lon="6.05132">
        <ele>729.59997558594</ele>
        <time>2020-01-30T11:15:55Z</time>
      </trkpt>
      <trkpt lat="44.12188" lon="6.05143">
        <ele>732.59997558594</ele>
        <time>2020-01-30T11:16:17Z</time>
      </trkpt>
      <trkpt lat="44.12168" lon="6.05146">
        <ele>734.20001220703</ele>
        <time>2020-01-30T11:16:43Z</time>
      </trkpt>
      <trkpt lat="44.12172" lon="6.05129">
        <ele>736.79998779297</ele>
        <time>2020-01-30T11:17:03Z</time>
      </trkpt>
      <trkpt lat="44.12188" lon="6.05113">
        <ele>739.20001220703</ele>
        <time>2020-01-30T11:17:24Z</time>
      </trkpt>
      <trkpt lat="44.12195" lon="6.05105">
        <ele>740.40002441406</ele>
        <time>2020-01-30T11:17:33Z</time>
      </trkpt>
      <trkpt lat="44.12208" lon="6.05091">
        <ele>742.20001220703</ele>
        <time>2020-01-30T11:17:50Z</time>
      </trkpt>
      <trkpt lat="44.12219" lon="6.05074">
        <ele>742.79998779297</ele>
        <time>2020-01-30T11:18:06Z</time>
      </trkpt>
      <trkpt lat="44.12226" lon="6.05067">
        <ele>743.20001220703</ele>
        <time>2020-01-30T11:18:21Z</time>
      </trkpt>
      <trkpt lat="44.12231" lon="6.0506">
        <ele>742.79998779297</ele>
        <time>2020-01-30T11:18:41Z</time>
      </trkpt>
      <trkpt lat="44.12243" lon="6.05045">
        <ele>742.79998779297</ele>
        <time>2020-01-30T11:18:59Z</time>
      </trkpt>
      <trkpt lat="44.12248" lon="6.0503">
        <ele>745.20001220703</ele>
        <time>2020-01-30T11:19:15Z</time>
      </trkpt>
      <trkpt lat="44.12252" lon="6.05017">
        <ele>748.20001220703</ele>
        <time>2020-01-30T11:19:34Z</time>
      </trkpt>
      <trkpt lat="44.1225" lon="6.05012">
        <ele>751.40002441406</ele>
        <time>2020-01-30T11:19:50Z</time>
      </trkpt>
      <trkpt lat="44.12239" lon="6.05014">
        <ele>753</ele>
        <time>2020-01-30T11:20:08Z</time>
      </trkpt>
      <trkpt lat="44.12223" lon="6.05021">
        <ele>755</ele>
        <time>2020-01-30T11:20:30Z</time>
      </trkpt>
      <trkpt lat="44.12212" lon="6.05023">
        <ele>758</ele>
        <time>2020-01-30T11:20:47Z</time>
      </trkpt>
      <trkpt lat="44.12194" lon="6.05035">
        <ele>760.20001220703</ele>
        <time>2020-01-30T11:21:10Z</time>
      </trkpt>
      <trkpt lat="44.1218" lon="6.05049">
        <ele>763.20001220703</ele>
        <time>2020-01-30T11:21:32Z</time>
      </trkpt>
      <trkpt lat="44.12172" lon="6.05056">
        <ele>766.20001220703</ele>
        <time>2020-01-30T11:21:50Z</time>
      </trkpt>
      <trkpt lat="44.12164" lon="6.05053">
        <ele>767</ele>
        <time>2020-01-30T11:22:22Z</time>
      </trkpt>
      <trkpt lat="44.12155" lon="6.0506">
        <ele>769.59997558594</ele>
        <time>2020-01-30T11:22:50Z</time>
      </trkpt>
      <trkpt lat="44.12137" lon="6.05066">
        <ele>771</ele>
        <time>2020-01-30T11:23:12Z</time>
      </trkpt>
      <trkpt lat="44.12122" lon="6.05077">
        <ele>773</ele>
        <time>2020-01-30T11:23:32Z</time>
      </trkpt>
      <trkpt lat="44.12115" lon="6.05076">
        <ele>775.79998779297</ele>
        <time>2020-01-30T11:23:53Z</time>
      </trkpt>
      <trkpt lat="44.12118" lon="6.05068">
        <ele>776.20001220703</ele>
        <time>2020-01-30T11:24:18Z</time>
      </trkpt>
      <trkpt lat="44.12126" lon="6.05063">
        <ele>775.59997558594</ele>
        <time>2020-01-30T11:24:35Z</time>
      </trkpt>
      <trkpt lat="44.12129" lon="6.05063">
        <ele>775.59997558594</ele>
        <time>2020-01-30T11:25:26Z</time>
      </trkpt>
      <trkpt lat="44.12134" lon="6.05056">
        <ele>775.79998779297</ele>
        <time>2020-01-30T11:26:18Z</time>
      </trkpt>
      <trkpt lat="44.12141" lon="6.05042">
        <ele>778.20001220703</ele>
        <time>2020-01-30T11:26:40Z</time>
      </trkpt>
      <trkpt lat="44.12139" lon="6.05031">
        <ele>781.40002441406</ele>
        <time>2020-01-30T11:26:58Z</time>
      </trkpt>
      <trkpt lat="44.12128" lon="6.05032">
        <ele>784.40002441406</ele>
        <time>2020-01-30T11:27:16Z</time>
      </trkpt>
      <trkpt lat="44.12116" lon="6.05035">
        <ele>787.40002441406</ele>
        <time>2020-01-30T11:27:34Z</time>
      </trkpt>
      <trkpt lat="44.121" lon="6.0504">
        <ele>790.20001220703</ele>
        <time>2020-01-30T11:27:57Z</time>
      </trkpt>
      <trkpt lat="44.12096" lon="6.05047">
        <ele>792.59997558594</ele>
        <time>2020-01-30T11:28:24Z</time>
      </trkpt>
      <trkpt lat="44.12081" lon="6.05058">
        <ele>793.59997558594</ele>
        <time>2020-01-30T11:28:50Z</time>
      </trkpt>
      <trkpt lat="44.12067" lon="6.05073">
        <ele>796.59997558594</ele>
        <time>2020-01-30T11:29:12Z</time>
      </trkpt>
      <trkpt lat="44.12062" lon="6.05082">
        <ele>797.59997558594</ele>
        <time>2020-01-30T11:29:21Z</time>
      </trkpt>
      <trkpt lat="44.12053" lon="6.05105">
        <ele>800</ele>
        <time>2020-01-30T11:29:42Z</time>
      </trkpt>
      <trkpt lat="44.12048" lon="6.05119">
        <ele>802.20001220703</ele>
        <time>2020-01-30T11:29:56Z</time>
      </trkpt>
      <trkpt lat="44.12038" lon="6.05133">
        <ele>805.20001220703</ele>
        <time>2020-01-30T11:30:15Z</time>
      </trkpt>
      <trkpt lat="44.12024" lon="6.05137">
        <ele>808.20001220703</ele>
        <time>2020-01-30T11:30:36Z</time>
      </trkpt>
      <trkpt lat="44.12004" lon="6.05141">
        <ele>810.59997558594</ele>
        <time>2020-01-30T11:31:00Z</time>
      </trkpt>
      <trkpt lat="44.11988" lon="6.05135">
        <ele>813.79998779297</ele>
        <time>2020-01-30T11:31:19Z</time>
      </trkpt>
      <trkpt lat="44.11985" lon="6.05127">
        <ele>814.79998779297</ele>
        <time>2020-01-30T11:31:44Z</time>
      </trkpt>
      <trkpt lat="44.11984" lon="6.05129">
        <ele>815</ele>
        <time>2020-01-30T11:32:18Z</time>
      </trkpt>
      <trkpt lat="44.11988" lon="6.05117">
        <ele>815.79998779297</ele>
        <time>2020-01-30T11:32:47Z</time>
      </trkpt>
      <trkpt lat="44.11995" lon="6.05115">
        <ele>818.20001220703</ele>
        <time>2020-01-30T11:33:05Z</time>
      </trkpt>
      <trkpt lat="44.12006" lon="6.05109">
        <ele>821.20001220703</ele>
        <time>2020-01-30T11:33:22Z</time>
      </trkpt>
      <trkpt lat="44.12011" lon="6.05095">
        <ele>824.40002441406</ele>
        <time>2020-01-30T11:33:36Z</time>
      </trkpt>
      <trkpt lat="44.12009" lon="6.05086">
        <ele>826.20001220703</ele>
        <time>2020-01-30T11:33:54Z</time>
      </trkpt>
      <trkpt lat="44.11997" lon="6.05075">
        <ele>827.20001220703</ele>
        <time>2020-01-30T11:34:15Z</time>
      </trkpt>
      <trkpt lat="44.11992" lon="6.05072">
        <ele>826.79998779297</ele>
        <time>2020-01-30T11:34:42Z</time>
      </trkpt>
      <trkpt lat="44.11993" lon="6.05074">
        <ele>826.40002441406</ele>
        <time>2020-01-30T11:35:25Z</time>
      </trkpt>
      <trkpt lat="44.12002" lon="6.05077">
        <ele>827.40002441406</ele>
        <time>2020-01-30T11:35:50Z</time>
      </trkpt>
      <trkpt lat="44.12005" lon="6.05075">
        <ele>827.59997558594</ele>
        <time>2020-01-30T11:36:27Z</time>
      </trkpt>
      <trkpt lat="44.12003" lon="6.05076">
        <ele>827.59997558594</ele>
        <time>2020-01-30T11:37:33Z</time>
      </trkpt>
      <trkpt lat="44.12002" lon="6.0508">
        <ele>827.20001220703</ele>
        <time>2020-01-30T11:38:22Z</time>
      </trkpt>
      <trkpt lat="44.12001" lon="6.05076">
        <ele>827.79998779297</ele>
        <time>2020-01-30T11:39:29Z</time>
      </trkpt>
      <trkpt lat="44.12" lon="6.05077">
        <ele>828</ele>
        <time>2020-01-30T11:40:17Z</time>
      </trkpt>
      <trkpt lat="44.12" lon="6.05081">
        <ele>828.20001220703</ele>
        <time>2020-01-30T11:41:06Z</time>
      </trkpt>
      <trkpt lat="44.12001" lon="6.05079">
        <ele>828.20001220703</ele>
        <time>2020-01-30T11:42:06Z</time>
      </trkpt>
      <trkpt lat="44.12001" lon="6.0508">
        <ele>828</ele>
        <time>2020-01-30T11:43:12Z</time>
      </trkpt>
      <trkpt lat="44.12003" lon="6.05072">
        <ele>827.59997558594</ele>
        <time>2020-01-30T11:44:19Z</time>
      </trkpt>
      <trkpt lat="44.12001" lon="6.05079">
        <ele>827.79998779297</ele>
        <time>2020-01-30T11:45:23Z</time>
      </trkpt>
      <trkpt lat="44.12002" lon="6.05079">
        <ele>827.59997558594</ele>
        <time>2020-01-30T11:46:35Z</time>
      </trkpt>
      <trkpt lat="44.12002" lon="6.0508">
        <ele>827.59997558594</ele>
        <time>2020-01-30T11:48:12Z</time>
      </trkpt>
      <trkpt lat="44.12002" lon="6.05078">
        <ele>827.20001220703</ele>
        <time>2020-01-30T11:49:49Z</time>
      </trkpt>
      <trkpt lat="44.12001" lon="6.05082">
        <ele>827</ele>
        <time>2020-01-30T11:51:08Z</time>
      </trkpt>
      <trkpt lat="44.12002" lon="6.05082">
        <ele>827.20001220703</ele>
        <time>2020-01-30T11:52:26Z</time>
      </trkpt>
      <trkpt lat="44.12001" lon="6.05081">
        <ele>827.20001220703</ele>
        <time>2020-01-30T11:53:35Z</time>
      </trkpt>
      <trkpt lat="44.12001" lon="6.0508">
        <ele>827.40002441406</ele>
        <time>2020-01-30T11:54:49Z</time>
      </trkpt>
      <trkpt lat="44.12002" lon="6.0508">
        <ele>827.79998779297</ele>
        <time>2020-01-30T11:56:35Z</time>
      </trkpt>
      <trkpt lat="44.12002" lon="6.05079">
        <ele>827.79998779297</ele>
        <time>2020-01-30T11:58:07Z</time>
      </trkpt>
      <trkpt lat="44.12003" lon="6.05079">
        <ele>827.79998779297</ele>
        <time>2020-01-30T11:59:25Z</time>
      </trkpt>
      <trkpt lat="44.12003" lon="6.0508">
        <ele>828.20001220703</ele>
        <time>2020-01-30T12:00:49Z</time>
      </trkpt>
      <trkpt lat="44.12002" lon="6.05081">
        <ele>828.20001220703</ele>
        <time>2020-01-30T12:01:59Z</time>
      </trkpt>
      <trkpt lat="44.12001" lon="6.05082">
        <ele>828.40002441406</ele>
        <time>2020-01-30T12:03:10Z</time>
      </trkpt>
      <trkpt lat="44.12001" lon="6.05082">
        <ele>828.59997558594</ele>
        <time>2020-01-30T12:04:36Z</time>
      </trkpt>
      <trkpt lat="44.12003" lon="6.05083">
        <ele>828.79998779297</ele>
        <time>2020-01-30T12:06:18Z</time>
      </trkpt>
      <trkpt lat="44.12002" lon="6.05081">
        <ele>829</ele>
        <time>2020-01-30T12:07:39Z</time>
      </trkpt>
      <trkpt lat="44.12001" lon="6.05083">
        <ele>829</ele>
        <time>2020-01-30T12:09:10Z</time>
      </trkpt>
      <trkpt lat="44.12002" lon="6.05082">
        <ele>829.20001220703</ele>
        <time>2020-01-30T12:10:35Z</time>
      </trkpt>
      <trkpt lat="44.12004" lon="6.0508">
        <ele>829.40002441406</ele>
        <time>2020-01-30T12:11:56Z</time>
      </trkpt>
      <trkpt lat="44.12" lon="6.05081">
        <ele>829.79998779297</ele>
        <time>2020-01-30T12:13:15Z</time>
      </trkpt>
      <trkpt lat="44.12002" lon="6.05081">
        <ele>830</ele>
        <time>2020-01-30T12:14:16Z</time>
      </trkpt>
      <trkpt lat="44.12003" lon="6.05082">
        <ele>830.40002441406</ele>
        <time>2020-01-30T12:17:03Z</time>
      </trkpt>
      <trkpt lat="44.12003" lon="6.05079">
        <ele>830.40002441406</ele>
        <time>2020-01-30T12:20:57Z</time>
      </trkpt>
      <trkpt lat="44.12003" lon="6.05079">
        <ele>830.79998779297</ele>
        <time>2020-01-30T12:22:22Z</time>
      </trkpt>
      <trkpt lat="44.12004" lon="6.0508">
        <ele>830.79998779297</ele>
        <time>2020-01-30T12:25:09Z</time>
      </trkpt>
      <trkpt lat="44.12004" lon="6.05082">
        <ele>831</ele>
        <time>2020-01-30T12:27:27Z</time>
      </trkpt>
      <trkpt lat="44.12005" lon="6.05083">
        <ele>831.40002441406</ele>
        <time>2020-01-30T12:30:26Z</time>
      </trkpt>
      <trkpt lat="44.12003" lon="6.05082">
        <ele>831.40002441406</ele>
        <time>2020-01-30T12:32:31Z</time>
      </trkpt>
      <trkpt lat="44.12004" lon="6.05081">
        <ele>831</ele>
        <time>2020-01-30T12:34:06Z</time>
      </trkpt>
      <trkpt lat="44.12003" lon="6.05081">
        <ele>831.20001220703</ele>
        <time>2020-01-30T12:37:54Z</time>
      </trkpt>
      <trkpt lat="44.12003" lon="6.05083">
        <ele>831</ele>
        <time>2020-01-30T12:38:57Z</time>
      </trkpt>
      <trkpt lat="44.12002" lon="6.05081">
        <ele>832.20001220703</ele>
        <time>2020-01-30T12:40:14Z</time>
      </trkpt>
      <trkpt lat="44.12003" lon="6.05083">
        <ele>831.79998779297</ele>
        <time>2020-01-30T12:41:13Z</time>
      </trkpt>
      <trkpt lat="44.11995" lon="6.05079">
        <ele>831.79998779297</ele>
        <time>2020-01-30T12:41:57Z</time>
      </trkpt>
      <trkpt lat="44.1199" lon="6.05082">
        <ele>831</ele>
        <time>2020-01-30T12:42:12Z</time>
      </trkpt>
      <trkpt lat="44.11987" lon="6.05086">
        <ele>829</ele>
        <time>2020-01-30T12:42:34Z</time>
      </trkpt>
      <trkpt lat="44.11983" lon="6.05087">
        <ele>827.40002441406</ele>
        <time>2020-01-30T12:42:52Z</time>
      </trkpt>
      <trkpt lat="44.11987" lon="6.051">
        <ele>826.79998779297</ele>
        <time>2020-01-30T12:43:38Z</time>
      </trkpt>
      <trkpt lat="44.11987" lon="6.05118">
        <ele>824.79998779297</ele>
        <time>2020-01-30T12:43:57Z</time>
      </trkpt>
      <trkpt lat="44.11983" lon="6.05129">
        <ele>823</ele>
        <time>2020-01-30T12:44:09Z</time>
      </trkpt>
      <trkpt lat="44.11978" lon="6.05139">
        <ele>821.20001220703</ele>
        <time>2020-01-30T12:44:19Z</time>
      </trkpt>
      <trkpt lat="44.11964" lon="6.05155">
        <ele>819</ele>
        <time>2020-01-30T12:44:36Z</time>
      </trkpt>
      <trkpt lat="44.11954" lon="6.05166">
        <ele>820.59997558594</ele>
        <time>2020-01-30T12:44:52Z</time>
      </trkpt>
      <trkpt lat="44.11948" lon="6.05172">
        <ele>823.59997558594</ele>
        <time>2020-01-30T12:45:07Z</time>
      </trkpt>
      <trkpt lat="44.11941" lon="6.05177">
        <ele>826.59997558594</ele>
        <time>2020-01-30T12:45:26Z</time>
      </trkpt>
      <trkpt lat="44.11934" lon="6.05186">
        <ele>829</ele>
        <time>2020-01-30T12:45:49Z</time>
      </trkpt>
      <trkpt lat="44.11923" lon="6.052">
        <ele>831.20001220703</ele>
        <time>2020-01-30T12:46:07Z</time>
      </trkpt>
      <trkpt lat="44.11915" lon="6.05213">
        <ele>832</ele>
        <time>2020-01-30T12:46:22Z</time>
      </trkpt>
      <trkpt lat="44.11906" lon="6.05224">
        <ele>832.79998779297</ele>
        <time>2020-01-30T12:46:36Z</time>
      </trkpt>
      <trkpt lat="44.11896" lon="6.05235">
        <ele>835</ele>
        <time>2020-01-30T12:46:54Z</time>
      </trkpt>
      <trkpt lat="44.1189" lon="6.05245">
        <ele>837.20001220703</ele>
        <time>2020-01-30T12:47:06Z</time>
      </trkpt>
      <trkpt lat="44.11886" lon="6.05254">
        <ele>838.20001220703</ele>
        <time>2020-01-30T12:47:14Z</time>
      </trkpt>
      <trkpt lat="44.11884" lon="6.05275">
        <ele>837.79998779297</ele>
        <time>2020-01-30T12:47:33Z</time>
      </trkpt>
      <trkpt lat="44.11885" lon="6.05294">
        <ele>835.79998779297</ele>
        <time>2020-01-30T12:47:48Z</time>
      </trkpt>
      <trkpt lat="44.11886" lon="6.05316">
        <ele>834.40002441406</ele>
        <time>2020-01-30T12:48:06Z</time>
      </trkpt>
      <trkpt lat="44.11884" lon="6.05333">
        <ele>834</ele>
        <time>2020-01-30T12:48:21Z</time>
      </trkpt>
      <trkpt lat="44.11883" lon="6.05343">
        <ele>833.20001220703</ele>
        <time>2020-01-30T12:48:31Z</time>
      </trkpt>
      <trkpt lat="44.11882" lon="6.05345">
        <ele>833.20001220703</ele>
        <time>2020-01-30T12:48:33Z</time>
      </trkpt>
      <trkpt lat="44.11878" lon="6.05367">
        <ele>831</ele>
        <time>2020-01-30T12:48:51Z</time>
      </trkpt>
      <trkpt lat="44.11877" lon="6.05368">
        <ele>831</ele>
        <time>2020-01-30T12:48:52Z</time>
      </trkpt>
      <trkpt lat="44.11867" lon="6.05378">
        <ele>830.79998779297</ele>
        <time>2020-01-30T12:49:05Z</time>
      </trkpt>
      <trkpt lat="44.11853" lon="6.05389">
        <ele>832.20001220703</ele>
        <time>2020-01-30T12:49:24Z</time>
      </trkpt>
      <trkpt lat="44.11841" lon="6.05395">
        <ele>835.40002441406</ele>
        <time>2020-01-30T12:49:43Z</time>
      </trkpt>
      <trkpt lat="44.11836" lon="6.05398">
        <ele>836.59997558594</ele>
        <time>2020-01-30T12:49:50Z</time>
      </trkpt>
      <trkpt lat="44.11837" lon="6.05408">
        <ele>838</ele>
        <time>2020-01-30T12:50:05Z</time>
      </trkpt>
      <trkpt lat="44.11843" lon="6.05419">
        <ele>840.79998779297</ele>
        <time>2020-01-30T12:50:24Z</time>
      </trkpt>
      <trkpt lat="44.11836" lon="6.0542">
        <ele>841.79998779297</ele>
        <time>2020-01-30T12:50:33Z</time>
      </trkpt>
      <trkpt lat="44.11825" lon="6.05423">
        <ele>842.59997558594</ele>
        <time>2020-01-30T12:50:49Z</time>
      </trkpt>
      <trkpt lat="44.11815" lon="6.05426">
        <ele>845.59997558594</ele>
        <time>2020-01-30T12:51:08Z</time>
      </trkpt>
      <trkpt lat="44.11804" lon="6.0543">
        <ele>848.79998779297</ele>
        <time>2020-01-30T12:51:25Z</time>
      </trkpt>
      <trkpt lat="44.11804" lon="6.05439">
        <ele>850.79998779297</ele>
        <time>2020-01-30T12:51:46Z</time>
      </trkpt>
      <trkpt lat="44.11817" lon="6.05443">
        <ele>852</ele>
        <time>2020-01-30T12:52:02Z</time>
      </trkpt>
      <trkpt lat="44.11828" lon="6.05455">
        <ele>853.79998779297</ele>
        <time>2020-01-30T12:52:23Z</time>
      </trkpt>
      <trkpt lat="44.11829" lon="6.0547">
        <ele>856.40002441406</ele>
        <time>2020-01-30T12:52:40Z</time>
      </trkpt>
      <trkpt lat="44.11825" lon="6.05472">
        <ele>856.79998779297</ele>
        <time>2020-01-30T12:52:45Z</time>
      </trkpt>
      <trkpt lat="44.11818" lon="6.05474">
        <ele>857.40002441406</ele>
        <time>2020-01-30T12:52:54Z</time>
      </trkpt>
      <trkpt lat="44.11806" lon="6.05472">
        <ele>857.79998779297</ele>
        <time>2020-01-30T12:53:07Z</time>
      </trkpt>
      <trkpt lat="44.11804" lon="6.05471">
        <ele>858</ele>
        <time>2020-01-30T12:53:09Z</time>
      </trkpt>
      <trkpt lat="44.118" lon="6.05469">
        <ele>858.20001220703</ele>
        <time>2020-01-30T12:53:13Z</time>
      </trkpt>
      <trkpt lat="44.11786" lon="6.0547">
        <ele>860</ele>
        <time>2020-01-30T12:53:30Z</time>
      </trkpt>
      <trkpt lat="44.11775" lon="6.05478">
        <ele>862.20001220703</ele>
        <time>2020-01-30T12:53:46Z</time>
      </trkpt>
      <trkpt lat="44.11769" lon="6.0548">
        <ele>863.59997558594</ele>
        <time>2020-01-30T12:53:56Z</time>
      </trkpt>
      <trkpt lat="44.11765" lon="6.0548">
        <ele>863.79998779297</ele>
        <time>2020-01-30T12:54:00Z</time>
      </trkpt>
      <trkpt lat="44.11757" lon="6.05475">
        <ele>864.20001220703</ele>
        <time>2020-01-30T12:54:09Z</time>
      </trkpt>
      <trkpt lat="44.11747" lon="6.0547">
        <ele>866.40002441406</ele>
        <time>2020-01-30T12:54:23Z</time>
      </trkpt>
      <trkpt lat="44.1173" lon="6.05464">
        <ele>868.20001220703</ele>
        <time>2020-01-30T12:54:41Z</time>
      </trkpt>
      <trkpt lat="44.11726" lon="6.05464">
        <ele>869.59997558594</ele>
        <time>2020-01-30T12:54:59Z</time>
      </trkpt>
      <trkpt lat="44.1172" lon="6.05462">
        <ele>870</ele>
        <time>2020-01-30T12:55:45Z</time>
      </trkpt>
      <trkpt lat="44.11702" lon="6.05465">
        <ele>872</ele>
        <time>2020-01-30T12:56:04Z</time>
      </trkpt>
      <trkpt lat="44.11689" lon="6.05466">
        <ele>874.40002441406</ele>
        <time>2020-01-30T12:56:21Z</time>
      </trkpt>
      <trkpt lat="44.11676" lon="6.05464">
        <ele>876.59997558594</ele>
        <time>2020-01-30T12:56:38Z</time>
      </trkpt>
      <trkpt lat="44.11664" lon="6.05462">
        <ele>878.59997558594</ele>
        <time>2020-01-30T12:57:00Z</time>
      </trkpt>
      <trkpt lat="44.11663" lon="6.0546">
        <ele>879.20001220703</ele>
        <time>2020-01-30T12:57:35Z</time>
      </trkpt>
      <trkpt lat="44.1166" lon="6.05456">
        <ele>878.59997558594</ele>
        <time>2020-01-30T12:58:01Z</time>
      </trkpt>
      <trkpt lat="44.11656" lon="6.05447">
        <ele>876</ele>
        <time>2020-01-30T12:58:19Z</time>
      </trkpt>
      <trkpt lat="44.11656" lon="6.05446">
        <ele>876</ele>
        <time>2020-01-30T12:58:50Z</time>
      </trkpt>
      <trkpt lat="44.1165" lon="6.05433">
        <ele>874.40002441406</ele>
        <time>2020-01-30T12:59:06Z</time>
      </trkpt>
      <trkpt lat="44.11645" lon="6.0542">
        <ele>871.20001220703</ele>
        <time>2020-01-30T12:59:23Z</time>
      </trkpt>
      <trkpt lat="44.11641" lon="6.05412">
        <ele>868</ele>
        <time>2020-01-30T12:59:40Z</time>
      </trkpt>
      <trkpt lat="44.11635" lon="6.05396">
        <ele>866.40002441406</ele>
        <time>2020-01-30T12:59:57Z</time>
      </trkpt>
      <trkpt lat="44.11632" lon="6.05375">
        <ele>863.20001220703</ele>
        <time>2020-01-30T13:00:17Z</time>
      </trkpt>
      <trkpt lat="44.11627" lon="6.05357">
        <ele>860.59997558594</ele>
        <time>2020-01-30T13:00:33Z</time>
      </trkpt>
      <trkpt lat="44.11622" lon="6.05341">
        <ele>857.59997558594</ele>
        <time>2020-01-30T13:00:49Z</time>
      </trkpt>
      <trkpt lat="44.11616" lon="6.05324">
        <ele>854.40002441406</ele>
        <time>2020-01-30T13:01:07Z</time>
      </trkpt>
      <trkpt lat="44.11613" lon="6.05309">
        <ele>851.40002441406</ele>
        <time>2020-01-30T13:01:23Z</time>
      </trkpt>
      <trkpt lat="44.11609" lon="6.05288">
        <ele>848.79998779297</ele>
        <time>2020-01-30T13:01:40Z</time>
      </trkpt>
      <trkpt lat="44.11606" lon="6.05267">
        <ele>846.40002441406</ele>
        <time>2020-01-30T13:01:56Z</time>
      </trkpt>
      <trkpt lat="44.11603" lon="6.05246">
        <ele>844.40002441406</ele>
        <time>2020-01-30T13:02:12Z</time>
      </trkpt>
      <trkpt lat="44.11602" lon="6.05229">
        <ele>842.40002441406</ele>
        <time>2020-01-30T13:02:27Z</time>
      </trkpt>
      <trkpt lat="44.11601" lon="6.05211">
        <ele>839.20001220703</ele>
        <time>2020-01-30T13:02:44Z</time>
      </trkpt>
      <trkpt lat="44.11602" lon="6.05196">
        <ele>836.40002441406</ele>
        <time>2020-01-30T13:02:58Z</time>
      </trkpt>
      <trkpt lat="44.11599" lon="6.05178">
        <ele>833.40002441406</ele>
        <time>2020-01-30T13:03:14Z</time>
      </trkpt>
      <trkpt lat="44.11599" lon="6.05177">
        <ele>833.20001220703</ele>
        <time>2020-01-30T13:03:15Z</time>
      </trkpt>
      <trkpt lat="44.11593" lon="6.05166">
        <ele>830.59997558594</ele>
        <time>2020-01-30T13:03:28Z</time>
      </trkpt>
      <trkpt lat="44.11587" lon="6.05154">
        <ele>828.20001220703</ele>
        <time>2020-01-30T13:03:43Z</time>
      </trkpt>
      <trkpt lat="44.11578" lon="6.05142">
        <ele>826.20001220703</ele>
        <time>2020-01-30T13:03:58Z</time>
      </trkpt>
      <trkpt lat="44.11573" lon="6.05129">
        <ele>825</ele>
        <time>2020-01-30T13:04:15Z</time>
      </trkpt>
      <trkpt lat="44.11569" lon="6.05119">
        <ele>823.40002441406</ele>
        <time>2020-01-30T13:04:32Z</time>
      </trkpt>
      <trkpt lat="44.11563" lon="6.05108">
        <ele>822.20001220703</ele>
        <time>2020-01-30T13:04:49Z</time>
      </trkpt>
      <trkpt lat="44.11561" lon="6.05092">
        <ele>820.20001220703</ele>
        <time>2020-01-30T13:05:07Z</time>
      </trkpt>
      <trkpt lat="44.11555" lon="6.05085">
        <ele>818.59997558594</ele>
        <time>2020-01-30T13:05:27Z</time>
      </trkpt>
      <trkpt lat="44.1155" lon="6.05073">
        <ele>818</ele>
        <time>2020-01-30T13:05:41Z</time>
      </trkpt>
      <trkpt lat="44.11546" lon="6.05058">
        <ele>817.59997558594</ele>
        <time>2020-01-30T13:05:55Z</time>
      </trkpt>
      <trkpt lat="44.11547" lon="6.05054">
        <ele>817.59997558594</ele>
        <time>2020-01-30T13:05:59Z</time>
      </trkpt>
      <trkpt lat="44.11547" lon="6.05048">
        <ele>817.20001220703</ele>
        <time>2020-01-30T13:06:03Z</time>
      </trkpt>
      <trkpt lat="44.1154" lon="6.05022">
        <ele>815</ele>
        <time>2020-01-30T13:06:19Z</time>
      </trkpt>
      <trkpt lat="44.11539" lon="6.05016">
        <ele>814.79998779297</ele>
        <time>2020-01-30T13:06:23Z</time>
      </trkpt>
      <trkpt lat="44.1154" lon="6.04994">
        <ele>813.79998779297</ele>
        <time>2020-01-30T13:06:37Z</time>
      </trkpt>
      <trkpt lat="44.11539" lon="6.04984">
        <ele>813</ele>
        <time>2020-01-30T13:06:43Z</time>
      </trkpt>
      <trkpt lat="44.11539" lon="6.04975">
        <ele>812.40002441406</ele>
        <time>2020-01-30T13:06:48Z</time>
      </trkpt>
      <trkpt lat="44.11543" lon="6.04946">
        <ele>809.20001220703</ele>
        <time>2020-01-30T13:07:05Z</time>
      </trkpt>
      <trkpt lat="44.11547" lon="6.04922">
        <ele>807.40002441406</ele>
        <time>2020-01-30T13:07:19Z</time>
      </trkpt>
      <trkpt lat="44.11545" lon="6.049">
        <ele>807</ele>
        <time>2020-01-30T13:07:33Z</time>
      </trkpt>
      <trkpt lat="44.11538" lon="6.04878">
        <ele>805.79998779297</ele>
        <time>2020-01-30T13:07:48Z</time>
      </trkpt>
      <trkpt lat="44.11534" lon="6.04858">
        <ele>804.59997558594</ele>
        <time>2020-01-30T13:08:01Z</time>
      </trkpt>
      <trkpt lat="44.11537" lon="6.04833">
        <ele>803.20001220703</ele>
        <time>2020-01-30T13:08:16Z</time>
      </trkpt>
      <trkpt lat="44.11539" lon="6.04812">
        <ele>803.59997558594</ele>
        <time>2020-01-30T13:08:29Z</time>
      </trkpt>
      <trkpt lat="44.11541" lon="6.04797">
        <ele>803.59997558594</ele>
        <time>2020-01-30T13:08:38Z</time>
      </trkpt>
      <trkpt lat="44.11541" lon="6.04775">
        <ele>803.40002441406</ele>
        <time>2020-01-30T13:08:53Z</time>
      </trkpt>
      <trkpt lat="44.11541" lon="6.04769">
        <ele>803.59997558594</ele>
        <time>2020-01-30T13:08:57Z</time>
      </trkpt>
      <trkpt lat="44.1154" lon="6.04754">
        <ele>804.20001220703</ele>
        <time>2020-01-30T13:09:07Z</time>
      </trkpt>
      <trkpt lat="44.11541" lon="6.04735">
        <ele>804.59997558594</ele>
        <time>2020-01-30T13:09:20Z</time>
      </trkpt>
      <trkpt lat="44.11545" lon="6.04735">
        <ele>804.79998779297</ele>
        <time>2020-01-30T13:09:46Z</time>
      </trkpt>
      <trkpt lat="44.11547" lon="6.04729">
        <ele>804</ele>
        <time>2020-01-30T13:10:14Z</time>
      </trkpt>
      <trkpt lat="44.11542" lon="6.04732">
        <ele>804.59997558594</ele>
        <time>2020-01-30T13:10:41Z</time>
      </trkpt>
      <trkpt lat="44.11538" lon="6.04719">
        <ele>806.20001220703</ele>
        <time>2020-01-30T13:10:57Z</time>
      </trkpt>
      <trkpt lat="44.11537" lon="6.04706">
        <ele>807.20001220703</ele>
        <time>2020-01-30T13:11:09Z</time>
      </trkpt>
      <trkpt lat="44.11536" lon="6.04702">
        <ele>807.40002441406</ele>
        <time>2020-01-30T13:11:12Z</time>
      </trkpt>
      <trkpt lat="44.11529" lon="6.04682">
        <ele>807.59997558594</ele>
        <time>2020-01-30T13:11:28Z</time>
      </trkpt>
      <trkpt lat="44.1153" lon="6.04677">
        <ele>807.59997558594</ele>
        <time>2020-01-30T13:11:33Z</time>
      </trkpt>
      <trkpt lat="44.11532" lon="6.04668">
        <ele>808</ele>
        <time>2020-01-30T13:11:51Z</time>
      </trkpt>
      <trkpt lat="44.11529" lon="6.04656">
        <ele>808</ele>
        <time>2020-01-30T13:12:01Z</time>
      </trkpt>
      <trkpt lat="44.11529" lon="6.04637">
        <ele>808.40002441406</ele>
        <time>2020-01-30T13:12:16Z</time>
      </trkpt>
      <trkpt lat="44.11527" lon="6.04621">
        <ele>808.79998779297</ele>
        <time>2020-01-30T13:12:29Z</time>
      </trkpt>
      <trkpt lat="44.11528" lon="6.04603">
        <ele>809.79998779297</ele>
        <time>2020-01-30T13:12:43Z</time>
      </trkpt>
      <trkpt lat="44.11534" lon="6.04591">
        <ele>810.79998779297</ele>
        <time>2020-01-30T13:12:58Z</time>
      </trkpt>
      <trkpt lat="44.11546" lon="6.04575">
        <ele>808.59997558594</ele>
        <time>2020-01-30T13:13:14Z</time>
      </trkpt>
      <trkpt lat="44.11544" lon="6.0456">
        <ele>809.59997558594</ele>
        <time>2020-01-30T13:13:27Z</time>
      </trkpt>
      <trkpt lat="44.1154" lon="6.0455">
        <ele>808.79998779297</ele>
        <time>2020-01-30T13:13:41Z</time>
      </trkpt>
      <trkpt lat="44.11532" lon="6.0454">
        <ele>805.59997558594</ele>
        <time>2020-01-30T13:13:54Z</time>
      </trkpt>
      <trkpt lat="44.11527" lon="6.04535">
        <ele>802.59997558594</ele>
        <time>2020-01-30T13:14:05Z</time>
      </trkpt>
      <trkpt lat="44.11521" lon="6.04526">
        <ele>799.40002441406</ele>
        <time>2020-01-30T13:14:19Z</time>
      </trkpt>
      <trkpt lat="44.11515" lon="6.04516">
        <ele>796.40002441406</ele>
        <time>2020-01-30T13:14:32Z</time>
      </trkpt>
      <trkpt lat="44.11509" lon="6.04509">
        <ele>793</ele>
        <time>2020-01-30T13:14:46Z</time>
      </trkpt>
      <trkpt lat="44.11505" lon="6.04504">
        <ele>790</ele>
        <time>2020-01-30T13:14:58Z</time>
      </trkpt>
      <trkpt lat="44.11499" lon="6.04493">
        <ele>787</ele>
        <time>2020-01-30T13:15:14Z</time>
      </trkpt>
      <trkpt lat="44.11491" lon="6.04487">
        <ele>783.59997558594</ele>
        <time>2020-01-30T13:15:27Z</time>
      </trkpt>
      <trkpt lat="44.11486" lon="6.0448">
        <ele>780.59997558594</ele>
        <time>2020-01-30T13:15:39Z</time>
      </trkpt>
      <trkpt lat="44.11479" lon="6.0447">
        <ele>777.40002441406</ele>
        <time>2020-01-30T13:15:53Z</time>
      </trkpt>
      <trkpt lat="44.11473" lon="6.0446">
        <ele>774.20001220703</ele>
        <time>2020-01-30T13:16:08Z</time>
      </trkpt>
      <trkpt lat="44.11465" lon="6.0445">
        <ele>771.79998779297</ele>
        <time>2020-01-30T13:16:24Z</time>
      </trkpt>
      <trkpt lat="44.11463" lon="6.0445">
        <ele>770</ele>
        <time>2020-01-30T13:16:44Z</time>
      </trkpt>
      <trkpt lat="44.11464" lon="6.04445">
        <ele>769.59997558594</ele>
        <time>2020-01-30T13:17:02Z</time>
      </trkpt>
      <trkpt lat="44.11464" lon="6.04443">
        <ele>769.40002441406</ele>
        <time>2020-01-30T13:17:17Z</time>
      </trkpt>
      <trkpt lat="44.11464" lon="6.04444">
        <ele>769</ele>
        <time>2020-01-30T13:18:06Z</time>
      </trkpt>
      <trkpt lat="44.11462" lon="6.04443">
        <ele>769</ele>
        <time>2020-01-30T13:18:47Z</time>
      </trkpt>
      <trkpt lat="44.11458" lon="6.04433">
        <ele>768.79998779297</ele>
        <time>2020-01-30T13:19:07Z</time>
      </trkpt>
      <trkpt lat="44.11456" lon="6.04414">
        <ele>768.20001220703</ele>
        <time>2020-01-30T13:19:25Z</time>
      </trkpt>
      <trkpt lat="44.1145" lon="6.04394">
        <ele>767.20001220703</ele>
        <time>2020-01-30T13:19:43Z</time>
      </trkpt>
      <trkpt lat="44.11445" lon="6.04374">
        <ele>766.79998779297</ele>
        <time>2020-01-30T13:19:57Z</time>
      </trkpt>
      <trkpt lat="44.1144" lon="6.04361">
        <ele>766.79998779297</ele>
        <time>2020-01-30T13:20:08Z</time>
      </trkpt>
      <trkpt lat="44.11433" lon="6.04349">
        <ele>767</ele>
        <time>2020-01-30T13:20:21Z</time>
      </trkpt>
      <trkpt lat="44.11427" lon="6.04332">
        <ele>766.40002441406</ele>
        <time>2020-01-30T13:20:36Z</time>
      </trkpt>
      <trkpt lat="44.11419" lon="6.04317">
        <ele>766.79998779297</ele>
        <time>2020-01-30T13:20:50Z</time>
      </trkpt>
      <trkpt lat="44.11412" lon="6.04304">
        <ele>767.79998779297</ele>
        <time>2020-01-30T13:21:01Z</time>
      </trkpt>
      <trkpt lat="44.114" lon="6.04291">
        <ele>767.20001220703</ele>
        <time>2020-01-30T13:21:17Z</time>
      </trkpt>
      <trkpt lat="44.11392" lon="6.04279">
        <ele>766.79998779297</ele>
        <time>2020-01-30T13:21:31Z</time>
      </trkpt>
      <trkpt lat="44.11383" lon="6.04267">
        <ele>767.40002441406</ele>
        <time>2020-01-30T13:21:48Z</time>
      </trkpt>
      <trkpt lat="44.11377" lon="6.0426">
        <ele>768.20001220703</ele>
        <time>2020-01-30T13:22:11Z</time>
      </trkpt>
      <trkpt lat="44.1137" lon="6.04248">
        <ele>769.40002441406</ele>
        <time>2020-01-30T13:22:24Z</time>
      </trkpt>
      <trkpt lat="44.11362" lon="6.04235">
        <ele>770.20001220703</ele>
        <time>2020-01-30T13:22:38Z</time>
      </trkpt>
      <trkpt lat="44.11356" lon="6.04226">
        <ele>770</ele>
        <time>2020-01-30T13:22:56Z</time>
      </trkpt>
      <trkpt lat="44.11356" lon="6.04221">
        <ele>769.59997558594</ele>
        <time>2020-01-30T13:23:17Z</time>
      </trkpt>
      <trkpt lat="44.11356" lon="6.04211">
        <ele>769.40002441406</ele>
        <time>2020-01-30T13:23:30Z</time>
      </trkpt>
      <trkpt lat="44.1135" lon="6.042">
        <ele>768.40002441406</ele>
        <time>2020-01-30T13:23:48Z</time>
      </trkpt>
      <trkpt lat="44.11339" lon="6.04189">
        <ele>765.20001220703</ele>
        <time>2020-01-30T13:24:06Z</time>
      </trkpt>
      <trkpt lat="44.11331" lon="6.04183">
        <ele>762.40002441406</ele>
        <time>2020-01-30T13:24:23Z</time>
      </trkpt>
      <trkpt lat="44.11319" lon="6.04174">
        <ele>759.20001220703</ele>
        <time>2020-01-30T13:24:40Z</time>
      </trkpt>
      <trkpt lat="44.1131" lon="6.04166">
        <ele>756</ele>
        <time>2020-01-30T13:24:55Z</time>
      </trkpt>
      <trkpt lat="44.11303" lon="6.04156">
        <ele>753.79998779297</ele>
        <time>2020-01-30T13:25:07Z</time>
      </trkpt>
      <trkpt lat="44.11294" lon="6.04146">
        <ele>750.20001220703</ele>
        <time>2020-01-30T13:25:23Z</time>
      </trkpt>
      <trkpt lat="44.11285" lon="6.04135">
        <ele>747</ele>
        <time>2020-01-30T13:25:40Z</time>
      </trkpt>
      <trkpt lat="44.11276" lon="6.04125">
        <ele>744.40002441406</ele>
        <time>2020-01-30T13:25:54Z</time>
      </trkpt>
      <trkpt lat="44.11266" lon="6.04113">
        <ele>741.20001220703</ele>
        <time>2020-01-30T13:26:11Z</time>
      </trkpt>
      <trkpt lat="44.11257" lon="6.04102">
        <ele>738.20001220703</ele>
        <time>2020-01-30T13:26:27Z</time>
      </trkpt>
      <trkpt lat="44.11245" lon="6.04089">
        <ele>735</ele>
        <time>2020-01-30T13:26:45Z</time>
      </trkpt>
      <trkpt lat="44.11235" lon="6.04077">
        <ele>731.79998779297</ele>
        <time>2020-01-30T13:26:59Z</time>
      </trkpt>
      <trkpt lat="44.11225" lon="6.04063">
        <ele>729</ele>
        <time>2020-01-30T13:27:15Z</time>
      </trkpt>
      <trkpt lat="44.11218" lon="6.04056">
        <ele>727.59997558594</ele>
        <time>2020-01-30T13:27:24Z</time>
      </trkpt>
      <trkpt lat="44.11211" lon="6.0404">
        <ele>726.20001220703</ele>
        <time>2020-01-30T13:27:35Z</time>
      </trkpt>
      <trkpt lat="44.11207" lon="6.04029">
        <ele>726</ele>
        <time>2020-01-30T13:27:43Z</time>
      </trkpt>
      <trkpt lat="44.112" lon="6.04009">
        <ele>725</ele>
        <time>2020-01-30T13:28:00Z</time>
      </trkpt>
      <trkpt lat="44.11192" lon="6.03987">
        <ele>725</ele>
        <time>2020-01-30T13:28:17Z</time>
      </trkpt>
      <trkpt lat="44.11181" lon="6.03964">
        <ele>724.59997558594</ele>
        <time>2020-01-30T13:28:33Z</time>
      </trkpt>
      <trkpt lat="44.11173" lon="6.03943">
        <ele>723</ele>
        <time>2020-01-30T13:28:49Z</time>
      </trkpt>
      <trkpt lat="44.11165" lon="6.03929">
        <ele>721.79998779297</ele>
        <time>2020-01-30T13:29:03Z</time>
      </trkpt>
      <trkpt lat="44.11158" lon="6.03917">
        <ele>719.79998779297</ele>
        <time>2020-01-30T13:29:24Z</time>
      </trkpt>
      <trkpt lat="44.11161" lon="6.03916">
        <ele>719.20001220703</ele>
        <time>2020-01-30T13:30:16Z</time>
      </trkpt>
      <trkpt lat="44.1116" lon="6.03916">
        <ele>719.20001220703</ele>
        <time>2020-01-30T13:31:27Z</time>
      </trkpt>
      <trkpt lat="44.1116" lon="6.03917">
        <ele>718.79998779297</ele>
        <time>2020-01-30T13:33:18Z</time>
      </trkpt>
      <trkpt lat="44.11159" lon="6.03919">
        <ele>718.40002441406</ele>
        <time>2020-01-30T13:34:39Z</time>
      </trkpt>
      <trkpt lat="44.1116" lon="6.03909">
        <ele>717.79998779297</ele>
        <time>2020-01-30T13:34:58Z</time>
      </trkpt>
      <trkpt lat="44.1116" lon="6.03891">
        <ele>714.59997558594</ele>
        <time>2020-01-30T13:35:12Z</time>
      </trkpt>
      <trkpt lat="44.11157" lon="6.03879">
        <ele>711.79998779297</ele>
        <time>2020-01-30T13:35:21Z</time>
      </trkpt>
      <trkpt lat="44.1115" lon="6.03861">
        <ele>710</ele>
        <time>2020-01-30T13:35:34Z</time>
      </trkpt>
      <trkpt lat="44.11142" lon="6.03842">
        <ele>709.20001220703</ele>
        <time>2020-01-30T13:35:47Z</time>
      </trkpt>
      <trkpt lat="44.1113" lon="6.03821">
        <ele>708.40002441406</ele>
        <time>2020-01-30T13:36:02Z</time>
      </trkpt>
      <trkpt lat="44.11121" lon="6.03808">
        <ele>708.20001220703</ele>
        <time>2020-01-30T13:36:13Z</time>
      </trkpt>
      <trkpt lat="44.11116" lon="6.03798">
        <ele>708.79998779297</ele>
        <time>2020-01-30T13:36:21Z</time>
      </trkpt>
      <trkpt lat="44.11111" lon="6.03789">
        <ele>709.79998779297</ele>
        <time>2020-01-30T13:36:29Z</time>
      </trkpt>
      <trkpt lat="44.11105" lon="6.03773">
        <ele>710.79998779297</ele>
        <time>2020-01-30T13:36:43Z</time>
      </trkpt>
      <trkpt lat="44.11097" lon="6.03756">
        <ele>710.40002441406</ele>
        <time>2020-01-30T13:36:59Z</time>
      </trkpt>
      <trkpt lat="44.11095" lon="6.03751">
        <ele>709.59997558594</ele>
        <time>2020-01-30T13:37:24Z</time>
      </trkpt>
      <trkpt lat="44.1109" lon="6.03747">
        <ele>709.59997558594</ele>
        <time>2020-01-30T13:37:34Z</time>
      </trkpt>
      <trkpt lat="44.11076" lon="6.03735">
        <ele>706.79998779297</ele>
        <time>2020-01-30T13:37:51Z</time>
      </trkpt>
      <trkpt lat="44.11069" lon="6.03723">
        <ele>703.40002441406</ele>
        <time>2020-01-30T13:38:04Z</time>
      </trkpt>
      <trkpt lat="44.11064" lon="6.03711">
        <ele>700.59997558594</ele>
        <time>2020-01-30T13:38:16Z</time>
      </trkpt>
      <trkpt lat="44.11062" lon="6.03698">
        <ele>698.59997558594</ele>
        <time>2020-01-30T13:38:24Z</time>
      </trkpt>
      <trkpt lat="44.11052" lon="6.0367">
        <ele>696.59997558594</ele>
        <time>2020-01-30T13:38:41Z</time>
      </trkpt>
      <trkpt lat="44.11044" lon="6.03657">
        <ele>695.79998779297</ele>
        <time>2020-01-30T13:38:55Z</time>
      </trkpt>
      <trkpt lat="44.11038" lon="6.03648">
        <ele>694.79998779297</ele>
        <time>2020-01-30T13:39:04Z</time>
      </trkpt>
      <trkpt lat="44.11032" lon="6.03643">
        <ele>692.20001220703</ele>
        <time>2020-01-30T13:39:23Z</time>
      </trkpt>
      <trkpt lat="44.11021" lon="6.03641">
        <ele>689.79998779297</ele>
        <time>2020-01-30T13:39:40Z</time>
      </trkpt>
      <trkpt lat="44.11021" lon="6.03636">
        <ele>689.59997558594</ele>
        <time>2020-01-30T13:40:06Z</time>
      </trkpt>
      <trkpt lat="44.11023" lon="6.03628">
        <ele>689.40002441406</ele>
        <time>2020-01-30T13:40:25Z</time>
      </trkpt>
      <trkpt lat="44.11028" lon="6.03624">
        <ele>689</ele>
        <time>2020-01-30T13:40:46Z</time>
      </trkpt>
      <trkpt lat="44.11039" lon="6.03623">
        <ele>689</ele>
        <time>2020-01-30T13:41:15Z</time>
      </trkpt>
      <trkpt lat="44.1104" lon="6.03618">
        <ele>688.59997558594</ele>
        <time>2020-01-30T13:41:19Z</time>
      </trkpt>
      <trkpt lat="44.11039" lon="6.03615">
        <ele>688.40002441406</ele>
        <time>2020-01-30T13:41:21Z</time>
      </trkpt>
      <trkpt lat="44.11032" lon="6.03603">
        <ele>685.40002441406</ele>
        <time>2020-01-30T13:41:35Z</time>
      </trkpt>
      <trkpt lat="44.11029" lon="6.03586">
        <ele>683.20001220703</ele>
        <time>2020-01-30T13:41:53Z</time>
      </trkpt>
      <trkpt lat="44.1102" lon="6.03565">
        <ele>680</ele>
        <time>2020-01-30T13:42:12Z</time>
      </trkpt>
      <trkpt lat="44.11015" lon="6.03544">
        <ele>677.40002441406</ele>
        <time>2020-01-30T13:42:31Z</time>
      </trkpt>
      <trkpt lat="44.11009" lon="6.03521">
        <ele>674.40002441406</ele>
        <time>2020-01-30T13:42:49Z</time>
      </trkpt>
      <trkpt lat="44.11005" lon="6.03496">
        <ele>671.59997558594</ele>
        <time>2020-01-30T13:43:09Z</time>
      </trkpt>
      <trkpt lat="44.11002" lon="6.03485">
        <ele>670.59997558594</ele>
        <time>2020-01-30T13:43:15Z</time>
      </trkpt>
      <trkpt lat="44.11" lon="6.03463">
        <ele>668.40002441406</ele>
        <time>2020-01-30T13:43:31Z</time>
      </trkpt>
      <trkpt lat="44.10996" lon="6.03439">
        <ele>665.79998779297</ele>
        <time>2020-01-30T13:43:50Z</time>
      </trkpt>
      <trkpt lat="44.10993" lon="6.03425">
        <ele>663.79998779297</ele>
        <time>2020-01-30T13:44:06Z</time>
      </trkpt>
      <trkpt lat="44.10993" lon="6.03401">
        <ele>660.59997558594</ele>
        <time>2020-01-30T13:44:27Z</time>
      </trkpt>
      <trkpt lat="44.10988" lon="6.03386">
        <ele>657.40002441406</ele>
        <time>2020-01-30T13:44:41Z</time>
      </trkpt>
      <trkpt lat="44.10986" lon="6.03381">
        <ele>655</ele>
        <time>2020-01-30T13:45:08Z</time>
      </trkpt>
      <trkpt lat="44.10981" lon="6.03362">
        <ele>652</ele>
        <time>2020-01-30T13:45:28Z</time>
      </trkpt>
      <trkpt lat="44.10984" lon="6.03347">
        <ele>648.79998779297</ele>
        <time>2020-01-30T13:45:43Z</time>
      </trkpt>
      <trkpt lat="44.10977" lon="6.03336">
        <ele>646.20001220703</ele>
        <time>2020-01-30T13:46:03Z</time>
      </trkpt>
      <trkpt lat="44.10976" lon="6.03337">
        <ele>646</ele>
        <time>2020-01-30T13:46:04Z</time>
      </trkpt>
      <trkpt lat="44.10962" lon="6.03342">
        <ele>645</ele>
        <time>2020-01-30T13:46:19Z</time>
      </trkpt>
      <trkpt lat="44.1095" lon="6.03355">
        <ele>642.79998779297</ele>
        <time>2020-01-30T13:46:39Z</time>
      </trkpt>
      <trkpt lat="44.10943" lon="6.03354">
        <ele>640.79998779297</ele>
        <time>2020-01-30T13:46:55Z</time>
      </trkpt>
      <trkpt lat="44.10943" lon="6.03341">
        <ele>638.40002441406</ele>
        <time>2020-01-30T13:47:18Z</time>
      </trkpt>
      <trkpt lat="44.10945" lon="6.03347">
        <ele>638.79998779297</ele>
        <time>2020-01-30T13:48:10Z</time>
      </trkpt>
      <trkpt lat="44.10945" lon="6.03336">
        <ele>638.20001220703</ele>
        <time>2020-01-30T13:48:56Z</time>
      </trkpt>
      <trkpt lat="44.10944" lon="6.03319">
        <ele>637.40002441406</ele>
        <time>2020-01-30T13:49:10Z</time>
      </trkpt>
      <trkpt lat="44.10945" lon="6.03308">
        <ele>636</ele>
        <time>2020-01-30T13:49:20Z</time>
      </trkpt>
      <trkpt lat="44.10939" lon="6.03291">
        <ele>634.40002441406</ele>
        <time>2020-01-30T13:49:36Z</time>
      </trkpt>
      <trkpt lat="44.10944" lon="6.03272">
        <ele>631.20001220703</ele>
        <time>2020-01-30T13:49:52Z</time>
      </trkpt>
      <trkpt lat="44.1095" lon="6.03252">
        <ele>628.59997558594</ele>
        <time>2020-01-30T13:50:09Z</time>
      </trkpt>
      <trkpt lat="44.10939" lon="6.03244">
        <ele>625.79998779297</ele>
        <time>2020-01-30T13:50:27Z</time>
      </trkpt>
      <trkpt lat="44.10928" lon="6.03251">
        <ele>623.40002441406</ele>
        <time>2020-01-30T13:50:43Z</time>
      </trkpt>
      <trkpt lat="44.10917" lon="6.03257">
        <ele>620.79998779297</ele>
        <time>2020-01-30T13:51:03Z</time>
      </trkpt>
      <trkpt lat="44.10918" lon="6.03236">
        <ele>617.79998779297</ele>
        <time>2020-01-30T13:51:23Z</time>
      </trkpt>
      <trkpt lat="44.10918" lon="6.03202">
        <ele>614.79998779297</ele>
        <time>2020-01-30T13:51:43Z</time>
      </trkpt>
      <trkpt lat="44.10918" lon="6.03199">
        <ele>614.59997558594</ele>
        <time>2020-01-30T13:51:45Z</time>
      </trkpt>
      <trkpt lat="44.10927" lon="6.03191">
        <ele>614.20001220703</ele>
        <time>2020-01-30T13:51:58Z</time>
      </trkpt>
      <trkpt lat="44.10931" lon="6.03183">
        <ele>613.40002441406</ele>
        <time>2020-01-30T13:52:16Z</time>
      </trkpt>
      <trkpt lat="44.10926" lon="6.03176">
        <ele>612.40002441406</ele>
        <time>2020-01-30T13:52:37Z</time>
      </trkpt>
      <trkpt lat="44.10928" lon="6.03164">
        <ele>609.59997558594</ele>
        <time>2020-01-30T13:52:55Z</time>
      </trkpt>
      <trkpt lat="44.10918" lon="6.03151">
        <ele>607.20001220703</ele>
        <time>2020-01-30T13:53:11Z</time>
      </trkpt>
      <trkpt lat="44.10904" lon="6.03151">
        <ele>604</ele>
        <time>2020-01-30T13:53:30Z</time>
      </trkpt>
      <trkpt lat="44.10903" lon="6.03152">
        <ele>603.79998779297</ele>
        <time>2020-01-30T13:53:32Z</time>
      </trkpt>
      <trkpt lat="44.10896" lon="6.03136">
        <ele>600.79998779297</ele>
        <time>2020-01-30T13:53:50Z</time>
      </trkpt>
      <trkpt lat="44.10895" lon="6.03122">
        <ele>598.59997558594</ele>
        <time>2020-01-30T13:54:19Z</time>
      </trkpt>
      <trkpt lat="44.10895" lon="6.0312">
        <ele>597.79998779297</ele>
        <time>2020-01-30T13:54:45Z</time>
      </trkpt>
      <trkpt lat="44.10895" lon="6.03115">
        <ele>597.79998779297</ele>
        <time>2020-01-30T13:55:37Z</time>
      </trkpt>
      <trkpt lat="44.10899" lon="6.03091">
        <ele>596.20001220703</ele>
        <time>2020-01-30T13:55:56Z</time>
      </trkpt>
      <trkpt lat="44.10894" lon="6.03066">
        <ele>593.79998779297</ele>
        <time>2020-01-30T13:56:13Z</time>
      </trkpt>
      <trkpt lat="44.10894" lon="6.03056">
        <ele>592.79998779297</ele>
        <time>2020-01-30T13:56:21Z</time>
      </trkpt>
      <trkpt lat="44.10892" lon="6.03035">
        <ele>591.40002441406</ele>
        <time>2020-01-30T13:56:36Z</time>
      </trkpt>
      <trkpt lat="44.10894" lon="6.0303">
        <ele>591.20001220703</ele>
        <time>2020-01-30T13:56:40Z</time>
      </trkpt>
      <trkpt lat="44.10892" lon="6.03005">
        <ele>589.59997558594</ele>
        <time>2020-01-30T13:56:57Z</time>
      </trkpt>
      <trkpt lat="44.10891" lon="6.02995">
        <ele>588.79998779297</ele>
        <time>2020-01-30T13:57:03Z</time>
      </trkpt>
      <trkpt lat="44.10888" lon="6.02973">
        <ele>587.59997558594</ele>
        <time>2020-01-30T13:57:17Z</time>
      </trkpt>
      <trkpt lat="44.10887" lon="6.02967">
        <ele>587</ele>
        <time>2020-01-30T13:57:21Z</time>
      </trkpt>
      <trkpt lat="44.10887" lon="6.02958">
        <ele>586.79998779297</ele>
        <time>2020-01-30T13:57:26Z</time>
      </trkpt>
      <trkpt lat="44.10884" lon="6.02933">
        <ele>586</ele>
        <time>2020-01-30T13:57:42Z</time>
      </trkpt>
      <trkpt lat="44.10884" lon="6.02907">
        <ele>585.20001220703</ele>
        <time>2020-01-30T13:57:58Z</time>
      </trkpt>
      <trkpt lat="44.10881" lon="6.02881">
        <ele>584.40002441406</ele>
        <time>2020-01-30T13:58:16Z</time>
      </trkpt>
      <trkpt lat="44.10879" lon="6.02862">
        <ele>584.20001220703</ele>
        <time>2020-01-30T13:58:31Z</time>
      </trkpt>
      <trkpt lat="44.10873" lon="6.0284">
        <ele>584</ele>
        <time>2020-01-30T13:58:51Z</time>
      </trkpt>
      <trkpt lat="44.10872" lon="6.02838">
        <ele>583.79998779297</ele>
        <time>2020-01-30T13:58:53Z</time>
      </trkpt>
      <trkpt lat="44.10867" lon="6.0282">
        <ele>583.79998779297</ele>
        <time>2020-01-30T13:59:07Z</time>
      </trkpt>
      <trkpt lat="44.10861" lon="6.02799">
        <ele>584.20001220703</ele>
        <time>2020-01-30T13:59:22Z</time>
      </trkpt>
      <trkpt lat="44.10858" lon="6.02788">
        <ele>584.40002441406</ele>
        <time>2020-01-30T13:59:30Z</time>
      </trkpt>
      <trkpt lat="44.10854" lon="6.02765">
        <ele>585.20001220703</ele>
        <time>2020-01-30T13:59:48Z</time>
      </trkpt>
      <trkpt lat="44.10849" lon="6.02742">
        <ele>585.79998779297</ele>
        <time>2020-01-30T14:00:03Z</time>
      </trkpt>
      <trkpt lat="44.10849" lon="6.02721">
        <ele>586.40002441406</ele>
        <time>2020-01-30T14:00:20Z</time>
      </trkpt>
      <trkpt lat="44.10854" lon="6.02695">
        <ele>587.20001220703</ele>
        <time>2020-01-30T14:00:36Z</time>
      </trkpt>
      <trkpt lat="44.10854" lon="6.02681">
        <ele>587.20001220703</ele>
        <time>2020-01-30T14:00:44Z</time>
      </trkpt>
      <trkpt lat="44.10848" lon="6.02656">
        <ele>587.79998779297</ele>
        <time>2020-01-30T14:01:01Z</time>
      </trkpt>
      <trkpt lat="44.10843" lon="6.02632">
        <ele>588.79998779297</ele>
        <time>2020-01-30T14:01:16Z</time>
      </trkpt>
      <trkpt lat="44.10843" lon="6.02626">
        <ele>588.79998779297</ele>
        <time>2020-01-30T14:01:19Z</time>
      </trkpt>
      <trkpt lat="44.10838" lon="6.02602">
        <ele>589.20001220703</ele>
        <time>2020-01-30T14:01:35Z</time>
      </trkpt>
      <trkpt lat="44.10829" lon="6.02577">
        <ele>588.59997558594</ele>
        <time>2020-01-30T14:01:52Z</time>
      </trkpt>
      <trkpt lat="44.10821" lon="6.02551">
        <ele>588.20001220703</ele>
        <time>2020-01-30T14:02:08Z</time>
      </trkpt>
      <trkpt lat="44.10816" lon="6.02529">
        <ele>587.20001220703</ele>
        <time>2020-01-30T14:02:24Z</time>
      </trkpt>
      <trkpt lat="44.10808" lon="6.02518">
        <ele>586.20001220703</ele>
        <time>2020-01-30T14:02:34Z</time>
      </trkpt>
      <trkpt lat="44.10804" lon="6.02506">
        <ele>585.40002441406</ele>
        <time>2020-01-30T14:02:44Z</time>
      </trkpt>
      <trkpt lat="44.10803" lon="6.025">
        <ele>585.20001220703</ele>
        <time>2020-01-30T14:02:48Z</time>
      </trkpt>
      <trkpt lat="44.10801" lon="6.0248">
        <ele>583.40002441406</ele>
        <time>2020-01-30T14:03:03Z</time>
      </trkpt>
      <trkpt lat="44.108" lon="6.02476">
        <ele>583.20001220703</ele>
        <time>2020-01-30T14:03:05Z</time>
      </trkpt>
      <trkpt lat="44.10799" lon="6.02467">
        <ele>582.40002441406</ele>
        <time>2020-01-30T14:03:11Z</time>
      </trkpt>
      <trkpt lat="44.10795" lon="6.02445">
        <ele>580.79998779297</ele>
        <time>2020-01-30T14:03:26Z</time>
      </trkpt>
      <trkpt lat="44.10791" lon="6.02427">
        <ele>579</ele>
        <time>2020-01-30T14:03:45Z</time>
      </trkpt>
      <trkpt lat="44.1079" lon="6.02423">
        <ele>578.79998779297</ele>
        <time>2020-01-30T14:03:50Z</time>
      </trkpt>
      <trkpt lat="44.10783" lon="6.02398">
        <ele>577.59997558594</ele>
        <time>2020-01-30T14:04:07Z</time>
      </trkpt>
      <trkpt lat="44.10777" lon="6.02379">
        <ele>576</ele>
        <time>2020-01-30T14:04:22Z</time>
      </trkpt>
      <trkpt lat="44.10775" lon="6.02369">
        <ele>574.79998779297</ele>
        <time>2020-01-30T14:04:43Z</time>
      </trkpt>
      <trkpt lat="44.10775" lon="6.02366">
        <ele>574.40002441406</ele>
        <time>2020-01-30T14:05:20Z</time>
      </trkpt>
      <trkpt lat="44.10776" lon="6.02363">
        <ele>574.40002441406</ele>
        <time>2020-01-30T14:06:22Z</time>
      </trkpt>
      <trkpt lat="44.10777" lon="6.02361">
        <ele>574.20001220703</ele>
        <time>2020-01-30T14:06:36Z</time>
      </trkpt>
      <trkpt lat="44.10778" lon="6.02332">
        <ele>572.40002441406</ele>
        <time>2020-01-30T14:06:55Z</time>
      </trkpt>
      <trkpt lat="44.10782" lon="6.02305">
        <ele>570</ele>
        <time>2020-01-30T14:07:14Z</time>
      </trkpt>
      <trkpt lat="44.10788" lon="6.02275">
        <ele>568.20001220703</ele>
        <time>2020-01-30T14:07:36Z</time>
      </trkpt>
      <trkpt lat="44.10789" lon="6.02255">
        <ele>567.79998779297</ele>
        <time>2020-01-30T14:07:50Z</time>
      </trkpt>
      <trkpt lat="44.10789" lon="6.02252">
        <ele>567.79998779297</ele>
        <time>2020-01-30T14:07:52Z</time>
      </trkpt>
      <trkpt lat="44.10781" lon="6.02225">
        <ele>567.59997558594</ele>
        <time>2020-01-30T14:08:12Z</time>
      </trkpt>
      <trkpt lat="44.1077" lon="6.02204">
        <ele>567.79998779297</ele>
        <time>2020-01-30T14:08:31Z</time>
      </trkpt>
      <trkpt lat="44.10763" lon="6.02187">
        <ele>567.79998779297</ele>
        <time>2020-01-30T14:08:44Z</time>
      </trkpt>
      <trkpt lat="44.10759" lon="6.02164">
        <ele>567.59997558594</ele>
        <time>2020-01-30T14:09:02Z</time>
      </trkpt>
      <trkpt lat="44.10756" lon="6.02137">
        <ele>566.79998779297</ele>
        <time>2020-01-30T14:09:20Z</time>
      </trkpt>
      <trkpt lat="44.10755" lon="6.02109">
        <ele>565.79998779297</ele>
        <time>2020-01-30T14:09:40Z</time>
      </trkpt>
      <trkpt lat="44.10755" lon="6.02079">
        <ele>564.79998779297</ele>
        <time>2020-01-30T14:09:59Z</time>
      </trkpt>
      <trkpt lat="44.10756" lon="6.02077">
        <ele>564.59997558594</ele>
        <time>2020-01-30T14:10:01Z</time>
      </trkpt>
      <trkpt lat="44.10767" lon="6.02061">
        <ele>563.40002441406</ele>
        <time>2020-01-30T14:10:17Z</time>
      </trkpt>
      <trkpt lat="44.10785" lon="6.0205">
        <ele>562</ele>
        <time>2020-01-30T14:10:33Z</time>
      </trkpt>
      <trkpt lat="44.10793" lon="6.02044">
        <ele>560</ele>
        <time>2020-01-30T14:10:42Z</time>
      </trkpt>
      <trkpt lat="44.10803" lon="6.02031">
        <ele>557.40002441406</ele>
        <time>2020-01-30T14:10:56Z</time>
      </trkpt>
      <trkpt lat="44.10802" lon="6.02021">
        <ele>555.59997558594</ele>
        <time>2020-01-30T14:11:09Z</time>
      </trkpt>
      <trkpt lat="44.10786" lon="6.02028">
        <ele>554</ele>
        <time>2020-01-30T14:11:29Z</time>
      </trkpt>
      <trkpt lat="44.10781" lon="6.02029">
        <ele>554</ele>
        <time>2020-01-30T14:11:35Z</time>
      </trkpt>
      <trkpt lat="44.10764" lon="6.02036">
        <ele>555.59997558594</ele>
        <time>2020-01-30T14:11:51Z</time>
      </trkpt>
      <trkpt lat="44.10747" lon="6.02031">
        <ele>556</ele>
        <time>2020-01-30T14:12:06Z</time>
      </trkpt>
      <trkpt lat="44.1073" lon="6.02027">
        <ele>556.59997558594</ele>
        <time>2020-01-30T14:12:23Z</time>
      </trkpt>
      <trkpt lat="44.10717" lon="6.02032">
        <ele>556.20001220703</ele>
        <time>2020-01-30T14:12:36Z</time>
      </trkpt>
      <trkpt lat="44.10702" lon="6.02036">
        <ele>556</ele>
        <time>2020-01-30T14:12:54Z</time>
      </trkpt>
      <trkpt lat="44.10688" lon="6.02031">
        <ele>554.59997558594</ele>
        <time>2020-01-30T14:13:15Z</time>
      </trkpt>
      <trkpt lat="44.10686" lon="6.02028">
        <ele>553.59997558594</ele>
        <time>2020-01-30T14:13:35Z</time>
      </trkpt>
      <trkpt lat="44.10686" lon="6.02029">
        <ele>553.59997558594</ele>
        <time>2020-01-30T14:14:30Z</time>
      </trkpt>
      <trkpt lat="44.10687" lon="6.02029">
        <ele>553.59997558594</ele>
        <time>2020-01-30T14:15:56Z</time>
      </trkpt>
      <trkpt lat="44.10687" lon="6.02029">
        <ele>553.40002441406</ele>
        <time>2020-01-30T14:16:52Z</time>
      </trkpt>
      <trkpt lat="44.10689" lon="6.02032">
        <ele>553.79998779297</ele>
        <time>2020-01-30T14:17:34Z</time>
      </trkpt>
      <trkpt lat="44.107" lon="6.02035">
        <ele>554.40002441406</ele>
        <time>2020-01-30T14:18:05Z</time>
      </trkpt>
      <trkpt lat="44.10715" lon="6.0203">
        <ele>555.79998779297</ele>
        <time>2020-01-30T14:18:23Z</time>
      </trkpt>
      <trkpt lat="44.10734" lon="6.02031">
        <ele>556</ele>
        <time>2020-01-30T14:18:42Z</time>
      </trkpt>
      <trkpt lat="44.10754" lon="6.0204">
        <ele>555.79998779297</ele>
        <time>2020-01-30T14:19:03Z</time>
      </trkpt>
      <trkpt lat="44.1077" lon="6.02034">
        <ele>555.40002441406</ele>
        <time>2020-01-30T14:19:17Z</time>
      </trkpt>
      <trkpt lat="44.10778" lon="6.02032">
        <ele>555.40002441406</ele>
        <time>2020-01-30T14:19:21Z</time>
      </trkpt>
      <trkpt lat="44.10792" lon="6.02024">
        <ele>554</ele>
        <time>2020-01-30T14:19:36Z</time>
      </trkpt>
      <trkpt lat="44.10807" lon="6.0202">
        <ele>554.20001220703</ele>
        <time>2020-01-30T14:19:52Z</time>
      </trkpt>
      <trkpt lat="44.10811" lon="6.02017">
        <ele>554.20001220703</ele>
        <time>2020-01-30T14:19:55Z</time>
      </trkpt>
      <trkpt lat="44.10822" lon="6.02003">
        <ele>553.40002441406</ele>
        <time>2020-01-30T14:20:10Z</time>
      </trkpt>
      <trkpt lat="44.10824" lon="6.01999">
        <ele>553</ele>
        <time>2020-01-30T14:20:14Z</time>
      </trkpt>
      <trkpt lat="44.10826" lon="6.01993">
        <ele>552.59997558594</ele>
        <time>2020-01-30T14:20:18Z</time>
      </trkpt>
      <trkpt lat="44.10837" lon="6.0197">
        <ele>550.40002441406</ele>
        <time>2020-01-30T14:20:37Z</time>
      </trkpt>
      <trkpt lat="44.10844" lon="6.01959">
        <ele>548.79998779297</ele>
        <time>2020-01-30T14:20:53Z</time>
      </trkpt>
      <trkpt lat="44.10846" lon="6.01945">
        <ele>548</ele>
        <time>2020-01-30T14:21:09Z</time>
      </trkpt>
      <trkpt lat="44.10849" lon="6.01939">
        <ele>546.79998779297</ele>
        <time>2020-01-30T14:21:25Z</time>
      </trkpt>
      <trkpt lat="44.10855" lon="6.01926">
        <ele>545.40002441406</ele>
        <time>2020-01-30T14:21:40Z</time>
      </trkpt>
      <trkpt lat="44.10856" lon="6.01923">
        <ele>545.59997558594</ele>
        <time>2020-01-30T14:21:59Z</time>
      </trkpt>
      <trkpt lat="44.10856" lon="6.01924">
        <ele>545.59997558594</ele>
        <time>2020-01-30T14:22:00Z</time>
      </trkpt>
      <trkpt lat="44.10857" lon="6.01926">
        <ele>545.59997558594</ele>
        <time>2020-01-30T14:22:02Z</time>
      </trkpt>
      <trkpt lat="44.10869" lon="6.01948">
        <ele>543</ele>
        <time>2020-01-30T14:22:20Z</time>
      </trkpt>
      <trkpt lat="44.10878" lon="6.01968">
        <ele>540</ele>
        <time>2020-01-30T14:22:34Z</time>
      </trkpt>
      <trkpt lat="44.1088" lon="6.01971">
        <ele>539.40002441406</ele>
        <time>2020-01-30T14:22:37Z</time>
      </trkpt>
      <trkpt lat="44.10892" lon="6.01986">
        <ele>537.20001220703</ele>
        <time>2020-01-30T14:22:51Z</time>
      </trkpt>
      <trkpt lat="44.10906" lon="6.01994">
        <ele>535.40002441406</ele>
        <time>2020-01-30T14:23:04Z</time>
      </trkpt>
      <trkpt lat="44.10923" lon="6.02001">
        <ele>533.59997558594</ele>
        <time>2020-01-30T14:23:20Z</time>
      </trkpt>
      <trkpt lat="44.10937" lon="6.02003">
        <ele>531.40002441406</ele>
        <time>2020-01-30T14:23:34Z</time>
      </trkpt>
      <trkpt lat="44.10944" lon="6.01997">
        <ele>528.40002441406</ele>
        <time>2020-01-30T14:23:49Z</time>
      </trkpt>
      <trkpt lat="44.10939" lon="6.01985">
        <ele>527.20001220703</ele>
        <time>2020-01-30T14:24:26Z</time>
      </trkpt>
      <trkpt lat="44.10934" lon="6.01966">
        <ele>524.20001220703</ele>
        <time>2020-01-30T14:24:45Z</time>
      </trkpt>
      <trkpt lat="44.10929" lon="6.01946">
        <ele>521.20001220703</ele>
        <time>2020-01-30T14:25:04Z</time>
      </trkpt>
      <trkpt lat="44.10917" lon="6.01918">
        <ele>518.20001220703</ele>
        <time>2020-01-30T14:25:24Z</time>
      </trkpt>
      <trkpt lat="44.10917" lon="6.01894">
        <ele>515.20001220703</ele>
        <time>2020-01-30T14:25:42Z</time>
      </trkpt>
      <trkpt lat="44.10916" lon="6.01886">
        <ele>514.20001220703</ele>
        <time>2020-01-30T14:25:47Z</time>
      </trkpt>
      <trkpt lat="44.10914" lon="6.01879">
        <ele>513</ele>
        <time>2020-01-30T14:25:50Z</time>
      </trkpt>
      <trkpt lat="44.10907" lon="6.01864">
        <ele>510.79998779297</ele>
        <time>2020-01-30T14:26:04Z</time>
      </trkpt>
      <trkpt lat="44.10906" lon="6.0186">
        <ele>509.39999389648</ele>
        <time>2020-01-30T14:26:27Z</time>
      </trkpt>
      <trkpt lat="44.109" lon="6.01847">
        <ele>508</ele>
        <time>2020-01-30T14:27:00Z</time>
      </trkpt>
      <trkpt lat="44.10896" lon="6.01836">
        <ele>506</ele>
        <time>2020-01-30T14:27:16Z</time>
      </trkpt>
      <trkpt lat="44.10896" lon="6.01834">
        <ele>505.79998779297</ele>
        <time>2020-01-30T14:27:17Z</time>
      </trkpt>
      <trkpt lat="44.10896" lon="6.01824">
        <ele>502.79998779297</ele>
        <time>2020-01-30T14:27:29Z</time>
      </trkpt>
      <trkpt lat="44.10898" lon="6.01826">
        <ele>500</ele>
        <time>2020-01-30T14:27:53Z</time>
      </trkpt>
      <trkpt lat="44.10904" lon="6.01828">
        <ele>500.39999389648</ele>
        <time>2020-01-30T14:28:25Z</time>
      </trkpt>
      <trkpt lat="44.10903" lon="6.01823">
        <ele>500.39999389648</ele>
        <time>2020-01-30T14:29:31Z</time>
      </trkpt>
      <trkpt lat="44.10904" lon="6.01824">
        <ele>500.20001220703</ele>
        <time>2020-01-30T14:30:28Z</time>
      </trkpt>
      <trkpt lat="44.10903" lon="6.01824">
        <ele>500.20001220703</ele>
        <time>2020-01-30T14:31:45Z</time>
      </trkpt>
      <trkpt lat="44.10906" lon="6.01815">
        <ele>499.60000610352</ele>
        <time>2020-01-30T14:32:01Z</time>
      </trkpt>
      <trkpt lat="44.10912" lon="6.01802">
        <ele>496.39999389648</ele>
        <time>2020-01-30T14:32:18Z</time>
      </trkpt>
      <trkpt lat="44.10915" lon="6.01787">
        <ele>495</ele>
        <time>2020-01-30T14:32:34Z</time>
      </trkpt>
      <trkpt lat="44.10915" lon="6.01786">
        <ele>495</ele>
        <time>2020-01-30T14:32:35Z</time>
      </trkpt>
      <trkpt lat="44.1091" lon="6.01768">
        <ele>493.79998779297</ele>
        <time>2020-01-30T14:32:49Z</time>
      </trkpt>
      <trkpt lat="44.10901" lon="6.01759">
        <ele>491.39999389648</ele>
        <time>2020-01-30T14:33:04Z</time>
      </trkpt>
      <trkpt lat="44.10898" lon="6.01747">
        <ele>488.79998779297</ele>
        <time>2020-01-30T14:33:19Z</time>
      </trkpt>
      <trkpt lat="44.1091" lon="6.01746">
        <ele>486</ele>
        <time>2020-01-30T14:33:36Z</time>
      </trkpt>
      <trkpt lat="44.10912" lon="6.01734">
        <ele>483.39999389648</ele>
        <time>2020-01-30T14:33:54Z</time>
      </trkpt>
      <trkpt lat="44.10901" lon="6.01725">
        <ele>481</ele>
        <time>2020-01-30T14:34:08Z</time>
      </trkpt>
      <trkpt lat="44.10899" lon="6.01719">
        <ele>479.79998779297</ele>
        <time>2020-01-30T14:34:14Z</time>
      </trkpt>
      <trkpt lat="44.10909" lon="6.01709">
        <ele>476.60000610352</ele>
        <time>2020-01-30T14:34:31Z</time>
      </trkpt>
      <trkpt lat="44.10922" lon="6.01704">
        <ele>473.39999389648</ele>
        <time>2020-01-30T14:34:50Z</time>
      </trkpt>
      <trkpt lat="44.10928" lon="6.01698">
        <ele>472</ele>
        <time>2020-01-30T14:34:59Z</time>
      </trkpt>
      <trkpt lat="44.10934" lon="6.01692">
        <ele>470.60000610352</ele>
        <time>2020-01-30T14:35:11Z</time>
      </trkpt>
      <trkpt lat="44.10939" lon="6.01692">
        <ele>468.39999389648</ele>
        <time>2020-01-30T14:35:33Z</time>
      </trkpt>
      <trkpt lat="44.10948" lon="6.0169">
        <ele>468</ele>
        <time>2020-01-30T14:35:47Z</time>
      </trkpt>
      <trkpt lat="44.10944" lon="6.01683">
        <ele>467.79998779297</ele>
        <time>2020-01-30T14:36:04Z</time>
      </trkpt>
      <trkpt lat="44.1094" lon="6.01668">
        <ele>467.20001220703</ele>
        <time>2020-01-30T14:36:22Z</time>
      </trkpt>
      <trkpt lat="44.10941" lon="6.01659">
        <ele>465.79998779297</ele>
        <time>2020-01-30T14:36:34Z</time>
      </trkpt>
      <trkpt lat="44.10941" lon="6.0164">
        <ele>464.39999389648</ele>
        <time>2020-01-30T14:36:52Z</time>
      </trkpt>
      <trkpt lat="44.10941" lon="6.01619">
        <ele>461.39999389648</ele>
        <time>2020-01-30T14:37:10Z</time>
      </trkpt>
      <trkpt lat="44.10943" lon="6.01611">
        <ele>458.79998779297</ele>
        <time>2020-01-30T14:37:26Z</time>
      </trkpt>
      <trkpt lat="44.10951" lon="6.01604">
        <ele>455.60000610352</ele>
        <time>2020-01-30T14:37:43Z</time>
      </trkpt>
      <trkpt lat="44.10952" lon="6.01602">
        <ele>452.60000610352</ele>
        <time>2020-01-30T14:37:55Z</time>
      </trkpt>
      <trkpt lat="44.10951" lon="6.0159">
        <ele>449.39999389648</ele>
        <time>2020-01-30T14:38:10Z</time>
      </trkpt>
      <trkpt lat="44.10965" lon="6.01593">
        <ele>447.20001220703</ele>
        <time>2020-01-30T14:38:29Z</time>
      </trkpt>
      <trkpt lat="44.10974" lon="6.01594">
        <ele>446.60000610352</ele>
        <time>2020-01-30T14:38:37Z</time>
      </trkpt>
      <trkpt lat="44.10984" lon="6.01622">
        <ele>446.60000610352</ele>
        <time>2020-01-30T14:38:57Z</time>
      </trkpt>
      <trkpt lat="44.10984" lon="6.01623">
        <ele>466.79998779297</ele>
        <time>2020-01-30T14:38:58Z</time>
      </trkpt>
      <trkpt lat="44.10984" lon="6.01624">
        <ele>466.79998779297</ele>
        <time>2020-01-30T14:38:59Z</time>
      </trkpt>
      <trkpt lat="44.10984" lon="6.01625">
        <ele>466.79998779297</ele>
        <time>2020-01-30T14:39:00Z</time>
      </trkpt>
      <trkpt lat="44.10987" lon="6.01644">
        <ele>467.79998779297</ele>
        <time>2020-01-30T14:39:19Z</time>
      </trkpt>
      <trkpt lat="44.10994" lon="6.01671">
        <ele>470</ele>
        <time>2020-01-30T14:39:43Z</time>
      </trkpt>
      <trkpt lat="44.10994" lon="6.01676">
        <ele>470.39999389648</ele>
        <time>2020-01-30T14:39:48Z</time>
      </trkpt>
      <trkpt lat="44.10994" lon="6.01684">
        <ele>471.39999389648</ele>
        <time>2020-01-30T14:40:01Z</time>
      </trkpt>
      <trkpt lat="44.10991" lon="6.01687">
        <ele>472.60000610352</ele>
        <time>2020-01-30T14:40:16Z</time>
      </trkpt>
      <trkpt lat="44.10993" lon="6.0169">
        <ele>473.20001220703</ele>
        <time>2020-01-30T14:41:15Z</time>
      </trkpt>
      <trkpt lat="44.10994" lon="6.01686">
        <ele>471.39999389648</ele>
        <time>2020-01-30T14:41:30Z</time>
      </trkpt>
      <trkpt lat="44.10995" lon="6.01685">
        <ele>471.20001220703</ele>
        <time>2020-01-30T14:41:51Z</time>
      </trkpt>
      <trkpt lat="44.10999" lon="6.01685">
        <ele>471.20001220703</ele>
        <time>2020-01-30T14:42:53Z</time>
      </trkpt>
      <trkpt lat="44.10996" lon="6.01688">
        <ele>472.39999389648</ele>
        <time>2020-01-30T14:43:24Z</time>
      </trkpt>
      <trkpt lat="44.11" lon="6.01683">
        <ele>471.20001220703</ele>
        <time>2020-01-30T14:43:39Z</time>
      </trkpt>
      <trkpt lat="44.1101" lon="6.01674">
        <ele>468.20001220703</ele>
        <time>2020-01-30T14:44:06Z</time>
      </trkpt>
      <trkpt lat="44.11018" lon="6.01669">
        <ele>469.60000610352</ele>
        <time>2020-01-30T14:44:41Z</time>
      </trkpt>
      <trkpt lat="44.11028" lon="6.01662">
        <ele>472.60000610352</ele>
        <time>2020-01-30T14:44:55Z</time>
      </trkpt>
      <trkpt lat="44.11039" lon="6.01654">
        <ele>475.60000610352</ele>
        <time>2020-01-30T14:45:08Z</time>
      </trkpt>
      <trkpt lat="44.11046" lon="6.01656">
        <ele>478.20001220703</ele>
        <time>2020-01-30T14:45:28Z</time>
      </trkpt>
      <trkpt lat="44.11045" lon="6.01646">
        <ele>478.39999389648</ele>
        <time>2020-01-30T14:45:35Z</time>
      </trkpt>
      <trkpt lat="44.11044" lon="6.01636">
        <ele>478.39999389648</ele>
        <time>2020-01-30T14:45:41Z</time>
      </trkpt>
      <trkpt lat="44.11047" lon="6.01609">
        <ele>477.79998779297</ele>
        <time>2020-01-30T14:45:59Z</time>
      </trkpt>
      <trkpt lat="44.11047" lon="6.01592">
        <ele>476.79998779297</ele>
        <time>2020-01-30T14:46:12Z</time>
      </trkpt>
      <trkpt lat="44.11041" lon="6.01566">
        <ele>475.60000610352</ele>
        <time>2020-01-30T14:46:28Z</time>
      </trkpt>
      <trkpt lat="44.11037" lon="6.01552">
        <ele>475</ele>
        <time>2020-01-30T14:46:37Z</time>
      </trkpt>
      <trkpt lat="44.11028" lon="6.01538">
        <ele>473.79998779297</ele>
        <time>2020-01-30T14:46:53Z</time>
      </trkpt>
      <trkpt lat="44.11019" lon="6.0152">
        <ele>472.79998779297</ele>
        <time>2020-01-30T14:47:08Z</time>
      </trkpt>
      <trkpt lat="44.11006" lon="6.0151">
        <ele>472.20001220703</ele>
        <time>2020-01-30T14:47:24Z</time>
      </trkpt>
      <trkpt lat="44.11004" lon="6.01509">
        <ele>471.79998779297</ele>
        <time>2020-01-30T14:47:26Z</time>
      </trkpt>
      <trkpt lat="44.10989" lon="6.01491">
        <ele>468.60000610352</ele>
        <time>2020-01-30T14:47:48Z</time>
      </trkpt>
      <trkpt lat="44.1098" lon="6.01482">
        <ele>467.20001220703</ele>
        <time>2020-01-30T14:47:59Z</time>
      </trkpt>
      <trkpt lat="44.10967" lon="6.01467">
        <ele>466</ele>
        <time>2020-01-30T14:48:15Z</time>
      </trkpt>
      <trkpt lat="44.10955" lon="6.0145">
        <ele>465.20001220703</ele>
        <time>2020-01-30T14:48:31Z</time>
      </trkpt>
      <trkpt lat="44.10946" lon="6.01435">
        <ele>464.60000610352</ele>
        <time>2020-01-30T14:48:45Z</time>
      </trkpt>
      <trkpt lat="44.10941" lon="6.01428">
        <ele>464.20001220703</ele>
        <time>2020-01-30T14:48:58Z</time>
      </trkpt>
      <trkpt lat="44.10932" lon="6.01416">
        <ele>464</ele>
        <time>2020-01-30T14:49:22Z</time>
      </trkpt>
      <trkpt lat="44.10936" lon="6.01419">
        <ele>464.39999389648</ele>
        <time>2020-01-30T14:49:37Z</time>
      </trkpt>
      <trkpt lat="44.1094" lon="6.01428">
        <ele>464.20001220703</ele>
        <time>2020-01-30T14:49:51Z</time>
      </trkpt>
      <trkpt lat="44.10934" lon="6.01433">
        <ele>463.20001220703</ele>
        <time>2020-01-30T14:50:10Z</time>
      </trkpt>
      <trkpt lat="44.10924" lon="6.01447">
        <ele>460</ele>
        <time>2020-01-30T14:50:27Z</time>
      </trkpt>
      <trkpt lat="44.10917" lon="6.01458">
        <ele>458</ele>
        <time>2020-01-30T14:50:48Z</time>
      </trkpt>
      <trkpt lat="44.10913" lon="6.01466">
        <ele>457.60000610352</ele>
        <time>2020-01-30T14:51:34Z</time>
      </trkpt>
      <trkpt lat="44.10908" lon="6.01467">
        <ele>457.79998779297</ele>
        <time>2020-01-30T14:51:48Z</time>
      </trkpt>
      <trkpt lat="44.10907" lon="6.01467">
        <ele>457.79998779297</ele>
        <time>2020-01-30T14:51:49Z</time>
      </trkpt>
      <trkpt lat="44.10898" lon="6.01468">
        <ele>457.60000610352</ele>
        <time>2020-01-30T14:52:00Z</time>
      </trkpt>
      <trkpt lat="44.10877" lon="6.01473">
        <ele>457.60000610352</ele>
        <time>2020-01-30T14:52:18Z</time>
      </trkpt>
      <trkpt lat="44.10866" lon="6.01478">
        <ele>457.39999389648</ele>
        <time>2020-01-30T14:52:28Z</time>
      </trkpt>
      <trkpt lat="44.10857" lon="6.01484">
        <ele>458</ele>
        <time>2020-01-30T14:52:40Z</time>
      </trkpt>
      <trkpt lat="44.10858" lon="6.01481">
        <ele>458.79998779297</ele>
        <time>2020-01-30T14:52:43Z</time>
      </trkpt>
      <trkpt lat="44.10868" lon="6.0146">
        <ele>460.20001220703</ele>
        <time>2020-01-30T14:52:58Z</time>
      </trkpt>
      <trkpt lat="44.10877" lon="6.0144">
        <ele>460.39999389648</ele>
        <time>2020-01-30T14:53:16Z</time>
      </trkpt>
      <trkpt lat="44.10879" lon="6.01438">
        <ele>460.39999389648</ele>
        <time>2020-01-30T14:53:19Z</time>
      </trkpt>
      <trkpt lat="44.10882" lon="6.01433">
        <ele>460.60000610352</ele>
        <time>2020-01-30T14:53:23Z</time>
      </trkpt>
      <trkpt lat="44.10883" lon="6.01429">
        <ele>460.60000610352</ele>
        <time>2020-01-30T14:53:26Z</time>
      </trkpt>
      <trkpt lat="44.1089" lon="6.01416">
        <ele>461</ele>
        <time>2020-01-30T14:53:39Z</time>
      </trkpt>
      <trkpt lat="44.10892" lon="6.01414">
        <ele>461</ele>
        <time>2020-01-30T14:53:41Z</time>
      </trkpt>
      <trkpt lat="44.10903" lon="6.01392">
        <ele>462</ele>
        <time>2020-01-30T14:53:59Z</time>
      </trkpt>
      <trkpt lat="44.10906" lon="6.01383">
        <ele>462.60000610352</ele>
        <time>2020-01-30T14:54:07Z</time>
      </trkpt>
      <trkpt lat="44.10907" lon="6.01375">
        <ele>462.79998779297</ele>
        <time>2020-01-30T14:54:11Z</time>
      </trkpt>
      <trkpt lat="44.10911" lon="6.01368">
        <ele>463.20001220703</ele>
        <time>2020-01-30T14:54:17Z</time>
      </trkpt>
      <trkpt lat="44.10917" lon="6.01359">
        <ele>463.79998779297</ele>
        <time>2020-01-30T14:54:25Z</time>
      </trkpt>
      <trkpt lat="44.10936" lon="6.01343">
        <ele>464.39999389648</ele>
        <time>2020-01-30T14:54:43Z</time>
      </trkpt>
      <trkpt lat="44.10949" lon="6.01334">
        <ele>464.60000610352</ele>
        <time>2020-01-30T14:54:57Z</time>
      </trkpt>
      <trkpt lat="44.10964" lon="6.01322">
        <ele>465.20001220703</ele>
        <time>2020-01-30T14:55:14Z</time>
      </trkpt>
      <trkpt lat="44.10976" lon="6.01312">
        <ele>465.60000610352</ele>
        <time>2020-01-30T14:55:30Z</time>
      </trkpt>
      <trkpt lat="44.10974" lon="6.01308">
        <ele>465.79998779297</ele>
        <time>2020-01-30T14:55:35Z</time>
      </trkpt>
      <trkpt lat="44.10965" lon="6.01291">
        <ele>465.39999389648</ele>
        <time>2020-01-30T14:55:52Z</time>
      </trkpt>
      <trkpt lat="44.10953" lon="6.01276">
        <ele>464.60000610352</ele>
        <time>2020-01-30T14:56:09Z</time>
      </trkpt>
      <trkpt lat="44.10945" lon="6.01263">
        <ele>464</ele>
        <time>2020-01-30T14:56:20Z</time>
      </trkpt>
      <trkpt lat="44.10936" lon="6.0125">
        <ele>463.39999389648</ele>
        <time>2020-01-30T14:56:34Z</time>
      </trkpt>
      <trkpt lat="44.10925" lon="6.01231">
        <ele>462.79998779297</ele>
        <time>2020-01-30T14:56:53Z</time>
      </trkpt>
      <trkpt lat="44.10914" lon="6.01214">
        <ele>462.20001220703</ele>
        <time>2020-01-30T14:57:10Z</time>
      </trkpt>
      <trkpt lat="44.10909" lon="6.01212">
        <ele>462.20001220703</ele>
        <time>2020-01-30T14:57:27Z</time>
      </trkpt>
      <trkpt lat="44.10913" lon="6.01213">
        <ele>462.20001220703</ele>
        <time>2020-01-30T14:57:55Z</time>
      </trkpt>
      <trkpt lat="44.10917" lon="6.012">
        <ele>461.79998779297</ele>
        <time>2020-01-30T14:58:12Z</time>
      </trkpt>
      <trkpt lat="44.10916" lon="6.0118">
        <ele>461.20001220703</ele>
        <time>2020-01-30T14:58:31Z</time>
      </trkpt>
      <trkpt lat="44.10918" lon="6.01172">
        <ele>460.79998779297</ele>
        <time>2020-01-30T14:59:02Z</time>
      </trkpt>
      <trkpt lat="44.10919" lon="6.01162">
        <ele>460.39999389648</ele>
        <time>2020-01-30T14:59:26Z</time>
      </trkpt>
      <trkpt lat="44.1091" lon="6.01154">
        <ele>460.39999389648</ele>
        <time>2020-01-30T14:59:43Z</time>
      </trkpt>
      <trkpt lat="44.10906" lon="6.01155">
        <ele>460.20001220703</ele>
        <time>2020-01-30T15:00:03Z</time>
      </trkpt>
      <trkpt lat="44.10909" lon="6.0116">
        <ele>460.20001220703</ele>
        <time>2020-01-30T15:00:26Z</time>
      </trkpt>
      <trkpt lat="44.10912" lon="6.01165">
        <ele>460.20001220703</ele>
        <time>2020-01-30T15:00:32Z</time>
      </trkpt>
      <trkpt lat="44.10913" lon="6.01169">
        <ele>460.20001220703</ele>
        <time>2020-01-30T15:00:35Z</time>
      </trkpt>
      <trkpt lat="44.10916" lon="6.01179">
        <ele>460.20001220703</ele>
        <time>2020-01-30T15:00:44Z</time>
      </trkpt>
      <trkpt lat="44.10921" lon="6.012">
        <ele>461.20001220703</ele>
        <time>2020-01-30T15:01:02Z</time>
      </trkpt>
      <trkpt lat="44.10913" lon="6.01208">
        <ele>461.79998779297</ele>
        <time>2020-01-30T15:01:17Z</time>
      </trkpt>
      <trkpt lat="44.10902" lon="6.01196">
        <ele>461.39999389648</ele>
        <time>2020-01-30T15:01:36Z</time>
      </trkpt>
      <trkpt lat="44.10894" lon="6.01171">
        <ele>459.60000610352</ele>
        <time>2020-01-30T15:01:57Z</time>
      </trkpt>
      <trkpt lat="44.10891" lon="6.01165">
        <ele>459</ele>
        <time>2020-01-30T15:02:01Z</time>
      </trkpt>
      <trkpt lat="44.10889" lon="6.01162">
        <ele>458.39999389648</ele>
        <time>2020-01-30T15:02:04Z</time>
      </trkpt>
      <trkpt lat="44.1088" lon="6.01144">
        <ele>455</ele>
        <time>2020-01-30T15:02:21Z</time>
      </trkpt>
      <trkpt lat="44.10879" lon="6.01128">
        <ele>453.39999389648</ele>
        <time>2020-01-30T15:02:34Z</time>
      </trkpt>
      <trkpt lat="44.10881" lon="6.01118">
        <ele>452.20001220703</ele>
        <time>2020-01-30T15:02:40Z</time>
      </trkpt>
      <trkpt lat="44.1089" lon="6.01101">
        <ele>451</ele>
        <time>2020-01-30T15:02:55Z</time>
      </trkpt>
      <trkpt lat="44.10894" lon="6.01097">
        <ele>451</ele>
        <time>2020-01-30T15:03:00Z</time>
      </trkpt>
      <trkpt lat="44.10899" lon="6.01093">
        <ele>451</ele>
        <time>2020-01-30T15:03:25Z</time>
      </trkpt>
      <trkpt lat="44.10906" lon="6.01083">
        <ele>450.79998779297</ele>
        <time>2020-01-30T15:03:44Z</time>
      </trkpt>
      <trkpt lat="44.10907" lon="6.01082">
        <ele>450.79998779297</ele>
        <time>2020-01-30T15:03:46Z</time>
      </trkpt>
      <trkpt lat="44.10913" lon="6.01073">
        <ele>450.79998779297</ele>
        <time>2020-01-30T15:03:56Z</time>
      </trkpt>
      <trkpt lat="44.10927" lon="6.01055">
        <ele>450.79998779297</ele>
        <time>2020-01-30T15:04:15Z</time>
      </trkpt>
      <trkpt lat="44.10935" lon="6.01042">
        <ele>451.20001220703</ele>
        <time>2020-01-30T15:04:30Z</time>
      </trkpt>
      <trkpt lat="44.10938" lon="6.01039">
        <ele>451.20001220703</ele>
        <time>2020-01-30T15:04:34Z</time>
      </trkpt>
      <trkpt lat="44.10941" lon="6.01034">
        <ele>451.20001220703</ele>
        <time>2020-01-30T15:04:38Z</time>
      </trkpt>
      <trkpt lat="44.10949" lon="6.01022">
        <ele>451.39999389648</ele>
        <time>2020-01-30T15:04:51Z</time>
      </trkpt>
      <trkpt lat="44.10962" lon="6.01015">
        <ele>451.39999389648</ele>
        <time>2020-01-30T15:05:06Z</time>
      </trkpt>
      <trkpt lat="44.10973" lon="6.01009">
        <ele>451.79998779297</ele>
        <time>2020-01-30T15:05:18Z</time>
      </trkpt>
      <trkpt lat="44.10982" lon="6.01015">
        <ele>452.60000610352</ele>
        <time>2020-01-30T15:05:33Z</time>
      </trkpt>
      <trkpt lat="44.10984" lon="6.01016">
        <ele>452.79998779297</ele>
        <time>2020-01-30T15:05:40Z</time>
      </trkpt>
      <trkpt lat="44.10985" lon="6.01019">
        <ele>452.79998779297</ele>
        <time>2020-01-30T15:05:42Z</time>
      </trkpt>
      <trkpt lat="44.1099" lon="6.01044">
        <ele>453.39999389648</ele>
        <time>2020-01-30T15:06:00Z</time>
      </trkpt>
      <trkpt lat="44.10991" lon="6.01052">
        <ele>454</ele>
        <time>2020-01-30T15:06:07Z</time>
      </trkpt>
      <trkpt lat="44.10994" lon="6.01058">
        <ele>454.39999389648</ele>
        <time>2020-01-30T15:06:11Z</time>
      </trkpt>
      <trkpt lat="44.11003" lon="6.01082">
        <ele>455.79998779297</ele>
        <time>2020-01-30T15:06:31Z</time>
      </trkpt>
      <trkpt lat="44.1101" lon="6.01098">
        <ele>456.39999389648</ele>
        <time>2020-01-30T15:06:46Z</time>
      </trkpt>
      <trkpt lat="44.11012" lon="6.01102">
        <ele>456.79998779297</ele>
        <time>2020-01-30T15:06:51Z</time>
      </trkpt>
      <trkpt lat="44.11016" lon="6.01114">
        <ele>457</ele>
        <time>2020-01-30T15:07:01Z</time>
      </trkpt>
      <trkpt lat="44.11023" lon="6.01134">
        <ele>458.20001220703</ele>
        <time>2020-01-30T15:07:18Z</time>
      </trkpt>
      <trkpt lat="44.11028" lon="6.01155">
        <ele>459</ele>
        <time>2020-01-30T15:07:35Z</time>
      </trkpt>
      <trkpt lat="44.11032" lon="6.01171">
        <ele>459.79998779297</ele>
        <time>2020-01-30T15:07:50Z</time>
      </trkpt>
      <trkpt lat="44.11033" lon="6.01174">
        <ele>460</ele>
        <time>2020-01-30T15:07:54Z</time>
      </trkpt>
      <trkpt lat="44.11037" lon="6.01189">
        <ele>460.39999389648</ele>
        <time>2020-01-30T15:08:06Z</time>
      </trkpt>
      <trkpt lat="44.11041" lon="6.01208">
        <ele>461.20001220703</ele>
        <time>2020-01-30T15:08:22Z</time>
      </trkpt>
      <trkpt lat="44.11048" lon="6.01229">
        <ele>461.79998779297</ele>
        <time>2020-01-30T15:08:36Z</time>
      </trkpt>
      <trkpt lat="44.11054" lon="6.01254">
        <ele>462.60000610352</ele>
        <time>2020-01-30T15:08:54Z</time>
      </trkpt>
      <trkpt lat="44.11058" lon="6.01259">
        <ele>463</ele>
        <time>2020-01-30T15:08:59Z</time>
      </trkpt>
      <trkpt lat="44.11059" lon="6.01271">
        <ele>463.39999389648</ele>
        <time>2020-01-30T15:09:07Z</time>
      </trkpt>
      <trkpt lat="44.1106" lon="6.0129">
        <ele>464.20001220703</ele>
        <time>2020-01-30T15:09:22Z</time>
      </trkpt>
      <trkpt lat="44.11066" lon="6.01305">
        <ele>464.79998779297</ele>
        <time>2020-01-30T15:09:36Z</time>
      </trkpt>
      <trkpt lat="44.11075" lon="6.01322">
        <ele>465.39999389648</ele>
        <time>2020-01-30T15:09:51Z</time>
      </trkpt>
      <trkpt lat="44.11088" lon="6.01336">
        <ele>466</ele>
        <time>2020-01-30T15:10:10Z</time>
      </trkpt>
      <trkpt lat="44.11101" lon="6.01341">
        <ele>466.39999389648</ele>
        <time>2020-01-30T15:10:28Z</time>
      </trkpt>
      <trkpt lat="44.11106" lon="6.01344">
        <ele>466.39999389648</ele>
        <time>2020-01-30T15:10:41Z</time>
      </trkpt>
      <trkpt lat="44.11107" lon="6.01344">
        <ele>447.60000610352</ele>
        <time>2020-01-30T15:10:42Z</time>
      </trkpt>
      <trkpt lat="44.11107" lon="6.01345">
        <ele>447.79998779297</ele>
        <time>2020-01-30T15:10:43Z</time>
      </trkpt>
      <trkpt lat="44.11108" lon="6.01347">
        <ele>447.60000610352</ele>
        <time>2020-01-30T15:11:27Z</time>
      </trkpt>
      <trkpt lat="44.11107" lon="6.01346">
        <ele>429.20001220703</ele>
        <time>2020-01-30T15:11:45Z</time>
      </trkpt>
    </trkseg>
  </trk>
</gpx>